Back to The Everglades Adventure home page

For the inquiring mind...

View of the entire voyage from Google Earth using Garmin Map Source software tools



View of my Garmin Legend C data loaded in Garmin's Map Source software



All Everglades Adventure Track Data 161 mi


        Position	        Time	                Altitude	        Leg	LegTime	LegSpeedLegCourse

	N25 08.617 W80 55.358	3/22/2008 9:01:42 AM 	-26 ft			36 ft	0:00:12	2 mph	6 true
	N25 08.619 W80 55.357	3/22/2008 9:02:19 AM 	4 ft			9 ft	0:00:37	0.2 mph	43 true
	N25 08.619 W80 55.356	3/22/2008 9:02:53 AM 	-3 ft			3 ft	0:00:34	0.1 mph	56 true
	N25 08.618 W80 55.356	3/22/2008 9:03:33 AM 	-6 ft			4 ft	0:00:40	0.1 mph	132 true
	N25 08.618 W80 55.356	3/22/2008 9:12:08 AM 	11 ft			1 ft	0:08:35	0.0 mph	20 true
	N25 08.620 W80 55.352	3/22/2008 9:13:42 AM 	11 ft			21 ft	0:01:34	0.2 mph	68 true
	N25 08.618 W80 55.352	3/22/2008 9:14:15 AM 	4 ft			11 ft	0:00:33	0.2 mph	162 true
	N25 08.618 W80 55.352	3/22/2008 9:15:06 AM 	-4 ft			2 ft	0:00:51	0.0 mph	179 true
	N25 08.620 W80 55.351	3/22/2008 9:22:51 AM 	-3 ft			13 ft	0:07:45	0.0 mph	23 true
	N25 08.620 W80 55.353	3/22/2008 9:23:33 AM 	8 ft			10 ft	0:00:42	0.2 mph	285 true
	N25 08.620 W80 55.353	3/22/2008 9:24:33 AM 	8 ft			3 ft	0:01:00	0.0 mph	274 true
	N25 08.623 W80 55.352	3/22/2008 9:24:58 AM 	11 ft			18 ft	0:00:25	0.5 mph	24 true
	N25 08.630 W80 55.349	3/22/2008 9:25:26 AM 	8 ft			49 ft	0:00:28	1.2 mph	21 true
	N25 08.633 W80 55.345	3/22/2008 9:25:34 AM 	8 ft			27 ft	0:00:08	2 mph	46 true
	N25 08.646 W80 55.332	3/22/2008 9:26:03 AM 	4 ft			105 ft	0:00:29	2 mph	44 true
	N25 08.659 W80 55.328	3/22/2008 9:26:28 AM 	10 ft			81 ft	0:00:25	2 mph	14 true
	N25 08.671 W80 55.326	3/22/2008 9:27:03 AM 	15 ft			74 ft	0:00:35	1.4 mph	10 true
	N25 08.684 W80 55.325	3/22/2008 9:27:29 AM 	16 ft			83 ft	0:00:26	2 mph	5 true
	N25 08.701 W80 55.324	3/22/2008 9:27:56 AM 	5 ft			102 ft	0:00:27	3 mph	4 true
	N25 08.717 W80 55.321	3/22/2008 9:28:21 AM 	7 ft			100 ft	0:00:25	3 mph	8 true
	N25 08.732 W80 55.320	3/22/2008 9:28:46 AM 	8 ft			87 ft	0:00:25	2 mph	5 true
	N25 08.747 W80 55.320	3/22/2008 9:29:13 AM 	13 ft			96 ft	0:00:27	2 mph	1 true
	N25 08.763 W80 55.320	3/22/2008 9:29:39 AM 	16 ft			98 ft	0:00:26	3 mph	0 true
	N25 08.780 W80 55.320	3/22/2008 9:30:05 AM 	18 ft			103 ft	0:00:26	3 mph	359 true
	N25 08.793 W80 55.321	3/22/2008 9:30:27 AM 	23 ft			80 ft	0:00:22	2 mph	358 true
	N25 08.809 W80 55.320	3/22/2008 9:30:50 AM 	10 ft			94 ft	0:00:23	3 mph	3 true
	N25 08.824 W80 55.320	3/22/2008 9:31:14 AM 	16 ft			91 ft	0:00:24	3 mph	0 true
	N25 08.838 W80 55.319	3/22/2008 9:31:36 AM 	13 ft			88 ft	0:00:22	3 mph	2 true
	N25 08.852 W80 55.319	3/22/2008 9:31:58 AM 	13 ft			86 ft	0:00:22	3 mph	1 true
	N25 08.869 W80 55.320	3/22/2008 9:32:23 AM 	21 ft			99 ft	0:00:25	3 mph	357 true
	N25 08.884 W80 55.320	3/22/2008 9:32:48 AM 	19 ft			92 ft	0:00:25	3 mph	359 true
	N25 08.895 W80 55.319	3/22/2008 9:33:21 AM 	-1 ft			70 ft	0:00:33	1.4 mph	3 true
	N25 08.904 W80 55.320	3/22/2008 9:33:44 AM 	-6 ft			56 ft	0:00:23	2 mph	358 true
	N25 08.919 W80 55.323	3/22/2008 9:34:10 AM 	-3 ft			90 ft	0:00:26	2 mph	347 true
	N25 08.933 W80 55.323	3/22/2008 9:34:35 AM 	-3 ft			88 ft	0:00:25	2 mph	2 true
	N25 08.948 W80 55.323	3/22/2008 9:35:01 AM 	-3 ft			89 ft	0:00:26	2 mph	1 true
	N25 08.957 W80 55.322	3/22/2008 9:35:32 AM 	4 ft			58 ft	0:00:31	1.3 mph	2 true
	N25 08.956 W80 55.322	3/22/2008 9:36:30 AM 	0 ft			12 ft	0:00:58	0.1 mph	158 true
	N25 08.961 W80 55.321	3/22/2008 9:37:31 AM 	15 ft			30 ft	0:01:01	0.3 mph	3 true
	N25 08.968 W80 55.322	3/22/2008 9:37:52 AM 	8 ft			49 ft	0:00:21	2 mph	355 true
	N25 08.976 W80 55.321	3/22/2008 9:38:27 AM 	5 ft			48 ft	0:00:35	0.9 mph	6 true
	N25 08.977 W80 55.322	3/22/2008 9:38:56 AM 	5 ft			3 ft	0:00:29	0.1 mph	305 true
	N25 08.976 W80 55.322	3/22/2008 9:39:40 AM 	7 ft			6 ft	0:00:44	0.1 mph	190 true
	N25 08.985 W80 55.323	3/22/2008 9:40:03 AM 	7 ft			59 ft	0:00:23	2 mph	354 true
	N25 08.998 W80 55.323	3/22/2008 9:40:24 AM 	7 ft			79 ft	0:00:21	3 mph	359 true
	N25 09.014 W80 55.323	3/22/2008 9:40:56 AM 	-3 ft			93 ft	0:00:32	2 mph	2 true
	N25 09.028 W80 55.323	3/22/2008 9:41:22 AM 	0 ft			89 ft	0:00:26	2 mph	0 true
	N25 09.044 W80 55.322	3/22/2008 9:41:49 AM 	-1 ft			98 ft	0:00:27	2 mph	3 true
	N25 09.062 W80 55.321	3/22/2008 9:42:18 AM 	0 ft			111 ft	0:00:29	3 mph	3 true
	N25 09.080 W80 55.321	3/22/2008 9:42:48 AM 	-4 ft			108 ft	0:00:30	2 mph	1 true
	N25 09.094 W80 55.321	3/22/2008 9:43:17 AM 	4 ft			86 ft	0:00:29	2 mph	0 true
	N25 09.111 W80 55.321	3/22/2008 9:43:43 AM 	5 ft			99 ft	0:00:26	3 mph	358 true
	N25 09.126 W80 55.322	3/22/2008 9:44:08 AM 	7 ft			97 ft	0:00:25	3 mph	358 true
	N25 09.135 W80 55.322	3/22/2008 9:44:27 AM 	11 ft			53 ft	0:00:19	2 mph	357 true
	N25 09.148 W80 55.323	3/22/2008 9:44:52 AM 	8 ft			79 ft	0:00:25	2 mph	359 true
	N25 09.163 W80 55.322	3/22/2008 9:45:18 AM 	10 ft			89 ft	0:00:26	2 mph	1 true
	N25 09.177 W80 55.322	3/22/2008 9:45:43 AM 	10 ft			87 ft	0:00:25	2 mph	0 true
	N25 09.189 W80 55.322	3/22/2008 9:46:14 AM 	7 ft			71 ft	0:00:31	2 mph	1 true
	N25 09.195 W80 55.321	3/22/2008 9:46:45 AM 	0 ft			39 ft	0:00:31	0.9 mph	10 true
	N25 09.200 W80 55.320	3/22/2008 9:47:07 AM 	4 ft			32 ft	0:00:22	1.0 mph	4 true
	N25 09.216 W80 55.320	3/22/2008 9:47:36 AM 	13 ft			98 ft	0:00:29	2 mph	1 true
	N25 09.231 W80 55.320	3/22/2008 9:48:03 AM 	5 ft			89 ft	0:00:27	2 mph	359 true
	N25 09.245 W80 55.321	3/22/2008 9:48:25 AM 	4 ft			86 ft	0:00:22	3 mph	359 true
	N25 09.261 W80 55.319	3/22/2008 9:48:49 AM 	5 ft			97 ft	0:00:24	3 mph	4 true
	N25 09.275 W80 55.318	3/22/2008 9:49:12 AM 	2 ft			86 ft	0:00:23	3 mph	5 true
	N25 09.292 W80 55.317	3/22/2008 9:49:38 AM 	5 ft			103 ft	0:00:26	3 mph	2 true
	N25 09.310 W80 55.317	3/22/2008 9:50:05 AM 	0 ft			110 ft	0:00:27	3 mph	1 true
	N25 09.326 W80 55.315	3/22/2008 9:50:29 AM 	5 ft			95 ft	0:00:24	3 mph	6 true
	N25 09.341 W80 55.314	3/22/2008 9:50:52 AM 	7 ft			91 ft	0:00:23	3 mph	5 true
	N25 09.355 W80 55.312	3/22/2008 9:51:16 AM 	7 ft			86 ft	0:00:24	2 mph	7 true
	N25 09.365 W80 55.310	3/22/2008 9:51:42 AM 	8 ft			63 ft	0:00:26	2 mph	7 true
	N25 09.375 W80 55.309	3/22/2008 9:52:10 AM 	21 ft			65 ft	0:00:28	2 mph	5 true
	N25 09.391 W80 55.306	3/22/2008 9:52:36 AM 	23 ft			95 ft	0:00:26	2 mph	12 true
	N25 09.404 W80 55.304	3/22/2008 9:53:01 AM 	13 ft			84 ft	0:00:25	2 mph	5 true
	N25 09.418 W80 55.303	3/22/2008 9:53:25 AM 	8 ft			83 ft	0:00:24	2 mph	6 true
	N25 09.429 W80 55.300	3/22/2008 9:53:48 AM 	-3 ft			70 ft	0:00:23	2 mph	12 true
	N25 09.440 W80 55.298	3/22/2008 9:54:26 AM 	0 ft			67 ft	0:00:38	1.2 mph	12 true
	N25 09.447 W80 55.295	3/22/2008 9:55:13 AM 	5 ft			44 ft	0:00:47	0.6 mph	20 true
	N25 09.452 W80 55.295	3/22/2008 9:56:27 AM 	-1 ft			33 ft	0:01:14	0.3 mph	4 true
	N25 09.552 W80 55.282	3/22/2008 10:01:02 AM 	16 ft			0.1 mi	0:04:35	2 mph	6 true
	N25 09.650 W80 55.279	3/22/2008 10:04:14 AM 	13 ft			0.1 mi	0:03:12	2 mph	2 true
	N25 09.752 W80 55.278	3/22/2008 10:07:05 AM 	13 ft			0.1 mi	0:02:51	2 mph	0 true
	N25 09.853 W80 55.286	3/22/2008 10:10:21 AM 	21 ft			0.1 mi	0:03:16	2 mph	356 true
	N25 09.954 W80 55.300	3/22/2008 10:13:19 AM 	37 ft			0.1 mi	0:02:58	2 mph	353 true
	N25 10.052 W80 55.313	3/22/2008 10:16:10 AM 	13 ft			0.1 mi	0:02:51	2 mph	353 true
	N25 10.152 W80 55.319	3/22/2008 10:19:01 AM 	21 ft			0.1 mi	0:02:51	2 mph	357 true
	N25 10.253 W80 55.318	3/22/2008 10:22:16 AM 	37 ft			0.1 mi	0:03:15	2 mph	0 true
	N25 10.350 W80 55.299	3/22/2008 10:25:08 AM 	2 ft			0.1 mi	0:02:52	2 mph	10 true
	N25 10.447 W80 55.269	3/22/2008 10:28:15 AM 	23 ft			0.1 mi	0:03:07	2 mph	16 true
	N25 10.537 W80 55.217	3/22/2008 10:31:21 AM 	26 ft			0.1 mi	0:03:06	2 mph	27 true
	N25 10.622 W80 55.156	3/22/2008 10:34:18 AM 	37 ft			0.1 mi	0:02:57	2 mph	33 true
	N25 10.702 W80 55.090	3/22/2008 10:37:11 AM 	29 ft			0.1 mi	0:02:53	2 mph	37 true
	N25 10.776 W80 55.018	3/22/2008 10:40:22 AM 	13 ft			0.1 mi	0:03:11	2 mph	41 true
	N25 10.852 W80 54.943	3/22/2008 10:43:33 AM 	26 ft			0.1 mi	0:03:11	2 mph	42 true
	N25 10.923 W80 54.866	3/22/2008 10:46:24 AM 	16 ft			0.1 mi	0:02:51	2 mph	44 true
	N25 10.989 W80 54.785	3/22/2008 10:49:21 AM 	11 ft			0.1 mi	0:02:57	2 mph	48 true
	N25 11.073 W80 54.758	3/22/2008 10:52:54 AM 	10 ft			0.1 mi	0:03:33	2 mph	16 true
	N25 11.162 W80 54.810	3/22/2008 10:56:02 AM 	8 ft			0.1 mi	0:03:08	2 mph	332 true
	N25 11.246 W80 54.871	3/22/2008 10:58:51 AM 	8 ft			0.1 mi	0:02:49	2 mph	327 true
	N25 11.333 W80 54.928	3/22/2008 11:00:59 AM 	7 ft			0.1 mi	0:02:08	3 mph	329 true
	N25 11.407 W80 55.000	3/22/2008 11:03:35 AM 	13 ft			0.1 mi	0:02:36	3 mph	319 true
	N25 11.486 W80 55.072	3/22/2008 11:07:16 AM 	10 ft			0.1 mi	0:03:41	2 mph	321 true
	N25 11.566 W80 55.139	3/22/2008 11:09:56 AM 	16 ft			0.1 mi	0:02:40	3 mph	323 true
	N25 11.646 W80 55.206	3/22/2008 11:13:14 AM 	11 ft			0.1 mi	0:03:18	2 mph	323 true
	N25 11.729 W80 55.267	3/22/2008 11:16:01 AM 	19 ft			0.1 mi	0:02:47	2 mph	327 true
	N25 11.809 W80 55.335	3/22/2008 11:18:25 AM 	15 ft			0.1 mi	0:02:24	3 mph	322 true
	N25 11.887 W80 55.405	3/22/2008 11:20:50 AM 	15 ft			0.1 mi	0:02:25	3 mph	321 true
	N25 11.967 W80 55.471	3/22/2008 11:23:18 AM 	18 ft			0.1 mi	0:02:28	3 mph	323 true
	N25 12.053 W80 55.528	3/22/2008 11:25:20 AM 	15 ft			0.1 mi	0:02:02	3 mph	329 true
	N25 12.143 W80 55.577	3/22/2008 11:27:08 AM 	13 ft			0.1 mi	0:01:48	4 mph	334 true
	N25 12.234 W80 55.625	3/22/2008 11:29:14 AM 	13 ft			0.1 mi	0:02:06	3 mph	335 true
	N25 12.311 W80 55.681	3/22/2008 11:31:50 AM 	15 ft			0.1 mi	0:02:36	2 mph	326 true
	N25 12.364 W80 55.774	3/22/2008 11:34:10 AM 	11 ft			0.1 mi	0:02:20	3 mph	303 true
	N25 12.432 W80 55.831	3/22/2008 11:36:22 AM 	4 ft			522 ft	0:02:12	3 mph	323 true
	N25 12.530 W80 55.808	3/22/2008 11:39:45 AM 	18 ft			0.1 mi	0:03:23	2 mph	12 true
	N25 12.608 W80 55.865	3/22/2008 11:42:34 AM 	16 ft			0.1 mi	0:02:49	2 mph	327 true
	N25 12.706 W80 55.885	3/22/2008 11:45:57 AM 	19 ft			0.1 mi	0:03:23	2 mph	350 true
	N25 12.804 W80 55.910	3/22/2008 11:48:42 AM 	15 ft			0.1 mi	0:02:45	3 mph	347 true
	N25 12.902 W80 55.934	3/22/2008 11:51:17 AM 	13 ft			0.1 mi	0:02:35	3 mph	348 true
	N25 13.002 W80 55.948	3/22/2008 11:53:40 AM 	11 ft			0.1 mi	0:02:23	3 mph	353 true
	N25 13.101 W80 55.963	3/22/2008 11:55:19 AM 	13 ft			0.1 mi	0:01:39	4 mph	352 true
	N25 13.200 W80 55.985	3/22/2008 11:56:52 AM 	15 ft			0.1 mi	0:01:33	4 mph	349 true
	N25 13.299 W80 56.005	3/22/2008 11:58:39 AM 	4 ft			0.1 mi	0:01:47	4 mph	350 true
	N25 13.399 W80 56.021	3/22/2008 12:00:18 PM 	-7 ft			0.1 mi	0:01:39	4 mph	351 true
	N25 13.497 W80 56.037	3/22/2008 12:01:59 PM 	-4 ft			0.1 mi	0:01:41	4 mph	352 true
	N25 13.597 W80 56.049	3/22/2008 12:03:36 PM 	-9 ft			0.1 mi	0:01:37	4 mph	353 true
	N25 13.697 W80 56.057	3/22/2008 12:05:11 PM 	7 ft			0.1 mi	0:01:35	4 mph	356 true
	N25 13.794 W80 56.087	3/22/2008 12:07:00 PM 	10 ft			0.1 mi	0:01:49	4 mph	344 true
	N25 13.893 W80 56.108	3/22/2008 12:08:42 PM 	-4 ft			0.1 mi	0:01:42	4 mph	349 true
	N25 13.990 W80 56.134	3/22/2008 12:10:22 PM 	-3 ft			0.1 mi	0:01:40	4 mph	347 true
	N25 14.088 W80 56.158	3/22/2008 12:12:06 PM 	4 ft			0.1 mi	0:01:44	4 mph	347 true
	N25 14.187 W80 56.167	3/22/2008 12:13:53 PM 	-3 ft			0.1 mi	0:01:47	4 mph	355 true
	N25 14.285 W80 56.188	3/22/2008 12:15:48 PM 	5 ft			0.1 mi	0:01:55	4 mph	349 true
	N25 14.373 W80 56.192	3/22/2008 12:20:55 PM 	18 ft			0.1 mi	0:05:07	1.2 mph	358 true
	N25 14.470 W80 56.162	3/22/2008 12:29:55 PM 	24 ft			0.1 mi	0:09:00	0.8 mph	16 true
	N25 14.535 W80 56.203	3/22/2008 12:33:55 PM 	5 ft			456 ft	0:04:00	1.3 mph	331 true
	N25 14.549 W80 56.311	3/22/2008 12:35:43 PM 	7 ft			0.1 mi	0:01:48	4 mph	278 true
	N25 14.601 W80 56.406	3/22/2008 12:37:28 PM 	11 ft			0.1 mi	0:01:45	4 mph	301 true
	N25 14.602 W80 56.408	3/22/2008 12:37:30 PM 	11 ft			13 ft	0:00:02	4 mph	300 true
	N25 14.618 W80 56.440	3/22/2008 12:38:02 PM 	40 ft			206 ft	0:00:32	4 mph	299 true
	N25 14.671 W80 56.533	3/22/2008 12:39:51 PM 	-1 ft			0.1 mi	0:01:49	4 mph	302 true
	N25 14.732 W80 56.621	3/22/2008 12:41:58 PM 	5 ft			0.1 mi	0:02:07	3 mph	307 true
	N25 14.792 W80 56.709	3/22/2008 12:44:11 PM 	10 ft			0.1 mi	0:02:13	3 mph	307 true
	N25 14.856 W80 56.795	3/22/2008 12:46:29 PM 	13 ft			0.1 mi	0:02:18	3 mph	309 true
	N25 14.924 W80 56.876	3/22/2008 12:48:50 PM 	15 ft			0.1 mi	0:02:21	3 mph	313 true
	N25 14.990 W80 56.959	3/22/2008 12:51:12 PM 	18 ft			0.1 mi	0:02:22	3 mph	311 true
	N25 15.057 W80 57.041	3/22/2008 12:53:25 PM 	19 ft			0.1 mi	0:02:13	3 mph	312 true
	N25 15.123 W80 57.124	3/22/2008 12:55:17 PM 	15 ft			0.1 mi	0:01:52	4 mph	311 true
	N25 15.186 W80 57.210	3/22/2008 12:57:01 PM 	13 ft			0.1 mi	0:01:44	4 mph	309 true
	N25 15.254 W80 57.292	3/22/2008 12:58:26 PM 	15 ft			0.1 mi	0:01:25	5 mph	313 true
	N25 15.311 W80 57.379	3/22/2008 12:59:55 PM 	11 ft			0.1 mi	0:01:29	5 mph	306 true
	N25 15.379 W80 57.461	3/22/2008 1:01:27 PM 	15 ft			0.1 mi	0:01:32	5 mph	313 true
	N25 15.447 W80 57.540	3/22/2008 1:03:08 PM 	15 ft			0.1 mi	0:01:41	4 mph	314 true
	N25 15.520 W80 57.617	3/22/2008 1:05:02 PM 	13 ft			0.1 mi	0:01:54	4 mph	317 true
	N25 15.594 W80 57.693	3/22/2008 1:06:48 PM 	11 ft			0.1 mi	0:01:46	4 mph	317 true
	N25 15.656 W80 57.779	3/22/2008 1:08:25 PM 	7 ft			0.1 mi	0:01:37	4 mph	309 true
	N25 15.718 W80 57.865	3/22/2008 1:09:47 PM 	8 ft			0.1 mi	0:01:22	5 mph	308 true
	N25 15.772 W80 57.958	3/22/2008 1:11:06 PM 	13 ft			0.1 mi	0:01:19	5 mph	303 true
	N25 15.824 W80 58.052	3/22/2008 1:12:24 PM 	11 ft			0.1 mi	0:01:18	5 mph	302 true
	N25 15.871 W80 58.150	3/22/2008 1:13:42 PM 	15 ft			0.1 mi	0:01:18	5 mph	298 true
	N25 15.922 W80 58.246	3/22/2008 1:15:02 PM 	18 ft			0.1 mi	0:01:20	5 mph	300 true
	N25 15.957 W80 58.350	3/22/2008 1:17:09 PM 	8 ft			0.1 mi	0:02:07	3 mph	291 true
	N25 16.007 W80 58.436	3/22/2008 1:18:59 PM 	11 ft			0.1 mi	0:01:50	4 mph	303 true
	N25 16.090 W80 58.499	3/22/2008 1:20:35 PM 	15 ft			0.1 mi	0:01:36	4 mph	326 true
	N25 16.173 W80 58.560	3/22/2008 1:22:32 PM 	11 ft			0.1 mi	0:01:57	4 mph	326 true
	N25 16.254 W80 58.623	3/22/2008 1:24:33 PM 	10 ft			0.1 mi	0:02:01	3 mph	325 true
	N25 16.334 W80 58.687	3/22/2008 1:26:34 PM 	10 ft			0.1 mi	0:02:01	3 mph	324 true
	N25 16.408 W80 58.761	3/22/2008 1:28:34 PM 	10 ft			0.1 mi	0:02:00	3 mph	318 true
	N25 16.496 W80 58.809	3/22/2008 1:30:54 PM 	15 ft			0.1 mi	0:02:20	3 mph	334 true
	N25 16.595 W80 58.827	3/22/2008 1:33:39 PM 	13 ft			0.1 mi	0:02:45	3 mph	351 true
	N25 16.694 W80 58.846	3/22/2008 1:36:21 PM 	11 ft			0.1 mi	0:02:42	3 mph	350 true
	N25 16.792 W80 58.868	3/22/2008 1:39:09 PM 	7 ft			0.1 mi	0:02:48	2 mph	349 true
	N25 16.887 W80 58.892	3/22/2008 1:41:27 PM 	11 ft			0.1 mi	0:02:18	3 mph	347 true
	N25 16.988 W80 58.904	3/22/2008 1:43:41 PM 	11 ft			0.1 mi	0:02:14	3 mph	354 true
	N25 17.087 W80 58.915	3/22/2008 1:45:46 PM 	7 ft			0.1 mi	0:02:05	3 mph	354 true
	N25 17.186 W80 58.932	3/22/2008 1:47:49 PM 	8 ft			0.1 mi	0:02:03	3 mph	351 true
	N25 17.286 W80 58.943	3/22/2008 1:49:58 PM 	8 ft			0.1 mi	0:02:09	3 mph	354 true
	N25 17.386 W80 58.948	3/22/2008 1:52:15 PM 	4 ft			0.1 mi	0:02:17	3 mph	357 true
	N25 17.486 W80 58.957	3/22/2008 1:54:34 PM 	7 ft			0.1 mi	0:02:19	3 mph	355 true
	N25 17.583 W80 58.980	3/22/2008 1:56:57 PM 	8 ft			0.1 mi	0:02:23	3 mph	348 true
	N25 17.683 W80 58.988	3/22/2008 1:59:14 PM 	5 ft			0.1 mi	0:02:17	3 mph	356 true
	N25 17.783 W80 58.995	3/22/2008 2:01:22 PM 	5 ft			0.1 mi	0:02:08	3 mph	356 true
	N25 17.883 W80 59.003	3/22/2008 2:03:58 PM 	11 ft			0.1 mi	0:02:36	3 mph	356 true
	N25 17.983 W80 59.001	3/22/2008 2:06:51 PM 	10 ft			0.1 mi	0:02:53	2 mph	1 true
	N25 18.078 W80 59.027	3/22/2008 2:09:30 PM 	10 ft			0.1 mi	0:02:39	3 mph	346 true
	N25 18.174 W80 59.055	3/22/2008 2:11:49 PM 	8 ft			0.1 mi	0:02:19	3 mph	345 true
	N25 18.272 W80 59.076	3/22/2008 2:13:56 PM 	5 ft			0.1 mi	0:02:07	3 mph	349 true
	N25 18.370 W80 59.099	3/22/2008 2:15:51 PM 	8 ft			0.1 mi	0:01:55	4 mph	348 true
	N25 18.467 W80 59.131	3/22/2008 2:17:45 PM 	8 ft			0.1 mi	0:01:54	4 mph	343 true
	N25 18.566 W80 59.129	3/22/2008 2:19:36 PM 	5 ft			0.1 mi	0:01:51	4 mph	1 true
	N25 18.666 W80 59.116	3/22/2008 2:21:32 PM 	5 ft			0.1 mi	0:01:56	4 mph	6 true
	N25 18.765 W80 59.102	3/22/2008 2:23:48 PM 	0 ft			0.1 mi	0:02:16	3 mph	7 true
	N25 18.864 W80 59.082	3/22/2008 2:26:10 PM 	10 ft			0.1 mi	0:02:22	3 mph	11 true
	N25 18.963 W80 59.064	3/22/2008 2:28:32 PM 	-4 ft			0.1 mi	0:02:22	3 mph	9 true
	N25 19.062 W80 59.047	3/22/2008 2:30:48 PM 	-3 ft			0.1 mi	0:02:16	3 mph	9 true
	N25 19.162 W80 59.027	3/22/2008 2:33:10 PM 	-4 ft			0.1 mi	0:02:22	3 mph	10 true
	N25 19.262 W80 59.018	3/22/2008 2:35:51 PM 	0 ft			0.1 mi	0:02:41	3 mph	5 true
	N25 19.362 W80 59.014	3/22/2008 2:38:10 PM 	5 ft			0.1 mi	0:02:19	3 mph	2 true
	N25 19.461 W80 59.022	3/22/2008 2:40:33 PM 	-4 ft			0.1 mi	0:02:23	3 mph	356 true
	N25 19.561 W80 59.010	3/22/2008 2:42:48 PM 	0 ft			0.1 mi	0:02:15	3 mph	6 true
	N25 19.659 W80 58.982	3/22/2008 2:45:13 PM 	2 ft			0.1 mi	0:02:25	3 mph	15 true
	N25 19.752 W80 58.942	3/22/2008 2:47:36 PM 	7 ft			0.1 mi	0:02:23	3 mph	21 true
	N25 19.845 W80 58.903	3/22/2008 2:50:01 PM 	16 ft			0.1 mi	0:02:25	3 mph	21 true
	N25 19.941 W80 58.866	3/22/2008 2:52:21 PM 	13 ft			0.1 mi	0:02:20	3 mph	20 true
	N25 19.998 W80 58.910	3/23/2008 9:47:35 AM 	5 ft			487 ft	1:03:29	0.1 mph	305 true
	N25 20.046 W80 59.007	3/23/2008 9:49:00 AM 	4 ft			0.1 mi	0:01:25	5 mph	299 true
	N25 20.091 W80 59.103	3/23/2008 9:50:28 AM 	7 ft			0.1 mi	0:01:28	5 mph	297 true
	N25 20.136 W80 59.199	3/23/2008 9:51:51 AM 	11 ft			0.1 mi	0:01:23	5 mph	297 true
	N25 20.164 W80 59.303	3/23/2008 9:53:49 AM 	5 ft			0.1 mi	0:01:58	3 mph	286 true
	N25 20.151 W80 59.413	3/23/2008 9:55:44 AM 	4 ft			0.1 mi	0:01:55	4 mph	262 true
	N25 20.147 W80 59.525	3/23/2008 9:57:17 AM 	5 ft			0.1 mi	0:01:33	5 mph	268 true
	N25 20.148 W80 59.635	3/23/2008 9:58:45 AM 	8 ft			0.1 mi	0:01:28	5 mph	271 true
	N25 20.114 W80 59.737	3/23/2008 10:00:26 AM 	2 ft			0.1 mi	0:01:41	4 mph	250 true
	N25 20.104 W80 59.847	3/23/2008 10:02:06 AM 	5 ft			0.1 mi	0:01:40	4 mph	264 true
	N25 20.095 W80 59.957	3/23/2008 10:04:05 AM 	7 ft			0.1 mi	0:01:59	3 mph	265 true
	N25 20.067 W81 00.063	3/23/2008 10:06:04 AM 	2 ft			0.1 mi	0:01:59	3 mph	254 true
	N25 20.045 W81 00.169	3/23/2008 10:08:11 AM 	0 ft			0.1 mi	0:02:07	3 mph	257 true
	N25 19.991 W81 00.170	3/23/2008 10:10:54 AM 	5 ft			328 ft	0:02:43	1.4 mph	181 true
	N25 19.953 W81 00.251	3/23/2008 10:13:57 AM 	5 ft			499 ft	0:03:03	2 mph	242 true
	N25 19.876 W81 00.198	3/23/2008 10:16:25 AM 	5 ft			0.1 mi	0:02:28	3 mph	148 true
	N25 19.836 W81 00.300	3/23/2008 10:19:19 AM 	2 ft			0.1 mi	0:02:54	2 mph	247 true
	N25 19.791 W81 00.397	3/23/2008 10:22:04 AM 	2 ft			0.1 mi	0:02:45	2 mph	243 true
	N25 19.752 W81 00.498	3/23/2008 10:25:21 AM 	-1 ft			0.1 mi	0:03:17	2 mph	247 true
	N25 19.680 W81 00.568	3/23/2008 10:28:51 AM 	8 ft			0.1 mi	0:03:30	2 mph	221 true
	N25 19.620 W81 00.656	3/23/2008 10:31:51 AM 	0 ft			0.1 mi	0:03:00	2 mph	233 true
	N25 19.556 W81 00.742	3/23/2008 10:34:57 AM 	0 ft			0.1 mi	0:03:06	2 mph	231 true
	N25 19.499 W81 00.834	3/23/2008 10:37:57 AM 	2 ft			0.1 mi	0:03:00	2 mph	235 true
	N25 19.447 W81 00.928	3/23/2008 10:40:43 AM 	2 ft			0.1 mi	0:02:46	3 mph	239 true
	N25 19.392 W81 01.020	3/23/2008 10:43:36 AM 	4 ft			0.1 mi	0:02:53	2 mph	236 true
	N25 19.339 W81 01.114	3/23/2008 10:46:30 AM 	2 ft			0.1 mi	0:02:54	2 mph	238 true
	N25 19.307 W81 01.217	3/23/2008 10:50:39 AM 	0 ft			0.1 mi	0:04:09	2 mph	251 true
	N25 19.280 W81 01.323	3/23/2008 10:53:30 AM 	2 ft			0.1 mi	0:02:51	2 mph	254 true
	N25 19.268 W81 01.430	3/23/2008 10:57:19 AM 	2 ft			0.1 mi	0:03:49	2 mph	263 true
	N25 19.257 W81 01.540	3/23/2008 10:59:55 AM 	7 ft			0.1 mi	0:02:36	3 mph	264 true
	N25 19.247 W81 01.649	3/23/2008 11:02:16 AM 	2 ft			0.1 mi	0:02:21	3 mph	264 true
	N25 19.241 W81 01.759	3/23/2008 11:04:51 AM 	0 ft			0.1 mi	0:02:35	3 mph	267 true
	N25 19.245 W81 01.869	3/23/2008 11:07:38 AM 	4 ft			0.1 mi	0:02:47	2 mph	272 true
	N25 19.275 W81 01.975	3/23/2008 11:09:53 AM 	11 ft			0.1 mi	0:02:15	3 mph	287 true
	N25 19.294 W81 02.084	3/23/2008 11:11:55 AM 	7 ft			0.1 mi	0:02:02	3 mph	281 true
	N25 19.332 W81 02.184	3/23/2008 11:14:47 AM 	5 ft			0.1 mi	0:02:52	2 mph	293 true
	N25 19.362 W81 02.284	3/23/2008 11:16:56 AM 	4 ft			0.1 mi	0:02:09	3 mph	288 true
	N25 19.400 W81 02.387	3/23/2008 11:19:21 AM 	2 ft			0.1 mi	0:02:25	3 mph	292 true
	N25 19.444 W81 02.485	3/23/2008 11:21:36 AM 	2 ft			0.1 mi	0:02:15	3 mph	297 true
	N25 19.483 W81 02.586	3/23/2008 11:23:50 AM 	0 ft			0.1 mi	0:02:14	3 mph	293 true
	N25 19.507 W81 02.693	3/23/2008 11:26:20 AM 	2 ft			0.1 mi	0:02:30	3 mph	284 true
	N25 19.531 W81 02.800	3/23/2008 11:28:31 AM 	5 ft			0.1 mi	0:02:11	3 mph	284 true
	N25 19.554 W81 02.908	3/23/2008 11:31:01 AM 	4 ft			0.1 mi	0:02:30	3 mph	284 true
	N25 19.568 W81 03.018	3/23/2008 11:33:19 AM 	0 ft			0.1 mi	0:02:18	3 mph	278 true
	N25 19.607 W81 03.118	3/23/2008 11:35:54 AM 	10 ft			0.1 mi	0:02:35	3 mph	293 true
	N25 19.682 W81 03.190	3/23/2008 11:38:14 AM 	15 ft			0.1 mi	0:02:20	3 mph	319 true
	N25 19.769 W81 03.245	3/23/2008 11:40:44 AM 	19 ft			0.1 mi	0:02:30	3 mph	330 true
	N25 19.868 W81 03.255	3/23/2008 11:43:05 AM 	4 ft			0.1 mi	0:02:21	3 mph	355 true
	N25 19.968 W81 03.250	3/23/2008 11:45:44 AM 	4 ft			0.1 mi	0:02:39	3 mph	3 true
	N25 20.069 W81 03.243	3/23/2008 11:48:40 AM 	0 ft			0.1 mi	0:02:56	2 mph	4 true
	N25 20.168 W81 03.250	3/23/2008 11:51:32 AM 	7 ft			0.1 mi	0:02:52	2 mph	357 true
	N25 20.264 W81 03.276	3/23/2008 11:54:46 AM 	21 ft			0.1 mi	0:03:14	2 mph	346 true
	N25 20.349 W81 03.337	3/23/2008 11:57:37 AM 	15 ft			0.1 mi	0:02:51	2 mph	327 true
	N25 20.428 W81 03.403	3/23/2008 12:00:48 PM 	18 ft			0.1 mi	0:03:11	2 mph	323 true
	N25 20.522 W81 03.438	3/23/2008 12:03:27 PM 	18 ft			0.1 mi	0:02:39	3 mph	342 true
	N25 20.615 W81 03.482	3/23/2008 12:05:22 PM 	18 ft			0.1 mi	0:01:55	4 mph	337 true
	N25 20.704 W81 03.531	3/23/2008 12:07:42 PM 	19 ft			0.1 mi	0:02:20	3 mph	333 true
	N25 20.796 W81 03.576	3/23/2008 12:09:44 PM 	19 ft			0.1 mi	0:02:02	3 mph	336 true
	N25 20.778 W81 03.630	3/23/2008 12:12:47 PM 	4 ft			319 ft	0:03:03	1.2 mph	250 true
	N25 20.705 W81 03.693	3/23/2008 12:15:14 PM 	7 ft			0.1 mi	0:02:27	3 mph	218 true
	N25 20.795 W81 03.740	3/23/2008 12:17:47 PM 	16 ft			0.1 mi	0:02:33	3 mph	335 true
	N25 20.884 W81 03.789	3/23/2008 12:20:01 PM 	18 ft			0.1 mi	0:02:14	3 mph	333 true
	N25 20.973 W81 03.841	3/23/2008 12:21:57 PM 	16 ft			0.1 mi	0:01:56	4 mph	332 true
	N25 21.059 W81 03.898	3/23/2008 12:23:41 PM 	26 ft			0.1 mi	0:01:44	4 mph	329 true
	N25 21.148 W81 03.947	3/23/2008 12:25:50 PM 	18 ft			0.1 mi	0:02:09	3 mph	334 true
	N25 21.236 W81 03.997	3/23/2008 12:28:13 PM 	13 ft			0.1 mi	0:02:23	3 mph	332 true
	N25 21.321 W81 04.048	3/23/2008 12:31:15 PM 	5 ft			0.1 mi	0:03:02	2 mph	332 true
	N25 21.411 W81 04.082	3/23/2008 12:34:36 PM 	15 ft			0.1 mi	0:03:21	2 mph	341 true
	N25 21.492 W81 04.066	3/23/2008 12:38:32 PM 	-12 ft			504 ft	0:03:56	1.5 mph	10 true
	N25 21.569 W81 04.004	3/23/2008 12:40:54 PM 	-1 ft			0.1 mi	0:02:22	3 mph	36 true
	N25 21.613 W81 03.905	3/23/2008 12:42:26 PM 	4 ft			0.1 mi	0:01:32	4 mph	64 true
	N25 21.687 W81 03.830	3/23/2008 12:43:52 PM 	-4 ft			0.1 mi	0:01:26	5 mph	42 true
	N25 21.768 W81 03.762	3/23/2008 12:45:31 PM 	-4 ft			0.1 mi	0:01:39	4 mph	37 true
	N25 21.807 W81 03.667	3/23/2008 12:47:26 PM 	5 ft			0.1 mi	0:01:55	3 mph	65 true
	N25 21.844 W81 03.566	3/23/2008 12:49:49 PM 	7 ft			0.1 mi	0:02:23	3 mph	68 true
	N25 21.900 W81 03.473	3/23/2008 12:51:33 PM 	11 ft			0.1 mi	0:01:44	4 mph	57 true
	N25 21.926 W81 03.366	3/23/2008 12:53:14 PM 	11 ft			0.1 mi	0:01:41	4 mph	75 true
	N25 21.953 W81 03.260	3/23/2008 12:54:44 PM 	2 ft			0.1 mi	0:01:30	5 mph	74 true
	N25 21.992 W81 03.157	3/23/2008 12:56:08 PM 	5 ft			0.1 mi	0:01:24	5 mph	67 true
	N25 22.054 W81 03.070	3/23/2008 12:57:28 PM 	11 ft			0.1 mi	0:01:20	5 mph	51 true
	N25 22.116 W81 02.983	3/23/2008 12:59:08 PM 	11 ft			0.1 mi	0:01:40	4 mph	52 true
	N25 22.167 W81 02.887	3/23/2008 1:00:47 PM 	10 ft			0.1 mi	0:01:39	4 mph	60 true
	N25 22.191 W81 02.779	3/23/2008 1:02:18 PM 	10 ft			0.1 mi	0:01:31	5 mph	76 true
	N25 22.248 W81 02.698	3/23/2008 1:04:29 PM 	5 ft			0.1 mi	0:02:11	3 mph	52 true
	N25 22.310 W81 02.619	3/23/2008 1:06:46 PM 	7 ft			0.1 mi	0:02:17	3 mph	49 true
	N25 22.348 W81 02.516	3/23/2008 1:08:31 PM 	4 ft			0.1 mi	0:01:45	4 mph	68 true
	N25 22.391 W81 02.415	3/23/2008 1:09:53 PM 	8 ft			0.1 mi	0:01:22	5 mph	64 true
	N25 22.442 W81 02.320	3/23/2008 1:11:22 PM 	11 ft			0.1 mi	0:01:29	5 mph	59 true
	N25 22.501 W81 02.228	3/23/2008 1:12:47 PM 	13 ft			0.1 mi	0:01:25	5 mph	55 true
	N25 22.552 W81 02.134	3/23/2008 1:14:15 PM 	13 ft			0.1 mi	0:01:28	5 mph	59 true
	N25 22.596 W81 02.033	3/23/2008 1:15:43 PM 	13 ft			0.1 mi	0:01:28	5 mph	64 true
	N25 22.649 W81 01.938	3/23/2008 1:17:10 PM 	13 ft			0.1 mi	0:01:27	5 mph	58 true
	N25 22.696 W81 01.839	3/23/2008 1:18:35 PM 	11 ft			0.1 mi	0:01:25	5 mph	62 true
	N25 22.751 W81 01.746	3/23/2008 1:20:07 PM 	15 ft			0.1 mi	0:01:32	5 mph	57 true
	N25 22.796 W81 01.647	3/23/2008 1:21:55 PM 	10 ft			0.1 mi	0:01:48	4 mph	63 true
	N25 22.852 W81 01.553	3/23/2008 1:23:24 PM 	16 ft			0.1 mi	0:01:29	5 mph	57 true
	N25 22.910 W81 01.463	3/23/2008 1:24:47 PM 	18 ft			0.1 mi	0:01:23	5 mph	54 true
	N25 22.953 W81 01.363	3/23/2008 1:26:29 PM 	8 ft			0.1 mi	0:01:42	4 mph	65 true
	N25 22.991 W81 01.261	3/23/2008 1:27:54 PM 	15 ft			0.1 mi	0:01:25	5 mph	67 true
	N25 23.051 W81 01.171	3/23/2008 1:29:34 PM 	18 ft			0.1 mi	0:01:40	4 mph	54 true
	N25 23.110 W81 01.081	3/23/2008 1:31:05 PM 	18 ft			0.1 mi	0:01:31	5 mph	54 true
	N25 23.164 W81 00.987	3/23/2008 1:32:45 PM 	18 ft			0.1 mi	0:01:40	4 mph	58 true
	N25 23.208 W81 00.888	3/23/2008 1:34:05 PM 	16 ft			0.1 mi	0:01:20	5 mph	64 true
	N25 23.270 W81 00.801	3/23/2008 1:35:36 PM 	13 ft			0.1 mi	0:01:31	5 mph	52 true
	N25 23.358 W81 00.750	3/23/2008 1:37:19 PM 	8 ft			0.1 mi	0:01:43	4 mph	28 true
	N25 23.445 W81 00.692	3/23/2008 1:38:42 PM 	7 ft			0.1 mi	0:01:23	5 mph	31 true
	N25 23.528 W81 00.629	3/23/2008 1:40:20 PM 	7 ft			0.1 mi	0:01:38	4 mph	34 true
	N25 23.618 W81 00.577	3/23/2008 1:41:47 PM 	5 ft			0.1 mi	0:01:27	5 mph	27 true
	N25 23.714 W81 00.549	3/23/2008 1:43:27 PM 	2 ft			0.1 mi	0:01:40	4 mph	15 true
	N25 23.813 W81 00.524	3/23/2008 1:45:11 PM 	2 ft			0.1 mi	0:01:44	4 mph	13 true
	N25 23.905 W81 00.485	3/23/2008 1:46:41 PM 	5 ft			0.1 mi	0:01:30	5 mph	21 true
	N25 24.004 W81 00.499	3/23/2008 1:48:14 PM 	7 ft			0.1 mi	0:01:33	4 mph	353 true
	N25 24.097 W81 00.536	3/23/2008 1:50:35 PM 	8 ft			0.1 mi	0:02:21	3 mph	340 true
	N25 24.175 W81 00.608	3/23/2008 1:52:53 PM 	5 ft			0.1 mi	0:02:18	3 mph	320 true
	N25 24.268 W81 00.615	3/23/2008 1:54:27 PM 	2 ft			0.1 mi	0:01:34	4 mph	356 true
	N25 24.362 W81 00.575	3/23/2008 1:55:50 PM 	-1 ft			0.1 mi	0:01:23	5 mph	21 true
	N25 24.460 W81 00.551	3/23/2008 1:57:24 PM 	4 ft			0.1 mi	0:01:34	4 mph	12 true
	N25 24.559 W81 00.534	3/23/2008 1:59:38 PM 	5 ft			0.1 mi	0:02:14	3 mph	9 true
	N25 24.654 W81 00.500	3/23/2008 2:01:19 PM 	0 ft			0.1 mi	0:01:41	4 mph	18 true
	N25 24.735 W81 00.435	3/23/2008 2:02:53 PM 	0 ft			0.1 mi	0:01:34	4 mph	36 true
	N25 24.834 W81 00.422	3/23/2008 2:04:42 PM 	11 ft			0.1 mi	0:01:49	4 mph	7 true
	N25 24.932 W81 00.420	3/23/2008 2:07:55 PM 	13 ft			0.1 mi	0:03:13	2 mph	1 true
	N25 25.002 W81 00.415	3/23/2008 2:10:33 PM 	8 ft			430 ft	0:02:38	2 mph	3 true
	N25 25.048 W81 00.458	3/23/2008 2:15:10 PM 	4 ft			362 ft	0:04:37	0.9 mph	320 true
	N25 25.016 W81 00.497	3/23/2008 2:18:46 PM 	7 ft			290 ft	0:03:36	0.9 mph	228 true
	N25 25.045 W81 00.536	3/23/2008 2:21:03 PM 	5 ft			276 ft	0:02:17	1.4 mph	310 true
	N25 25.035 W81 00.582	3/23/2008 2:25:21 PM 	8 ft			263 ft	0:04:18	0.7 mph	256 true
	N25 25.053 W81 00.610	3/23/2008 2:29:30 PM 	7 ft			185 ft	0:04:09	0.5 mph	306 true
	N25 25.066 W81 00.667	3/23/2008 2:32:37 PM 	4 ft			324 ft	0:03:07	1.2 mph	284 true
	N25 25.070 W81 00.709	3/23/2008 2:35:44 PM 	4 ft			233 ft	0:03:07	0.8 mph	276 true
	N25 25.041 W81 00.725	3/23/2008 2:38:44 PM 	2 ft			197 ft	0:03:00	0.7 mph	207 true
	N25 25.026 W81 00.813	3/23/2008 2:45:42 PM 	4 ft			491 ft	0:06:58	0.8 mph	260 true
	N25 25.046 W81 00.848	3/23/2008 3:01:39 PM 	4 ft			230 ft	0:15:57	0.2 mph	301 true
	N25 25.036 W81 00.834	3/23/2008 3:05:19 PM 	7 ft			98 ft	0:03:40	0.3 mph	127 true
	N25 25.030 W81 00.866	3/23/2008 3:10:39 PM 	13 ft			179 ft	0:05:20	0.4 mph	259 true
	N25 25.045 W81 00.958	3/23/2008 3:19:41 PM 	8 ft			514 ft	0:09:02	0.6 mph	280 true
	N25 25.068 W81 01.020	3/23/2008 3:48:32 PM 	-7 ft			367 ft	0:28:51	0.1 mph	293 true
	N25 25.084 W81 01.041	3/23/2008 3:51:10 PM 	7 ft			147 ft	0:02:38	0.6 mph	309 true
	N25 25.076 W81 01.044	3/23/2008 3:54:23 PM 	8 ft			50 ft	0:03:13	0.2 mph	200 true
	N25 25.060 W81 01.112	3/23/2008 3:58:45 PM 	13 ft			390 ft	0:04:22	1.0 mph	255 true
	N25 25.121 W81 01.179	3/23/2008 4:04:27 PM 	7 ft			520 ft	0:05:42	1.0 mph	315 true
	N25 25.137 W81 01.219	3/23/2008 4:08:55 PM 	10 ft			244 ft	0:04:28	0.6 mph	294 true
	N25 25.166 W81 01.318	3/23/2008 4:14:15 PM 	15 ft			0.1 mi	0:05:20	1.2 mph	288 true
	N25 25.182 W81 01.385	3/23/2008 4:18:29 PM 	13 ft			383 ft	0:04:14	1.0 mph	285 true
	N25 25.214 W81 01.413	3/23/2008 4:21:30 PM 	7 ft			244 ft	0:03:01	0.9 mph	322 true
	N25 25.233 W81 01.436	3/23/2008 4:25:15 PM 	7 ft			172 ft	0:03:45	0.5 mph	312 true
	N25 25.316 W81 01.480	3/23/2008 4:29:07 PM 	-4 ft			0.1 mi	0:03:52	2 mph	334 true
	N25 25.357 W81 01.538	3/23/2008 4:33:12 PM 	15 ft			403 ft	0:04:05	1.1 mph	308 true
	N25 25.420 W81 01.590	3/23/2008 4:37:28 PM 	7 ft			480 ft	0:04:16	1.3 mph	323 true
	N25 25.400 W81 01.639	3/23/2008 4:40:44 PM 	10 ft			296 ft	0:03:16	1.0 mph	245 true
	N25 25.406 W81 01.684	3/23/2008 4:44:14 PM 	8 ft			250 ft	0:03:30	0.8 mph	279 true
	N25 25.417 W81 01.776	3/23/2008 4:48:02 PM 	13 ft			509 ft	0:03:48	2 mph	278 true
	N25 25.500 W81 01.823	3/23/2008 4:51:58 PM 	21 ft			0.1 mi	0:03:56	2 mph	333 true
	N25 25.539 W81 01.887	3/23/2008 4:58:10 PM 	13 ft			425 ft	0:06:12	0.8 mph	304 true
	N25 25.556 W81 01.980	3/23/2008 5:04:26 PM 	15 ft			521 ft	0:06:16	0.9 mph	282 true
	N25 25.568 W81 02.076	3/23/2008 5:10:35 PM 	15 ft			0.1 mi	0:06:09	1.0 mph	278 true
	N25 25.580 W81 02.182	3/23/2008 5:16:26 PM 	5 ft			0.1 mi	0:05:51	1.1 mph	277 true
	N25 25.610 W81 02.286	3/23/2008 5:20:53 PM 	13 ft			0.1 mi	0:04:27	2 mph	287 true
	N25 25.633 W81 02.390	3/23/2008 5:26:40 PM 	-1 ft			0.1 mi	0:05:47	1.2 mph	284 true
	N25 25.665 W81 02.494	3/23/2008 5:31:08 PM 	-3 ft			0.1 mi	0:04:28	2 mph	289 true
	N25 25.672 W81 02.604	3/23/2008 5:35:31 PM 	-3 ft			0.1 mi	0:04:23	2 mph	274 true
	N25 25.697 W81 02.711	3/23/2008 5:39:29 PM 	2 ft			0.1 mi	0:03:58	2 mph	284 true
	N25 25.664 W81 02.809	3/23/2008 5:44:11 PM 	13 ft			0.1 mi	0:04:42	1.4 mph	250 true
	N25 25.610 W81 02.902	3/23/2008 5:48:03 PM 	8 ft			0.1 mi	0:03:52	2 mph	237 true
	N25 25.577 W81 03.000	3/23/2008 5:52:14 PM 	10 ft			0.1 mi	0:04:11	2 mph	250 true
	N25 25.541 W81 03.102	3/23/2008 5:56:10 PM 	10 ft			0.1 mi	0:03:56	2 mph	249 true
	N25 25.512 W81 03.207	3/23/2008 6:01:31 PM 	0 ft			0.1 mi	0:05:21	1.3 mph	253 true
	N25 25.476 W81 03.309	3/23/2008 6:05:29 PM 	7 ft			0.1 mi	0:03:58	2 mph	249 true
	N25 25.441 W81 03.412	3/23/2008 6:08:25 PM 	11 ft			0.1 mi	0:02:56	2 mph	249 true
	N25 25.443 W81 03.520	3/23/2008 6:11:13 PM 	8 ft			0.1 mi	0:02:48	2 mph	271 true
	N25 25.444 W81 03.623	3/23/2008 6:14:58 PM 	19 ft			0.1 mi	0:03:45	2 mph	271 true
	N25 25.449 W81 03.731	3/23/2008 6:18:02 PM 	10 ft			0.1 mi	0:03:04	2 mph	273 true
	N25 25.486 W81 03.833	3/23/2008 6:20:57 PM 	7 ft			0.1 mi	0:02:55	2 mph	292 true
	N25 25.507 W81 03.941	3/23/2008 6:23:38 PM 	11 ft			0.1 mi	0:02:41	3 mph	282 true
	N25 25.555 W81 04.038	3/23/2008 6:26:22 PM 	0 ft			0.1 mi	0:02:44	3 mph	299 true
	N25 25.595 W81 04.139	3/23/2008 6:29:02 PM 	2 ft			0.1 mi	0:02:40	3 mph	294 true
	N25 25.626 W81 04.242	3/23/2008 6:31:46 PM 	4 ft			0.1 mi	0:02:44	2 mph	289 true
	N25 25.657 W81 04.347	3/23/2008 6:34:31 PM 	7 ft			0.1 mi	0:02:45	3 mph	288 true
	N25 25.694 W81 04.450	3/23/2008 6:37:30 PM 	4 ft			0.1 mi	0:02:59	2 mph	292 true
	N25 25.737 W81 04.549	3/23/2008 6:40:22 PM 	-3 ft			0.1 mi	0:02:52	2 mph	295 true
	N25 25.775 W81 04.651	3/23/2008 6:43:08 PM 	4 ft			0.1 mi	0:02:46	2 mph	293 true
	N25 25.814 W81 04.753	3/23/2008 6:45:46 PM 	2 ft			0.1 mi	0:02:38	3 mph	293 true
	N25 25.857 W81 04.852	3/23/2008 6:48:27 PM 	2 ft			0.1 mi	0:02:41	3 mph	296 true
	N25 25.851 W81 04.963	3/23/2008 6:51:51 PM 	8 ft			0.1 mi	0:03:24	2 mph	267 true
	N25 25.841 W81 05.073	3/23/2008 6:54:09 PM 	7 ft			0.1 mi	0:02:18	3 mph	264 true
	N25 25.840 W81 05.183	3/23/2008 6:56:37 PM 	5 ft			0.1 mi	0:02:28	3 mph	270 true
	N25 25.857 W81 05.291	3/23/2008 6:59:01 PM 	7 ft			0.1 mi	0:02:24	3 mph	280 true
	N25 25.880 W81 05.396	3/23/2008 7:01:32 PM 	4 ft			0.1 mi	0:02:31	3 mph	284 true
	N25 25.956 W81 05.457	3/23/2008 7:06:10 PM 	0 ft			0.1 mi	0:04:38	1.4 mph	324 true
	N25 26.018 W81 05.502	3/24/2008 10:50:48 AM 	4 ft			452 ft	0:12:02	0.4 mph	330 true
	N25 26.054 W81 05.586	3/24/2008 10:53:31 AM 	7 ft			509 ft	0:02:43	2 mph	295 true
	N25 26.151 W81 05.594	3/24/2008 10:56:19 AM 	2 ft			0.1 mi	0:02:48	2 mph	356 true
	N25 26.216 W81 05.672	3/24/2008 10:58:47 AM 	-4 ft			0.1 mi	0:02:28	3 mph	313 true
	N25 26.301 W81 05.720	3/24/2008 11:01:37 AM 	5 ft			0.1 mi	0:02:50	2 mph	333 true
	N25 26.375 W81 05.793	3/24/2008 11:04:15 AM 	-4 ft			0.1 mi	0:02:38	3 mph	318 true
	N25 26.463 W81 05.841	3/24/2008 11:07:20 AM 	-4 ft			0.1 mi	0:03:05	2 mph	333 true
	N25 26.506 W81 05.938	3/24/2008 11:09:54 AM 	2 ft			0.1 mi	0:02:34	3 mph	296 true
	N25 26.597 W81 05.980	3/24/2008 11:12:53 AM 	2 ft			0.1 mi	0:02:59	2 mph	337 true
	N25 26.658 W81 05.893	3/24/2008 11:16:08 AM 	-3 ft			0.1 mi	0:03:15	2 mph	52 true
	N25 26.701 W81 05.796	3/24/2008 11:19:10 AM 	-3 ft			0.1 mi	0:03:02	2 mph	64 true
	N25 26.731 W81 05.692	3/24/2008 11:22:30 AM 	-3 ft			0.1 mi	0:03:20	2 mph	72 true
	N25 26.827 W81 05.666	3/24/2008 11:25:41 AM 	0 ft			0.1 mi	0:03:11	2 mph	14 true
	N25 26.916 W81 05.618	3/24/2008 11:29:21 AM 	2 ft			0.1 mi	0:03:40	2 mph	25 true
	N25 26.997 W81 05.556	3/24/2008 11:33:51 AM 	23 ft			0.1 mi	0:04:30	2 mph	35 true
	N25 27.062 W81 05.631	3/24/2008 11:37:30 AM 	5 ft			0.1 mi	0:03:39	2 mph	314 true
	N25 27.051 W81 05.750	3/24/2008 11:45:09 AM 	30 ft			0.1 mi	0:07:39	1.0 mph	264 true
	N25 27.054 W81 06.251	3/24/2008 12:18:25 PM 	0 ft			0.5 mi	0:33:16	0.9 mph	270 true
	N25 27.021 W81 06.357	3/24/2008 12:24:33 PM 	-28 ft			0.1 mi	0:06:08	1.1 mph	251 true
	N25 27.071 W81 06.464	3/24/2008 12:30:26 PM 	24 ft			0.1 mi	0:05:53	1.3 mph	297 true
	N25 27.020 W81 06.550	3/24/2008 12:34:17 PM 	38 ft			0.1 mi	0:03:51	2 mph	237 true
	N25 26.980 W81 06.653	3/24/2008 12:38:21 PM 	18 ft			0.1 mi	0:04:04	2 mph	247 true
	N25 27.018 W81 06.756	3/24/2008 12:42:22 PM 	18 ft			0.1 mi	0:04:01	2 mph	292 true
	N25 26.986 W81 06.847	3/24/2008 12:46:08 PM 	27 ft			0.1 mi	0:03:46	2 mph	249 true
	N25 26.982 W81 06.942	3/24/2008 12:49:34 PM 	-7 ft			525 ft	0:03:26	2 mph	267 true
	N25 27.043 W81 07.016	3/24/2008 12:53:35 PM 	10 ft			0.1 mi	0:04:01	2 mph	313 true
	N25 27.087 W81 07.103	3/24/2008 12:59:39 PM 	37 ft			0.1 mi	0:06:04	1.0 mph	299 true
	N25 27.089 W81 07.213	3/24/2008 1:04:20 PM 	15 ft			0.1 mi	0:04:41	1.5 mph	271 true
	N25 27.152 W81 07.288	3/24/2008 1:11:19 PM 	15 ft			0.1 mi	0:06:59	0.9 mph	313 true
	N25 27.146 W81 07.394	3/24/2008 1:14:28 PM 	5 ft			0.1 mi	0:03:09	2 mph	266 true
	N25 27.099 W81 07.489	3/24/2008 1:17:57 PM 	5 ft			0.1 mi	0:03:29	2 mph	242 true
	N25 27.110 W81 07.602	3/24/2008 1:26:05 PM 	13 ft			0.1 mi	0:08:08	0.9 mph	276 true
	N25 27.061 W81 07.698	3/24/2008 1:29:26 PM 	0 ft			0.1 mi	0:03:21	2 mph	240 true
	N25 26.983 W81 07.767	3/24/2008 1:32:38 PM 	-1 ft			0.1 mi	0:03:12	2 mph	219 true
	N25 26.958 W81 07.872	3/24/2008 1:36:11 PM 	23 ft			0.1 mi	0:03:33	2 mph	255 true
	N25 26.954 W81 07.982	3/24/2008 1:39:08 PM 	29 ft			0.1 mi	0:02:57	2 mph	268 true
	N25 26.952 W81 08.093	3/24/2008 1:42:15 PM 	21 ft			0.1 mi	0:03:07	2 mph	268 true
	N25 26.980 W81 08.200	3/24/2008 1:45:44 PM 	10 ft			0.1 mi	0:03:29	2 mph	286 true
	N25 27.031 W81 08.292	3/24/2008 1:49:09 PM 	18 ft			0.1 mi	0:03:25	2 mph	302 true
	N25 27.084 W81 08.387	3/24/2008 1:53:23 PM 	18 ft			0.1 mi	0:04:14	2 mph	302 true
	N25 27.095 W81 08.496	3/24/2008 1:57:19 PM 	7 ft			0.1 mi	0:03:56	2 mph	277 true
	N25 27.151 W81 08.578	3/24/2008 2:01:14 PM 	30 ft			0.1 mi	0:03:55	2 mph	307 true
	N25 27.248 W81 08.602	3/24/2008 2:04:40 PM 	18 ft			0.1 mi	0:03:26	2 mph	348 true
	N25 27.266 W81 08.706	3/24/2008 2:16:42 PM 	-26 ft			0.1 mi	0:12:02	0.5 mph	281 true
	N25 27.350 W81 08.759	3/24/2008 2:20:48 PM 	24 ft			0.1 mi	0:04:06	2 mph	330 true
	N25 27.336 W81 08.947	3/24/2008 2:27:36 PM 	7 ft			0.2 mi	0:06:48	2 mph	265 true
	N25 27.413 W81 09.004	3/24/2008 2:32:07 PM 	18 ft			0.1 mi	0:04:31	1.4 mph	326 true
	N25 27.505 W81 08.984	3/24/2008 2:34:47 PM 	4 ft			0.1 mi	0:02:40	2 mph	11 true
	N25 27.487 W81 08.884	3/24/2008 2:37:44 PM 	5 ft			0.1 mi	0:02:57	2 mph	101 true
	N25 27.508 W81 08.782	3/24/2008 2:40:52 PM 	-9 ft			0.1 mi	0:03:08	2 mph	77 true
	N25 27.590 W81 08.721	3/24/2008 2:44:05 PM 	4 ft			0.1 mi	0:03:13	2 mph	34 true
	N25 27.678 W81 08.725	3/24/2008 2:47:28 PM 	23 ft			0.1 mi	0:03:23	2 mph	358 true
	N25 27.754 W81 08.794	3/24/2008 2:50:37 PM 	4 ft			0.1 mi	0:03:09	2 mph	321 true
	N25 27.752 W81 08.902	3/24/2008 2:55:54 PM 	-20 ft			0.1 mi	0:05:17	1.3 mph	269 true
	N25 27.785 W81 08.986	3/24/2008 3:01:00 PM 	-6 ft			503 ft	0:05:06	1.1 mph	293 true
	N25 27.877 W81 08.996	3/24/2008 3:08:28 PM 	-3 ft			0.1 mi	0:07:28	0.9 mph	354 true
	N25 27.921 W81 09.063	3/24/2008 3:13:28 PM 	13 ft			451 ft	0:05:00	1.0 mph	306 true
	N25 28.008 W81 09.002	3/24/2008 3:18:05 PM 	19 ft			0.1 mi	0:04:37	2 mph	32 true
	N25 28.050 W81 08.915	3/24/2008 3:23:16 PM 	16 ft			0.1 mi	0:05:11	1.2 mph	62 true
	N25 28.137 W81 08.872	3/24/2008 3:27:21 PM 	19 ft			0.1 mi	0:04:05	2 mph	24 true
	N25 28.177 W81 08.870	3/24/2008 3:28:41 PM 	37 ft			239 ft	0:01:20	2 mph	3 true
	N25 28.262 W81 08.931	3/24/2008 3:33:06 PM 	18 ft			0.1 mi	0:04:25	2 mph	328 true
	N25 28.354 W81 08.908	3/24/2008 3:38:40 PM 	15 ft			0.1 mi	0:05:34	1.2 mph	13 true
	N25 28.355 W81 08.802	3/24/2008 3:41:33 PM 	0 ft			0.1 mi	0:02:53	2 mph	89 true
	N25 28.289 W81 08.727	3/24/2008 3:44:39 PM 	-9 ft			0.1 mi	0:03:06	2 mph	134 true
	N25 28.365 W81 08.670	3/24/2008 3:47:59 PM 	4 ft			0.1 mi	0:03:20	2 mph	34 true
	N25 28.456 W81 08.666	3/24/2008 3:51:19 PM 	0 ft			0.1 mi	0:03:20	2 mph	2 true
	N25 28.483 W81 08.633	3/24/2008 4:02:59 PM 	-14 ft			250 ft	0:11:40	0.2 mph	48 true
	N25 28.567 W81 08.693	3/24/2008 4:06:23 PM 	4 ft			0.1 mi	0:03:24	2 mph	327 true
	N25 28.640 W81 08.749	3/24/2008 4:10:52 PM 	8 ft			0.1 mi	0:04:29	1.4 mph	325 true
	N25 28.708 W81 08.667	3/24/2008 4:13:43 PM 	7 ft			0.1 mi	0:02:51	2 mph	47 true
	N25 28.755 W81 08.570	3/24/2008 4:16:22 PM 	11 ft			0.1 mi	0:02:39	3 mph	62 true
	N25 28.802 W81 08.543	3/25/2008 10:17:04 AM 	-4 ft			333 ft	0:37:57	0.1 mph	354 true
	N25 28.837 W81 08.440	3/25/2008 10:22:47 AM 	-4 ft			0.1 mi	0:05:43	1.2 mph	69 true
	N25 28.879 W81 08.373	3/25/2008 10:30:15 AM 	-6 ft			450 ft	0:07:28	0.7 mph	56 true
	N25 28.921 W81 08.280	3/25/2008 10:36:31 AM 	7 ft			0.1 mi	0:06:16	1.0 mph	63 true
	N25 29.002 W81 08.250	3/25/2008 10:44:01 AM 	2 ft			523 ft	0:07:30	0.8 mph	19 true
	N25 29.046 W81 08.181	3/25/2008 10:51:36 AM 	4 ft			464 ft	0:07:35	0.7 mph	55 true
	N25 29.020 W81 08.161	3/25/2008 10:58:05 AM 	8 ft			192 ft	0:06:29	0.3 mph	146 true
	N25 29.022 W81 08.160	3/25/2008 11:03:02 AM 	-9 ft			15 ft	0:04:57	0.0 mph	19 true
	N25 29.035 W81 08.103	3/25/2008 11:08:50 AM 	-14 ft			327 ft	0:05:48	0.6 mph	76 true
	N25 29.063 W81 08.027	3/25/2008 11:16:41 AM 	-7 ft			450 ft	0:07:51	0.7 mph	67 true
	N25 29.040 W81 08.135	3/25/2008 11:21:20 AM 	10 ft			0.1 mi	0:04:39	1.5 mph	256 true
	N25 28.987 W81 08.229	3/25/2008 11:22:48 AM 	8 ft			0.1 mi	0:01:28	5 mph	238 true
	N25 28.906 W81 08.295	3/25/2008 11:24:07 AM 	2 ft			0.1 mi	0:01:19	5 mph	217 true
	N25 28.834 W81 08.371	3/25/2008 11:25:13 AM 	2 ft			0.1 mi	0:01:06	6 mph	223 true
	N25 28.784 W81 08.467	3/25/2008 11:26:34 AM 	13 ft			0.1 mi	0:01:21	5 mph	240 true
	N25 28.758 W81 08.574	3/25/2008 11:28:12 AM 	-11 ft			0.1 mi	0:01:38	4 mph	255 true
	N25 28.713 W81 08.673	3/25/2008 11:29:47 AM 	-4 ft			0.1 mi	0:01:35	4 mph	243 true
	N25 28.658 W81 08.765	3/25/2008 11:31:01 AM 	-12 ft			0.1 mi	0:01:14	6 mph	236 true
	N25 28.599 W81 08.854	3/25/2008 11:32:23 AM 	-12 ft			0.1 mi	0:01:22	5 mph	234 true
	N25 28.548 W81 08.950	3/25/2008 11:33:57 AM 	-14 ft			0.1 mi	0:01:34	4 mph	240 true
	N25 28.511 W81 09.051	3/25/2008 11:36:36 AM 	-14 ft			0.1 mi	0:02:39	3 mph	248 true
	N25 28.480 W81 09.158	3/25/2008 11:37:47 AM 	-4 ft			0.1 mi	0:01:11	6 mph	252 true
	N25 28.452 W81 09.264	3/25/2008 11:39:08 AM 	5 ft			0.1 mi	0:01:21	5 mph	254 true
	N25 28.430 W81 09.372	3/25/2008 11:40:36 AM 	-7 ft			0.1 mi	0:01:28	5 mph	258 true
	N25 28.374 W81 09.464	3/25/2008 11:41:53 AM 	-4 ft			0.1 mi	0:01:17	5 mph	236 true
	N25 28.314 W81 09.553	3/25/2008 11:43:12 AM 	-4 ft			0.1 mi	0:01:19	5 mph	233 true
	N25 28.298 W81 09.658	3/25/2008 11:44:22 AM 	-3 ft			0.1 mi	0:01:10	6 mph	260 true
	N25 28.319 W81 09.767	3/25/2008 11:45:42 AM 	4 ft			0.1 mi	0:01:20	5 mph	282 true
	N25 28.357 W81 09.868	3/25/2008 11:47:15 AM 	-3 ft			0.1 mi	0:01:33	4 mph	293 true
	N25 28.360 W81 09.975	3/25/2008 11:48:32 AM 	-12 ft			0.1 mi	0:01:17	5 mph	272 true
	N25 28.331 W81 10.081	3/25/2008 11:49:52 AM 	-4 ft			0.1 mi	0:01:20	5 mph	253 true
	N25 28.294 W81 10.185	3/25/2008 11:51:07 AM 	2 ft			0.1 mi	0:01:15	6 mph	248 true
	N25 28.237 W81 10.275	3/25/2008 11:52:53 AM 	-14 ft			0.1 mi	0:01:46	4 mph	235 true
	N25 28.162 W81 10.346	3/25/2008 11:54:30 AM 	15 ft			0.1 mi	0:01:37	4 mph	221 true
	N25 28.063 W81 10.364	3/25/2008 11:56:09 AM 	-6 ft			0.1 mi	0:01:39	4 mph	189 true
	N25 27.964 W81 10.358	3/25/2008 11:57:40 AM 	-12 ft			0.1 mi	0:01:31	5 mph	177 true
	N25 27.868 W81 10.332	3/25/2008 11:58:57 AM 	-17 ft			0.1 mi	0:01:17	5 mph	166 true
	N25 27.766 W81 10.329	3/25/2008 12:00:11 PM 	4 ft			0.1 mi	0:01:14	6 mph	178 true
	N25 27.667 W81 10.345	3/25/2008 12:01:31 PM 	-1 ft			0.1 mi	0:01:20	5 mph	188 true
	N25 27.573 W81 10.382	3/25/2008 12:02:58 PM 	-9 ft			0.1 mi	0:01:27	5 mph	199 true
	N25 27.487 W81 10.439	3/25/2008 12:04:34 PM 	-3 ft			0.1 mi	0:01:36	4 mph	211 true
	N25 27.405 W81 10.503	3/25/2008 12:05:49 PM 	-12 ft			0.1 mi	0:01:15	6 mph	215 true
	N25 27.383 W81 10.597	3/25/2008 12:07:00 PM 	8 ft			0.1 mi	0:01:11	5 mph	256 true
	N25 27.438 W81 10.686	3/25/2008 12:08:29 PM 	4 ft			0.1 mi	0:01:29	5 mph	304 true
	N25 27.518 W81 10.751	3/25/2008 12:10:07 PM 	-7 ft			0.1 mi	0:01:38	4 mph	324 true
	N25 27.605 W81 10.805	3/25/2008 12:11:50 PM 	-7 ft			0.1 mi	0:01:43	4 mph	331 true
	N25 27.680 W81 10.878	3/25/2008 12:14:08 PM 	-3 ft			0.1 mi	0:02:18	3 mph	319 true
	N25 27.753 W81 10.951	3/25/2008 12:16:16 PM 	-9 ft			0.1 mi	0:02:08	3 mph	318 true
	N25 27.834 W81 11.018	3/25/2008 12:18:06 PM 	-4 ft			0.1 mi	0:01:50	4 mph	323 true
	N25 27.921 W81 11.071	3/25/2008 12:19:53 PM 	-12 ft			0.1 mi	0:01:47	4 mph	331 true
	N25 28.010 W81 11.115	3/25/2008 12:22:11 PM 	-7 ft			0.1 mi	0:02:18	3 mph	336 true
	N25 28.101 W81 11.163	3/25/2008 12:24:15 PM 	-14 ft			0.1 mi	0:02:04	3 mph	335 true
	N25 28.196 W81 11.198	3/25/2008 12:25:59 PM 	-9 ft			0.1 mi	0:01:44	4 mph	341 true
	N25 28.289 W81 11.237	3/25/2008 12:28:03 PM 	-14 ft			0.1 mi	0:02:04	3 mph	339 true
	N25 28.383 W81 11.274	3/25/2008 12:30:00 PM 	-9 ft			0.1 mi	0:01:57	4 mph	340 true
	N25 28.473 W81 11.319	3/25/2008 12:32:05 PM 	-11 ft			0.1 mi	0:02:05	3 mph	336 true
	N25 28.572 W81 11.328	3/25/2008 12:33:44 PM 	-4 ft			0.1 mi	0:01:39	4 mph	356 true
	N25 28.667 W81 11.353	3/25/2008 12:35:41 PM 	-11 ft			0.1 mi	0:01:57	3 mph	346 true
	N25 28.758 W81 11.402	3/25/2008 12:38:02 PM 	-9 ft			0.1 mi	0:02:21	3 mph	334 true
	N25 28.844 W81 11.453	3/25/2008 12:39:53 PM 	-6 ft			0.1 mi	0:01:51	4 mph	332 true
	N25 28.931 W81 11.509	3/25/2008 12:41:59 PM 	-6 ft			0.1 mi	0:02:06	3 mph	330 true
	N25 29.015 W81 11.546	3/25/2008 12:45:15 PM 	2 ft			0.1 mi	0:03:16	2 mph	339 true
	N25 29.043 W81 11.633	3/25/2008 12:51:54 PM 	2 ft			506 ft	0:06:39	0.9 mph	289 true
	N25 29.125 W81 11.693	3/25/2008 12:54:17 PM 	15 ft			0.1 mi	0:02:23	3 mph	326 true
	N25 29.208 W81 11.753	3/25/2008 12:56:22 PM 	10 ft			0.1 mi	0:02:05	3 mph	327 true
	N25 29.292 W81 11.810	3/25/2008 12:59:01 PM 	10 ft			0.1 mi	0:02:39	3 mph	329 true
	N25 29.369 W81 11.880	3/25/2008 1:01:01 PM 	7 ft			0.1 mi	0:02:00	3 mph	320 true
	N25 29.449 W81 11.946	3/25/2008 1:03:08 PM 	10 ft			0.1 mi	0:02:07	3 mph	323 true
	N25 29.526 W81 12.015	3/25/2008 1:05:37 PM 	2 ft			0.1 mi	0:02:29	3 mph	321 true
	N25 29.599 W81 12.088	3/25/2008 1:08:06 PM 	0 ft			0.1 mi	0:02:29	3 mph	318 true
	N25 29.681 W81 12.148	3/25/2008 1:10:11 PM 	0 ft			0.1 mi	0:02:05	3 mph	327 true
	N25 29.765 W81 12.209	3/25/2008 1:12:04 PM 	0 ft			0.1 mi	0:01:53	4 mph	327 true
	N25 29.848 W81 12.271	3/25/2008 1:14:19 PM 	-1 ft			0.1 mi	0:02:15	3 mph	326 true
	N25 29.931 W81 12.331	3/25/2008 1:16:18 PM 	-1 ft			0.1 mi	0:01:59	3 mph	327 true
	N25 30.013 W81 12.394	3/25/2008 1:18:45 PM 	4 ft			0.1 mi	0:02:27	3 mph	326 true
	N25 30.100 W81 12.448	3/25/2008 1:20:34 PM 	4 ft			0.1 mi	0:01:49	4 mph	330 true
	N25 30.187 W81 12.501	3/25/2008 1:22:46 PM 	2 ft			0.1 mi	0:02:12	3 mph	331 true
	N25 30.270 W81 12.561	3/25/2008 1:26:10 PM 	0 ft			0.1 mi	0:03:24	2 mph	327 true
	N25 30.361 W81 12.607	3/25/2008 1:28:18 PM 	2 ft			0.1 mi	0:02:08	3 mph	335 true
	N25 30.427 W81 12.685	3/25/2008 1:30:28 PM 	4 ft			0.1 mi	0:02:10	3 mph	313 true
	N25 30.512 W81 12.743	3/25/2008 1:32:07 PM 	5 ft			0.1 mi	0:01:39	4 mph	328 true
	N25 30.601 W81 12.791	3/25/2008 1:33:48 PM 	2 ft			0.1 mi	0:01:41	4 mph	334 true
	N25 30.697 W81 12.817	3/25/2008 1:35:37 PM 	4 ft			0.1 mi	0:01:49	4 mph	346 true
	N25 30.793 W81 12.847	3/25/2008 1:37:24 PM 	4 ft			0.1 mi	0:01:47	4 mph	344 true
	N25 30.791 W81 12.769	3/25/2008 1:40:09 PM 	2 ft			429 ft	0:02:45	2 mph	92 true
	N25 30.769 W81 12.662	3/25/2008 1:43:02 PM 	10 ft			0.1 mi	0:02:53	2 mph	102 true
	N25 30.848 W81 12.726	3/25/2008 1:45:42 PM 	2 ft			0.1 mi	0:02:40	3 mph	324 true
	N25 30.943 W81 12.758	3/25/2008 1:47:32 PM 	5 ft			0.1 mi	0:01:50	4 mph	343 true
	N25 31.033 W81 12.803	3/25/2008 1:49:43 PM 	10 ft			0.1 mi	0:02:11	3 mph	336 true
	N25 31.131 W81 12.824	3/25/2008 1:51:24 PM 	10 ft			0.1 mi	0:01:41	4 mph	349 true
	N25 31.231 W81 12.831	3/25/2008 1:52:55 PM 	11 ft			0.1 mi	0:01:31	5 mph	356 true
	N25 31.330 W81 12.841	3/25/2008 1:54:31 PM 	10 ft			0.1 mi	0:01:36	4 mph	355 true
	N25 31.415 W81 12.897	3/25/2008 1:57:11 PM 	7 ft			0.1 mi	0:02:40	3 mph	329 true
	N25 31.512 W81 12.924	3/25/2008 1:58:49 PM 	4 ft			0.1 mi	0:01:38	4 mph	346 true
	N25 31.610 W81 12.946	3/25/2008 2:00:18 PM 	4 ft			0.1 mi	0:01:29	5 mph	349 true
	N25 31.694 W81 13.003	3/25/2008 2:02:06 PM 	16 ft			0.1 mi	0:01:48	4 mph	329 true
	N25 31.784 W81 13.051	3/25/2008 2:04:01 PM 	7 ft			0.1 mi	0:01:55	4 mph	334 true
	N25 31.883 W81 13.067	3/25/2008 2:05:44 PM 	5 ft			0.1 mi	0:01:43	4 mph	352 true
	N25 31.967 W81 13.111	3/25/2008 2:07:41 PM 	5 ft			0.1 mi	0:01:57	3 mph	335 true
	N25 32.058 W81 13.155	3/25/2008 2:09:49 PM 	4 ft			0.1 mi	0:02:08	3 mph	336 true
	N25 32.153 W81 13.191	3/25/2008 2:11:46 PM 	13 ft			0.1 mi	0:01:57	4 mph	341 true
	N25 32.250 W81 13.221	3/25/2008 2:13:26 PM 	21 ft			0.1 mi	0:01:40	4 mph	345 true
	N25 32.347 W81 13.245	3/25/2008 2:15:19 PM 	4 ft			0.1 mi	0:01:53	4 mph	347 true
	N25 32.443 W81 13.260	3/25/2008 2:17:21 PM 	16 ft			0.1 mi	0:02:02	3 mph	352 true
	N25 32.541 W81 13.273	3/25/2008 2:19:10 PM 	10 ft			0.1 mi	0:01:49	4 mph	353 true
	N25 32.641 W81 13.287	3/25/2008 2:20:46 PM 	11 ft			0.1 mi	0:01:36	4 mph	353 true
	N25 32.741 W81 13.291	3/25/2008 2:22:09 PM 	13 ft			0.1 mi	0:01:23	5 mph	358 true
	N25 32.840 W81 13.308	3/25/2008 2:23:43 PM 	16 ft			0.1 mi	0:01:34	4 mph	352 true
	N25 32.937 W81 13.333	3/25/2008 2:25:39 PM 	24 ft			0.1 mi	0:01:56	4 mph	347 true
	N25 33.032 W81 13.372	3/25/2008 2:27:39 PM 	16 ft			0.1 mi	0:02:00	4 mph	340 true
	N25 33.126 W81 13.412	3/25/2008 2:29:03 PM 	15 ft			0.1 mi	0:01:24	5 mph	339 true
	N25 33.218 W81 13.456	3/25/2008 2:30:23 PM 	16 ft			0.1 mi	0:01:20	5 mph	337 true
	N25 33.303 W81 13.511	3/25/2008 2:32:22 PM 	11 ft			0.1 mi	0:01:59	3 mph	330 true
	N25 33.380 W81 13.579	3/25/2008 2:35:04 PM 	13 ft			0.1 mi	0:02:42	3 mph	321 true
	N25 33.444 W81 13.650	3/25/2008 2:38:48 PM 	21 ft			0.1 mi	0:03:44	2 mph	315 true
	N25 33.533 W81 13.699	3/25/2008 2:41:05 PM 	15 ft			0.1 mi	0:02:17	3 mph	334 true
	N25 33.624 W81 13.744	3/25/2008 2:42:44 PM 	27 ft			0.1 mi	0:01:39	4 mph	336 true
	N25 33.711 W81 13.798	3/25/2008 2:44:29 PM 	11 ft			0.1 mi	0:01:45	4 mph	330 true
	N25 33.803 W81 13.840	3/25/2008 2:45:58 PM 	13 ft			0.1 mi	0:01:29	5 mph	338 true
	N25 33.894 W81 13.888	3/25/2008 2:47:54 PM 	13 ft			0.1 mi	0:01:56	4 mph	334 true
	N25 33.983 W81 13.940	3/25/2008 2:50:11 PM 	15 ft			0.1 mi	0:02:17	3 mph	332 true
	N25 34.075 W81 13.976	3/25/2008 2:52:26 PM 	10 ft			0.1 mi	0:02:15	3 mph	340 true
	N25 34.159 W81 14.034	3/25/2008 2:55:50 PM 	8 ft			0.1 mi	0:03:24	2 mph	328 true
	N25 34.251 W81 14.065	3/25/2008 2:58:06 PM 	8 ft			0.1 mi	0:02:16	3 mph	343 true
	N25 34.270 W81 14.023	3/25/2008 3:02:47 PM 	10 ft			256 ft	0:04:41	0.6 mph	64 true
	N25 34.326 W81 14.090	3/26/2008 1:37:17 PM 	8 ft			0.1 mi	0:25:11	0.2 mph	292 true
	N25 34.365 W81 14.188	3/26/2008 1:40:27 PM 	13 ft			0.1 mi	0:03:10	2 mph	294 true
	N25 34.444 W81 14.259	3/26/2008 1:41:45 PM 	10 ft			0.1 mi	0:01:18	5 mph	321 true
	N25 34.530 W81 14.316	3/26/2008 1:43:03 PM 	11 ft			0.1 mi	0:01:18	5 mph	329 true
	N25 34.622 W81 14.362	3/26/2008 1:44:26 PM 	11 ft			0.1 mi	0:01:23	5 mph	336 true
	N25 34.714 W81 14.407	3/26/2008 1:45:49 PM 	10 ft			0.1 mi	0:01:23	5 mph	336 true
	N25 34.800 W81 14.460	3/26/2008 1:48:14 PM 	8 ft			0.1 mi	0:02:25	3 mph	331 true
	N25 34.885 W81 14.519	3/26/2008 1:50:05 PM 	0 ft			0.1 mi	0:01:51	4 mph	328 true
	N25 34.972 W81 14.574	3/26/2008 1:51:48 PM 	2 ft			0.1 mi	0:01:43	4 mph	331 true
	N25 35.051 W81 14.643	3/26/2008 1:52:57 PM 	-3 ft			0.1 mi	0:01:09	6 mph	321 true
	N25 35.139 W81 14.696	3/26/2008 1:54:02 PM 	-4 ft			0.1 mi	0:01:05	6 mph	332 true
	N25 35.208 W81 14.772	3/26/2008 1:55:38 PM 	-7 ft			0.1 mi	0:01:36	4 mph	315 true
	N25 35.290 W81 14.838	3/26/2008 1:56:52 PM 	-9 ft			0.1 mi	0:01:14	6 mph	324 true
	N25 35.371 W81 14.905	3/26/2008 1:57:59 PM 	-7 ft			0.1 mi	0:01:07	6 mph	323 true
	N25 35.449 W81 14.975	3/26/2008 1:59:15 PM 	-7 ft			0.1 mi	0:01:16	5 mph	321 true
	N25 35.519 W81 15.053	3/26/2008 2:00:56 PM 	-7 ft			0.1 mi	0:01:41	4 mph	315 true
	N25 35.593 W81 15.130	3/26/2008 2:02:08 PM 	-11 ft			0.1 mi	0:01:12	6 mph	317 true
	N25 35.670 W81 15.202	3/26/2008 2:03:14 PM 	-9 ft			0.1 mi	0:01:06	6 mph	320 true
	N25 35.745 W81 15.276	3/26/2008 2:04:23 PM 	-9 ft			0.1 mi	0:01:09	6 mph	318 true
	N25 35.819 W81 15.350	3/26/2008 2:05:33 PM 	-12 ft			0.1 mi	0:01:10	6 mph	318 true
	N25 35.890 W81 15.426	3/26/2008 2:06:51 PM 	-6 ft			0.1 mi	0:01:18	5 mph	316 true
	N25 35.965 W81 15.501	3/26/2008 2:08:00 PM 	0 ft			0.1 mi	0:01:09	6 mph	318 true
	N25 36.042 W81 15.575	3/26/2008 2:09:08 PM 	-1 ft			0.1 mi	0:01:08	6 mph	319 true
	N25 36.115 W81 15.651	3/26/2008 2:10:13 PM 	2 ft			0.1 mi	0:01:05	6 mph	317 true
	N25 36.187 W81 15.728	3/26/2008 2:11:22 PM 	-1 ft			0.1 mi	0:01:09	6 mph	316 true
	N25 36.258 W81 15.806	3/26/2008 2:13:03 PM 	-6 ft			0.1 mi	0:01:41	4 mph	315 true
	N25 36.336 W81 15.877	3/26/2008 2:15:03 PM 	-4 ft			0.1 mi	0:02:00	3 mph	321 true
	N25 36.416 W81 15.945	3/26/2008 2:16:22 PM 	-4 ft			0.1 mi	0:01:19	5 mph	322 true
	N25 36.492 W81 16.018	3/26/2008 2:17:32 PM 	-7 ft			0.1 mi	0:01:10	6 mph	319 true
	N25 36.566 W81 16.092	3/26/2008 2:19:21 PM 	-7 ft			0.1 mi	0:01:49	4 mph	318 true
	N25 36.643 W81 16.165	3/26/2008 2:21:04 PM 	-11 ft			0.1 mi	0:01:43	4 mph	319 true
	N25 36.719 W81 16.232	3/26/2008 2:23:43 PM 	-14 ft			0.1 mi	0:02:39	3 mph	322 true
	N25 36.791 W81 16.301	3/26/2008 2:26:22 PM 	-7 ft			0.1 mi	0:02:39	2 mph	319 true
	N25 36.861 W81 16.381	3/26/2008 2:28:22 PM 	-7 ft			0.1 mi	0:02:00	3 mph	314 true
	N25 36.950 W81 16.430	3/26/2008 2:30:03 PM 	-7 ft			0.1 mi	0:01:41	4 mph	334 true
	N25 37.045 W81 16.464	3/26/2008 2:31:39 PM 	-7 ft			0.1 mi	0:01:36	4 mph	342 true
	N25 37.142 W81 16.496	3/26/2008 2:33:01 PM 	-3 ft			0.1 mi	0:01:22	5 mph	343 true
	N25 37.236 W81 16.536	3/26/2008 2:34:21 PM 	-1 ft			0.1 mi	0:01:20	5 mph	339 true
	N25 37.329 W81 16.576	3/26/2008 2:35:55 PM 	-6 ft			0.1 mi	0:01:34	4 mph	339 true
	N25 37.424 W81 16.614	3/26/2008 2:37:07 PM 	-1 ft			0.1 mi	0:01:12	6 mph	340 true
	N25 37.514 W81 16.665	3/26/2008 2:38:34 PM 	-1 ft			0.1 mi	0:01:27	5 mph	333 true
	N25 37.608 W81 16.707	3/26/2008 2:39:46 PM 	-1 ft			0.1 mi	0:01:12	6 mph	338 true
	N25 37.701 W81 16.749	3/26/2008 2:41:22 PM 	2 ft			0.1 mi	0:01:36	4 mph	338 true
	N25 37.790 W81 16.796	3/26/2008 2:43:05 PM 	-6 ft			0.1 mi	0:01:43	4 mph	335 true
	N25 37.883 W81 16.836	3/26/2008 2:44:34 PM 	-3 ft			0.1 mi	0:01:29	5 mph	339 true
	N25 37.982 W81 16.859	3/26/2008 2:45:54 PM 	4 ft			0.1 mi	0:01:20	5 mph	348 true
	N25 38.077 W81 16.896	3/26/2008 2:47:20 PM 	4 ft			0.1 mi	0:01:26	5 mph	340 true
	N25 38.174 W81 16.920	3/26/2008 2:48:43 PM 	8 ft			0.1 mi	0:01:23	5 mph	347 true
	N25 38.272 W81 16.949	3/26/2008 2:50:13 PM 	16 ft			0.1 mi	0:01:30	5 mph	345 true
	N25 38.365 W81 16.989	3/26/2008 2:51:35 PM 	5 ft			0.1 mi	0:01:22	5 mph	339 true
	N25 38.460 W81 17.025	3/26/2008 2:52:57 PM 	4 ft			0.1 mi	0:01:22	5 mph	341 true
	N25 38.555 W81 17.066	3/26/2008 2:54:06 PM 	5 ft			0.1 mi	0:01:09	6 mph	339 true
	N25 38.647 W81 17.110	3/26/2008 2:55:09 PM 	2 ft			0.1 mi	0:01:03	7 mph	337 true
	N25 38.736 W81 17.161	3/26/2008 2:56:15 PM 	4 ft			0.1 mi	0:01:06	6 mph	332 true
	N25 38.828 W81 17.204	3/26/2008 2:57:22 PM 	-6 ft			0.1 mi	0:01:07	6 mph	338 true
	N25 38.922 W81 17.245	3/26/2008 2:58:30 PM 	-1 ft			0.1 mi	0:01:08	6 mph	338 true
	N25 39.011 W81 17.294	3/26/2008 2:59:47 PM 	-4 ft			0.1 mi	0:01:17	5 mph	334 true
	N25 39.104 W81 17.337	3/26/2008 3:00:56 PM 	-4 ft			0.1 mi	0:01:09	6 mph	337 true
	N25 39.194 W81 17.387	3/26/2008 3:02:04 PM 	0 ft			0.1 mi	0:01:08	6 mph	334 true
	N25 39.292 W81 17.413	3/26/2008 3:03:30 PM 	0 ft			0.1 mi	0:01:26	5 mph	346 true
	N25 39.391 W81 17.400	3/26/2008 3:05:48 PM 	2 ft			0.1 mi	0:02:18	3 mph	7 true
	N25 39.429 W81 17.376	3/26/2008 3:10:58 PM 	10 ft			266 ft	0:05:10	0.6 mph	29 true
	N25 39.472 W81 17.472	3/26/2008 3:21:13 PM 	13 ft			0.1 mi	0:10:15	0.6 mph	296 true
	N25 39.564 W81 17.515	3/26/2008 3:23:18 PM 	15 ft			0.1 mi	0:02:05	3 mph	337 true
	N25 39.655 W81 17.558	3/26/2008 3:24:49 PM 	16 ft			0.1 mi	0:01:31	5 mph	337 true
	N25 39.743 W81 17.609	3/26/2008 3:26:53 PM 	8 ft			0.1 mi	0:02:04	3 mph	332 true
	N25 39.820 W81 17.672	3/26/2008 3:29:03 PM 	16 ft			0.1 mi	0:02:10	3 mph	324 true
	N25 39.879 W81 17.762	3/26/2008 3:31:24 PM 	16 ft			0.1 mi	0:02:21	3 mph	306 true
	N25 39.939 W81 17.852	3/26/2008 3:32:59 PM 	16 ft			0.1 mi	0:01:35	4 mph	307 true
	N25 39.998 W81 17.939	3/26/2008 3:34:34 PM 	13 ft			0.1 mi	0:01:35	4 mph	307 true
	N25 40.062 W81 18.026	3/26/2008 3:35:53 PM 	13 ft			0.1 mi	0:01:19	5 mph	309 true
	N25 40.121 W81 18.116	3/26/2008 3:37:17 PM 	13 ft			0.1 mi	0:01:24	5 mph	306 true
	N25 40.178 W81 18.208	3/26/2008 3:38:50 PM 	10 ft			0.1 mi	0:01:33	4 mph	305 true
	N25 40.234 W81 18.301	3/26/2008 3:40:16 PM 	10 ft			0.1 mi	0:01:26	5 mph	304 true
	N25 40.293 W81 18.389	3/26/2008 3:42:07 PM 	7 ft			0.1 mi	0:01:51	4 mph	307 true
	N25 40.360 W81 18.472	3/26/2008 3:44:20 PM 	11 ft			0.1 mi	0:02:13	3 mph	312 true
	N25 40.414 W81 18.566	3/26/2008 3:46:10 PM 	11 ft			0.1 mi	0:01:50	4 mph	303 true
	N25 40.468 W81 18.660	3/26/2008 3:47:31 PM 	15 ft			0.1 mi	0:01:21	5 mph	303 true
	N25 40.520 W81 18.756	3/26/2008 3:49:04 PM 	18 ft			0.1 mi	0:01:33	4 mph	301 true
	N25 40.568 W81 18.854	3/26/2008 3:50:28 PM 	15 ft			0.1 mi	0:01:24	5 mph	299 true
	N25 40.617 W81 18.949	3/26/2008 3:52:07 PM 	15 ft			0.1 mi	0:01:39	4 mph	300 true
	N25 40.667 W81 19.047	3/26/2008 3:53:32 PM 	13 ft			0.1 mi	0:01:25	5 mph	300 true
	N25 40.713 W81 19.145	3/26/2008 3:55:13 PM 	13 ft			0.1 mi	0:01:41	4 mph	297 true
	N25 40.759 W81 19.244	3/26/2008 3:56:48 PM 	13 ft			0.1 mi	0:01:35	4 mph	297 true
	N25 40.805 W81 19.342	3/26/2008 3:58:20 PM 	13 ft			0.1 mi	0:01:32	5 mph	298 true
	N25 40.852 W81 19.442	3/26/2008 4:00:09 PM 	15 ft			0.1 mi	0:01:49	4 mph	298 true
	N25 40.894 W81 19.543	3/26/2008 4:01:32 PM 	13 ft			0.1 mi	0:01:23	5 mph	295 true
	N25 40.936 W81 19.643	3/26/2008 4:03:08 PM 	11 ft			0.1 mi	0:01:36	4 mph	294 true
	N25 40.975 W81 19.745	3/26/2008 4:04:55 PM 	13 ft			0.1 mi	0:01:47	4 mph	293 true
	N25 41.017 W81 19.845	3/26/2008 4:06:23 PM 	16 ft			0.1 mi	0:01:28	5 mph	295 true
	N25 41.052 W81 19.949	3/26/2008 4:07:48 PM 	16 ft			0.1 mi	0:01:25	5 mph	291 true
	N25 41.079 W81 20.055	3/26/2008 4:09:10 PM 	15 ft			0.1 mi	0:01:22	5 mph	286 true
	N25 41.114 W81 20.159	3/26/2008 4:10:40 PM 	15 ft			0.1 mi	0:01:30	5 mph	291 true
	N25 41.143 W81 20.265	3/26/2008 4:12:03 PM 	15 ft			0.1 mi	0:01:23	5 mph	287 true
	N25 41.172 W81 20.371	3/26/2008 4:13:54 PM 	15 ft			0.1 mi	0:01:51	4 mph	286 true
	N25 41.197 W81 20.478	3/26/2008 4:15:37 PM 	16 ft			0.1 mi	0:01:43	4 mph	285 true
	N25 41.225 W81 20.584	3/26/2008 4:17:06 PM 	13 ft			0.1 mi	0:01:29	5 mph	287 true
	N25 41.254 W81 20.690	3/26/2008 4:18:51 PM 	11 ft			0.1 mi	0:01:45	4 mph	287 true
	N25 41.282 W81 20.798	3/26/2008 4:20:34 PM 	11 ft			0.1 mi	0:01:43	4 mph	286 true
	N25 41.316 W81 20.902	3/26/2008 4:22:15 PM 	11 ft			0.1 mi	0:01:41	4 mph	290 true
	N25 41.345 W81 21.008	3/26/2008 4:24:08 PM 	10 ft			0.1 mi	0:01:53	4 mph	287 true
	N25 41.390 W81 21.108	3/26/2008 4:25:50 PM 	16 ft			0.1 mi	0:01:42	4 mph	296 true
	N25 41.461 W81 21.182	3/26/2008 4:29:16 PM 	8 ft			0.1 mi	0:03:26	2 mph	317 true
	N25 41.525 W81 21.264	3/26/2008 4:35:19 PM 	7 ft			0.1 mi	0:06:03	1.1 mph	311 true
	N25 41.572 W81 21.359	3/26/2008 4:40:47 PM 	11 ft			0.1 mi	0:05:28	1.2 mph	299 true
	N25 41.662 W81 21.407	3/26/2008 4:44:05 PM 	5 ft			0.1 mi	0:03:18	2 mph	335 true
	N25 41.758 W81 21.441	3/26/2008 4:46:44 PM 	-7 ft			0.1 mi	0:02:39	3 mph	342 true
	N25 41.853 W81 21.476	3/26/2008 4:49:13 PM 	-9 ft			0.1 mi	0:02:29	3 mph	342 true
	N25 41.948 W81 21.511	3/26/2008 4:51:19 PM 	-1 ft			0.1 mi	0:02:06	3 mph	342 true
	N25 42.045 W81 21.542	3/26/2008 4:52:55 PM 	-3 ft			0.1 mi	0:01:36	4 mph	344 true
	N25 42.140 W81 21.579	3/26/2008 4:54:38 PM 	0 ft			0.1 mi	0:01:43	4 mph	341 true
	N25 42.237 W81 21.608	3/26/2008 4:56:09 PM 	0 ft			0.1 mi	0:01:31	5 mph	345 true
	N25 42.334 W81 21.633	3/26/2008 4:57:33 PM 	2 ft			0.1 mi	0:01:24	5 mph	347 true
	N25 42.431 W81 21.661	3/26/2008 4:59:10 PM 	7 ft			0.1 mi	0:01:37	4 mph	346 true
	N25 42.529 W81 21.686	3/26/2008 5:00:50 PM 	7 ft			0.1 mi	0:01:40	4 mph	347 true
	N25 42.623 W81 21.723	3/26/2008 5:02:24 PM 	8 ft			0.1 mi	0:01:34	4 mph	341 true
	N25 42.714 W81 21.768	3/26/2008 5:04:15 PM 	8 ft			0.1 mi	0:01:51	4 mph	336 true
	N25 42.805 W81 21.816	3/26/2008 5:05:52 PM 	-3 ft			0.1 mi	0:01:37	4 mph	334 true
	N25 42.893 W81 21.871	3/26/2008 5:07:23 PM 	-12 ft			0.1 mi	0:01:31	5 mph	331 true
	N25 42.988 W81 21.904	3/26/2008 5:09:33 PM 	-3 ft			0.1 mi	0:02:10	3 mph	343 true
	N25 43.083 W81 21.937	3/26/2008 5:11:34 PM 	-1 ft			0.1 mi	0:02:01	3 mph	342 true
	N25 43.179 W81 21.968	3/26/2008 5:13:32 PM 	0 ft			0.1 mi	0:01:58	4 mph	344 true
	N25 43.277 W81 21.994	3/26/2008 5:14:52 PM 	-1 ft			0.1 mi	0:01:20	5 mph	347 true
	N25 43.375 W81 22.019	3/26/2008 5:16:12 PM 	-4 ft			0.1 mi	0:01:20	5 mph	347 true
	N25 43.473 W81 22.046	3/26/2008 5:17:39 PM 	-6 ft			0.1 mi	0:01:27	5 mph	346 true
	N25 43.571 W81 22.073	3/26/2008 5:19:03 PM 	-1 ft			0.1 mi	0:01:24	5 mph	346 true
	N25 43.663 W81 22.112	3/26/2008 5:20:29 PM 	-7 ft			0.1 mi	0:01:26	5 mph	339 true
	N25 43.748 W81 22.171	3/26/2008 5:21:45 PM 	-7 ft			0.1 mi	0:01:16	5 mph	328 true
	N25 43.831 W81 22.235	3/26/2008 5:22:59 PM 	-3 ft			0.1 mi	0:01:14	6 mph	325 true
	N25 43.916 W81 22.296	3/26/2008 5:24:19 PM 	-9 ft			0.1 mi	0:01:20	5 mph	327 true
	N25 43.998 W81 22.358	3/26/2008 5:25:47 PM 	-6 ft			0.1 mi	0:01:28	5 mph	326 true
	N25 44.085 W81 22.414	3/26/2008 5:27:14 PM 	-4 ft			0.1 mi	0:01:27	5 mph	330 true
	N25 44.171 W81 22.470	3/26/2008 5:28:28 PM 	-4 ft			0.1 mi	0:01:14	6 mph	329 true
	N25 44.256 W81 22.528	3/26/2008 5:29:50 PM 	-4 ft			0.1 mi	0:01:22	5 mph	328 true
	N25 44.343 W81 22.583	3/26/2008 5:31:11 PM 	-4 ft			0.1 mi	0:01:21	5 mph	330 true
	N25 44.426 W81 22.646	3/26/2008 5:32:22 PM 	-7 ft			0.1 mi	0:01:11	6 mph	326 true
	N25 44.513 W81 22.702	3/26/2008 5:33:32 PM 	-3 ft			0.1 mi	0:01:10	6 mph	330 true
	N25 44.601 W81 22.753	3/26/2008 5:34:48 PM 	0 ft			0.1 mi	0:01:16	5 mph	332 true
	N25 44.692 W81 22.801	3/26/2008 5:36:01 PM 	5 ft			0.1 mi	0:01:13	6 mph	335 true
	N25 44.783 W81 22.851	3/26/2008 5:37:23 PM 	0 ft			0.1 mi	0:01:22	5 mph	334 true
	N25 44.871 W81 22.905	3/26/2008 5:38:52 PM 	-1 ft			0.1 mi	0:01:29	5 mph	331 true
	N25 44.963 W81 22.943	3/26/2008 5:41:26 PM 	-1 ft			0.1 mi	0:02:34	3 mph	340 true
	N25 45.044 W81 22.941	3/26/2008 5:45:30 PM 	5 ft			493 ft	0:04:04	1.4 mph	1 true
	N25 45.113 W81 22.917	3/26/2008 5:49:44 PM 	5 ft			439 ft	0:04:14	1.2 mph	17 true
	N25 45.098 W81 22.833	3/26/2008 5:52:20 PM 	10 ft			468 ft	0:02:36	2 mph	101 true
	N25 45.133 W81 22.789	3/26/2008 5:55:08 PM 	5 ft			322 ft	0:02:48	1.3 mph	48 true
	N25 45.076 W81 22.722	3/26/2008 6:04:03 PM 	10 ft			510 ft	0:08:55	0.7 mph	133 true
	N25 45.155 W81 22.757	3/27/2008 2:17:53 PM 	-1 ft			0.1 mi	1:08:22	0.1 mph	337 true
	N25 45.252 W81 22.746	3/27/2008 2:20:14 PM 	11 ft			0.1 mi	0:02:21	3 mph	6 true
	N25 45.340 W81 22.786	3/27/2008 2:22:56 PM 	5 ft			0.1 mi	0:02:42	2 mph	338 true
	N25 45.420 W81 22.850	3/27/2008 2:24:48 PM 	-14 ft			0.1 mi	0:01:52	4 mph	324 true
	N25 45.502 W81 22.917	3/27/2008 2:27:03 PM 	-4 ft			0.1 mi	0:02:15	3 mph	324 true
	N25 45.583 W81 22.983	3/27/2008 2:28:17 PM 	2 ft			0.1 mi	0:01:14	6 mph	324 true
	N25 45.664 W81 23.049	3/27/2008 2:29:32 PM 	7 ft			0.1 mi	0:01:15	6 mph	324 true
	N25 45.754 W81 23.097	3/27/2008 2:30:44 PM 	7 ft			0.1 mi	0:01:12	6 mph	334 true
	N25 45.850 W81 23.131	3/27/2008 2:31:54 PM 	5 ft			0.1 mi	0:01:10	6 mph	343 true
	N25 45.948 W81 23.161	3/27/2008 2:33:02 PM 	0 ft			0.1 mi	0:01:08	6 mph	345 true
	N25 46.046 W81 23.187	3/27/2008 2:34:05 PM 	2 ft			0.1 mi	0:01:03	7 mph	347 true
	N25 46.146 W81 23.213	3/27/2008 2:35:09 PM 	5 ft			0.1 mi	0:01:04	7 mph	347 true
	N25 46.245 W81 23.238	3/27/2008 2:36:17 PM 	8 ft			0.1 mi	0:01:08	6 mph	347 true
	N25 46.342 W81 23.272	3/27/2008 2:37:26 PM 	11 ft			0.1 mi	0:01:09	6 mph	343 true
	N25 46.437 W81 23.309	3/27/2008 2:38:41 PM 	11 ft			0.1 mi	0:01:15	6 mph	341 true
	N25 46.534 W81 23.339	3/27/2008 2:39:54 PM 	10 ft			0.1 mi	0:01:13	6 mph	345 true
	N25 46.633 W81 23.360	3/27/2008 2:41:07 PM 	13 ft			0.1 mi	0:01:13	6 mph	349 true
	N25 46.732 W81 23.376	3/27/2008 2:42:36 PM 	16 ft			0.1 mi	0:01:29	5 mph	352 true
	N25 46.831 W81 23.396	3/27/2008 2:44:22 PM 	15 ft			0.1 mi	0:01:46	4 mph	350 true
	N25 46.930 W81 23.415	3/27/2008 2:46:12 PM 	16 ft			0.1 mi	0:01:50	4 mph	350 true
	N25 47.028 W81 23.442	3/27/2008 2:47:32 PM 	13 ft			0.1 mi	0:01:20	5 mph	346 true
	N25 47.125 W81 23.468	3/27/2008 2:48:51 PM 	16 ft			0.1 mi	0:01:19	5 mph	347 true
	N25 47.226 W81 23.468	3/27/2008 2:50:08 PM 	10 ft			0.1 mi	0:01:17	5 mph	0 true
	N25 47.327 W81 23.462	3/27/2008 2:51:26 PM 	11 ft			0.1 mi	0:01:18	5 mph	3 true
	N25 47.425 W81 23.440	3/27/2008 2:53:06 PM 	11 ft			0.1 mi	0:01:40	4 mph	11 true
	N25 47.505 W81 23.371	3/27/2008 2:54:39 PM 	2 ft			0.1 mi	0:01:33	4 mph	38 true
	N25 47.584 W81 23.302	3/27/2008 2:56:10 PM 	2 ft			0.1 mi	0:01:31	5 mph	38 true
	N25 47.672 W81 23.247	3/27/2008 2:57:49 PM 	4 ft			0.1 mi	0:01:39	4 mph	29 true
	N25 47.765 W81 23.210	3/27/2008 2:59:06 PM 	7 ft			0.1 mi	0:01:17	5 mph	20 true
	N25 47.856 W81 23.160	3/27/2008 3:00:23 PM 	11 ft			0.1 mi	0:01:17	5 mph	27 true
	N25 47.952 W81 23.133	3/27/2008 3:01:39 PM 	10 ft			0.1 mi	0:01:16	5 mph	14 true
	N25 48.043 W81 23.085	3/27/2008 3:03:01 PM 	10 ft			0.1 mi	0:01:22	5 mph	25 true
	N25 48.066 W81 23.009	3/27/2008 3:04:58 PM 	5 ft			437 ft	0:01:57	3 mph	71 true
	N25 48.045 W81 22.935	3/27/2008 3:07:02 PM 	4 ft			427 ft	0:02:04	2 mph	107 true
	N25 48.002 W81 22.863	3/27/2008 3:08:52 PM 	5 ft			476 ft	0:01:50	3 mph	124 true
	N25 47.989 W81 22.783	3/27/2008 3:10:45 PM 	5 ft			444 ft	0:01:53	3 mph	100 true
	N25 47.903 W81 22.732	3/27/2008 3:12:24 PM 	4 ft			0.1 mi	0:01:39	4 mph	152 true
	N25 47.811 W81 22.692	3/27/2008 3:13:52 PM 	-1 ft			0.1 mi	0:01:28	5 mph	159 true
	N25 47.725 W81 22.634	3/27/2008 3:15:37 PM 	-1 ft			0.1 mi	0:01:45	4 mph	149 true
	N25 47.797 W81 22.560	3/27/2008 3:18:09 PM 	5 ft			0.1 mi	0:02:32	3 mph	43 true
	N25 47.787 W81 22.484	3/27/2008 3:20:50 PM 	7 ft			418 ft	0:02:41	2 mph	99 true
	N25 47.792 W81 22.406	3/27/2008 3:23:03 PM 	5 ft			427 ft	0:02:13	2 mph	86 true
	N25 47.726 W81 22.323	3/27/2008 3:24:58 PM 	5 ft			0.1 mi	0:01:55	4 mph	131 true
	N25 47.765 W81 22.262	3/27/2008 3:27:20 PM 	-1 ft			407 ft	0:02:22	2 mph	55 true
	N25 47.851 W81 22.206	3/27/2008 3:29:50 PM 	8 ft			0.1 mi	0:02:30	3 mph	30 true
	N25 47.934 W81 22.144	3/27/2008 3:33:16 PM 	5 ft			0.1 mi	0:03:26	2 mph	34 true
	N25 48.013 W81 22.075	3/27/2008 3:35:25 PM 	10 ft			0.1 mi	0:02:09	3 mph	38 true
	N25 48.052 W81 21.991	3/27/2008 3:38:48 PM 	8 ft			517 ft	0:03:23	2 mph	62 true
	N25 48.108 W81 21.938	3/27/2008 3:40:42 PM 	15 ft			450 ft	0:01:54	3 mph	41 true
	N25 48.176 W81 21.877	3/27/2008 3:42:40 PM 	19 ft			0.1 mi	0:01:58	3 mph	39 true
	N25 48.145 W81 21.784	3/27/2008 3:44:46 PM 	11 ft			0.1 mi	0:02:06	3 mph	110 true
	N25 48.240 W81 21.772	3/27/2008 3:46:34 PM 	-3 ft			0.1 mi	0:01:48	4 mph	6 true
	N25 48.341 W81 21.763	3/27/2008 3:47:53 PM 	2 ft			0.1 mi	0:01:19	5 mph	5 true
	N25 48.441 W81 21.757	3/27/2008 3:49:13 PM 	2 ft			0.1 mi	0:01:20	5 mph	3 true
	N25 48.541 W81 21.765	3/27/2008 3:50:38 PM 	-3 ft			0.1 mi	0:01:25	5 mph	356 true
	N25 48.778 W81 21.886	3/28/2008 9:26:08 AM 	10 ft			468 ft	0:50:01	0.1 mph	226 true
	N25 48.685 W81 21.854	3/28/2008 9:28:35 AM 	10 ft			0.1 mi	0:02:27	3 mph	163 true
	N25 48.601 W81 21.794	3/28/2008 9:31:18 AM 	8 ft			0.1 mi	0:02:43	3 mph	147 true
	N25 48.532 W81 21.727	3/28/2008 9:35:18 AM 	13 ft			0.1 mi	0:04:00	2 mph	139 true
	N25 48.470 W81 21.738	3/28/2008 9:39:44 AM 	11 ft			378 ft	0:04:26	1.0 mph	189 true
	N25 48.375 W81 21.769	3/28/2008 9:42:11 AM 	15 ft			0.1 mi	0:02:27	3 mph	196 true
	N25 48.276 W81 21.770	3/28/2008 9:44:24 AM 	16 ft			0.1 mi	0:02:13	3 mph	181 true
	N25 48.177 W81 21.781	3/28/2008 9:46:39 AM 	11 ft			0.1 mi	0:02:15	3 mph	186 true
	N25 48.118 W81 21.706	3/28/2008 9:49:39 AM 	15 ft			0.1 mi	0:03:00	2 mph	131 true
	N25 48.019 W81 21.698	3/28/2008 9:51:36 AM 	13 ft			0.1 mi	0:01:57	4 mph	176 true
	N25 47.919 W81 21.708	3/28/2008 9:53:34 AM 	8 ft			0.1 mi	0:01:58	4 mph	185 true
	N25 47.823 W81 21.719	3/28/2008 9:55:52 AM 	7 ft			0.1 mi	0:02:18	3 mph	186 true
	N25 47.725 W81 21.710	3/28/2008 9:58:15 AM 	10 ft			0.1 mi	0:02:23	3 mph	175 true
	N25 47.628 W81 21.722	3/28/2008 10:00:36 AM 	23 ft			0.1 mi	0:02:21	3 mph	186 true
	N25 47.537 W81 21.769	3/28/2008 10:03:09 AM 	19 ft			0.1 mi	0:02:33	3 mph	205 true
	N25 47.441 W81 21.801	3/28/2008 10:05:11 AM 	13 ft			0.1 mi	0:02:02	3 mph	197 true
	N25 47.343 W81 21.827	3/28/2008 10:07:12 AM 	10 ft			0.1 mi	0:02:01	3 mph	193 true
	N25 47.273 W81 21.903	3/28/2008 10:09:19 AM 	18 ft			0.1 mi	0:02:07	3 mph	224 true
	N25 47.201 W81 21.978	3/28/2008 10:11:23 AM 	13 ft			0.1 mi	0:02:04	3 mph	223 true
	N25 47.108 W81 21.959	3/28/2008 10:13:35 AM 	11 ft			0.1 mi	0:02:12	3 mph	169 true
	N25 47.097 W81 21.884	3/28/2008 10:16:12 AM 	0 ft			416 ft	0:02:37	2 mph	100 true
	N25 47.007 W81 21.834	3/28/2008 10:18:27 AM 	10 ft			0.1 mi	0:02:15	3 mph	153 true
	N25 46.910 W81 21.828	3/28/2008 10:20:41 AM 	13 ft			0.1 mi	0:02:14	3 mph	177 true
	N25 46.870 W81 21.930	3/28/2008 10:23:17 AM 	15 ft			0.1 mi	0:02:36	3 mph	247 true
	N25 46.827 W81 22.031	3/28/2008 10:25:43 AM 	8 ft			0.1 mi	0:02:26	3 mph	244 true
	N25 46.757 W81 22.108	3/28/2008 10:27:57 AM 	8 ft			0.1 mi	0:02:14	3 mph	225 true
	N25 46.660 W81 22.126	3/28/2008 10:30:21 AM 	16 ft			0.1 mi	0:02:24	3 mph	190 true
	N25 46.559 W81 22.130	3/28/2008 10:32:20 AM 	2 ft			0.1 mi	0:01:59	4 mph	182 true
	N25 46.484 W81 22.203	3/28/2008 10:34:16 AM 	7 ft			0.1 mi	0:01:56	4 mph	221 true
	N25 46.414 W81 22.283	3/28/2008 10:35:56 AM 	15 ft			0.1 mi	0:01:40	4 mph	226 true
	N25 46.349 W81 22.368	3/28/2008 10:37:53 AM 	13 ft			0.1 mi	0:01:57	4 mph	230 true
	N25 46.283 W81 22.451	3/28/2008 10:39:32 AM 	18 ft			0.1 mi	0:01:39	4 mph	228 true
	N25 46.216 W81 22.533	3/28/2008 10:41:23 AM 	8 ft			0.1 mi	0:01:51	4 mph	228 true
	N25 46.139 W81 22.603	3/28/2008 10:43:39 AM 	11 ft			0.1 mi	0:02:16	3 mph	220 true
	N25 46.058 W81 22.671	3/28/2008 10:45:26 AM 	2 ft			0.1 mi	0:01:47	4 mph	217 true
	N25 45.966 W81 22.714	3/28/2008 10:47:21 AM 	18 ft			0.1 mi	0:01:55	4 mph	203 true
	N25 45.871 W81 22.746	3/28/2008 10:49:00 AM 	19 ft			0.1 mi	0:01:39	4 mph	197 true
	N25 45.776 W81 22.783	3/28/2008 10:51:03 AM 	16 ft			0.1 mi	0:02:03	3 mph	200 true
	N25 45.684 W81 22.816	3/28/2008 10:53:03 AM 	7 ft			0.1 mi	0:02:00	3 mph	198 true
	N25 45.597 W81 22.868	3/28/2008 10:54:51 AM 	0 ft			0.1 mi	0:01:48	4 mph	208 true
	N25 45.501 W81 22.905	3/28/2008 10:57:12 AM 	2 ft			0.1 mi	0:02:21	3 mph	199 true
	N25 45.408 W81 22.943	3/28/2008 10:59:15 AM 	7 ft			0.1 mi	0:02:03	3 mph	200 true
	N25 45.315 W81 22.984	3/28/2008 11:01:10 AM 	-9 ft			0.1 mi	0:01:55	4 mph	202 true
	N25 45.219 W81 23.018	3/28/2008 11:03:48 AM 	4 ft			0.1 mi	0:02:38	3 mph	198 true
	N25 45.122 W81 23.043	3/28/2008 11:06:03 AM 	0 ft			0.1 mi	0:02:15	3 mph	193 true
	N25 45.024 W81 23.067	3/28/2008 11:09:25 AM 	2 ft			0.1 mi	0:03:22	2 mph	193 true
	N25 44.925 W81 23.055	3/28/2008 11:12:28 AM 	-26 ft			0.1 mi	0:03:03	2 mph	174 true
	N25 44.826 W81 23.036	3/28/2008 11:15:17 AM 	-12 ft			0.1 mi	0:02:49	2 mph	170 true
	N25 44.728 W81 23.011	3/28/2008 11:17:49 AM 	-9 ft			0.1 mi	0:02:32	3 mph	167 true
	N25 44.632 W81 22.982	3/28/2008 11:20:22 AM 	26 ft			0.1 mi	0:02:33	3 mph	165 true
	N25 44.535 W81 22.955	3/28/2008 11:23:09 AM 	51 ft			0.1 mi	0:02:47	2 mph	166 true
	N25 44.439 W81 22.919	3/28/2008 11:26:08 AM 	37 ft			0.1 mi	0:02:59	2 mph	162 true
	N25 44.348 W81 22.873	3/28/2008 11:29:23 AM 	23 ft			0.1 mi	0:03:15	2 mph	156 true
	N25 44.267 W81 22.808	3/28/2008 11:32:31 AM 	16 ft			0.1 mi	0:03:08	2 mph	144 true
	N25 44.182 W81 22.749	3/28/2008 11:35:52 AM 	5 ft			0.1 mi	0:03:21	2 mph	148 true
	N25 44.093 W81 22.700	3/28/2008 11:38:58 AM 	-31 ft			0.1 mi	0:03:06	2 mph	153 true
	N25 44.014 W81 22.633	3/28/2008 11:42:41 AM 	-12 ft			0.1 mi	0:03:43	2 mph	143 true
	N25 43.935 W81 22.565	3/28/2008 11:47:22 AM 	8 ft			0.1 mi	0:04:41	1.5 mph	142 true
	N25 43.854 W81 22.499	3/28/2008 11:51:34 AM 	0 ft			0.1 mi	0:04:12	2 mph	144 true
	N25 43.772 W81 22.436	3/28/2008 11:55:39 AM 	4 ft			0.1 mi	0:04:05	2 mph	145 true
	N25 43.683 W81 22.383	3/28/2008 11:58:25 AM 	2 ft			0.1 mi	0:02:46	3 mph	152 true
	N25 43.593 W81 22.332	3/28/2008 12:01:10 PM 	5 ft			0.1 mi	0:02:45	3 mph	153 true
	N25 43.502 W81 22.286	3/28/2008 12:03:57 PM 	5 ft			0.1 mi	0:02:47	2 mph	156 true
	N25 43.411 W81 22.238	3/28/2008 12:06:25 PM 	5 ft			0.1 mi	0:02:28	3 mph	155 true
	N25 43.318 W81 22.197	3/28/2008 12:09:03 PM 	8 ft			0.1 mi	0:02:38	3 mph	158 true
	N25 43.224 W81 22.153	3/28/2008 12:11:44 PM 	11 ft			0.1 mi	0:02:41	3 mph	157 true
	N25 43.132 W81 22.108	3/28/2008 12:14:02 PM 	11 ft			0.1 mi	0:02:18	3 mph	156 true
	N25 43.040 W81 22.064	3/28/2008 12:16:15 PM 	0 ft			0.1 mi	0:02:13	3 mph	157 true
	N25 42.948 W81 22.019	3/28/2008 12:18:35 PM 	8 ft			0.1 mi	0:02:20	3 mph	156 true
	N25 42.856 W81 21.973	3/28/2008 12:20:44 PM 	8 ft			0.1 mi	0:02:09	3 mph	156 true
	N25 42.764 W81 21.926	3/28/2008 12:22:50 PM 	5 ft			0.1 mi	0:02:06	3 mph	155 true
	N25 42.673 W81 21.881	3/28/2008 12:24:57 PM 	7 ft			0.1 mi	0:02:07	3 mph	156 true
	N25 42.580 W81 21.836	3/28/2008 12:27:00 PM 	7 ft			0.1 mi	0:02:03	3 mph	157 true
	N25 42.487 W81 21.794	3/28/2008 12:29:09 PM 	8 ft			0.1 mi	0:02:09	3 mph	158 true
	N25 42.395 W81 21.751	3/28/2008 12:31:13 PM 	8 ft			0.1 mi	0:02:04	3 mph	157 true
	N25 42.304 W81 21.704	3/28/2008 12:33:07 PM 	7 ft			0.1 mi	0:01:54	4 mph	155 true
	N25 42.211 W81 21.658	3/28/2008 12:35:01 PM 	8 ft			0.1 mi	0:01:54	4 mph	156 true
	N25 42.117 W81 21.618	3/28/2008 12:36:55 PM 	10 ft			0.1 mi	0:01:54	4 mph	159 true
	N25 42.022 W81 21.581	3/28/2008 12:38:50 PM 	8 ft			0.1 mi	0:01:55	4 mph	161 true
	N25 41.925 W81 21.552	3/28/2008 12:40:42 PM 	8 ft			0.1 mi	0:01:52	4 mph	165 true
	N25 41.825 W81 21.536	3/28/2008 12:42:41 PM 	13 ft			0.1 mi	0:01:59	4 mph	172 true
	N25 41.726 W81 21.518	3/28/2008 12:44:45 PM 	11 ft			0.1 mi	0:02:04	3 mph	171 true
	N25 41.636 W81 21.470	3/28/2008 12:46:43 PM 	8 ft			0.1 mi	0:01:58	4 mph	154 true
	N25 41.554 W81 21.409	3/28/2008 12:48:46 PM 	5 ft			0.1 mi	0:02:03	3 mph	146 true
	N25 41.482 W81 21.331	3/28/2008 12:50:45 PM 	5 ft			0.1 mi	0:01:59	4 mph	136 true
	N25 41.418 W81 21.246	3/28/2008 12:52:50 PM 	10 ft			0.1 mi	0:02:05	3 mph	130 true
	N25 41.352 W81 21.163	3/28/2008 12:54:42 PM 	10 ft			0.1 mi	0:01:52	4 mph	132 true
	N25 41.286 W81 21.078	3/28/2008 12:56:27 PM 	11 ft			0.1 mi	0:01:45	4 mph	131 true
	N25 41.222 W81 20.992	3/28/2008 12:58:00 PM 	11 ft			0.1 mi	0:01:33	5 mph	130 true
	N25 41.157 W81 20.906	3/28/2008 12:59:26 PM 	10 ft			0.1 mi	0:01:26	5 mph	130 true
	N25 41.093 W81 20.819	3/28/2008 1:00:51 PM 	13 ft			0.1 mi	0:01:25	5 mph	129 true
	N25 41.029 W81 20.734	3/28/2008 1:02:15 PM 	15 ft			0.1 mi	0:01:24	5 mph	130 true
	N25 40.963 W81 20.649	3/28/2008 1:03:40 PM 	10 ft			0.1 mi	0:01:25	5 mph	131 true
	N25 40.894 W81 20.568	3/28/2008 1:05:06 PM 	11 ft			0.1 mi	0:01:26	5 mph	133 true
	N25 40.827 W81 20.485	3/28/2008 1:06:33 PM 	15 ft			0.1 mi	0:01:27	5 mph	131 true
	N25 40.763 W81 20.400	3/28/2008 1:08:02 PM 	15 ft			0.1 mi	0:01:29	5 mph	130 true
	N25 40.695 W81 20.318	3/28/2008 1:09:32 PM 	13 ft			0.1 mi	0:01:30	5 mph	132 true
	N25 40.629 W81 20.234	3/28/2008 1:11:07 PM 	11 ft			0.1 mi	0:01:35	4 mph	131 true
	N25 40.563 W81 20.150	3/28/2008 1:12:46 PM 	13 ft			0.1 mi	0:01:39	4 mph	131 true
	N25 40.496 W81 20.067	3/28/2008 1:14:23 PM 	10 ft			0.1 mi	0:01:37	4 mph	132 true
	N25 40.429 W81 19.983	3/28/2008 1:15:55 PM 	10 ft			0.1 mi	0:01:32	5 mph	132 true
	N25 40.359 W81 19.903	3/28/2008 1:17:23 PM 	5 ft			0.1 mi	0:01:28	5 mph	134 true
	N25 40.288 W81 19.824	3/28/2008 1:18:48 PM 	10 ft			0.1 mi	0:01:25	5 mph	135 true
	N25 40.218 W81 19.743	3/28/2008 1:20:13 PM 	16 ft			0.1 mi	0:01:25	5 mph	134 true
	N25 40.148 W81 19.662	3/28/2008 1:21:38 PM 	16 ft			0.1 mi	0:01:25	5 mph	133 true
	N25 40.078 W81 19.581	3/28/2008 1:22:59 PM 	13 ft			0.1 mi	0:01:21	5 mph	133 true
	N25 40.008 W81 19.501	3/28/2008 1:24:17 PM 	15 ft			0.1 mi	0:01:18	5 mph	134 true
	N25 39.939 W81 19.422	3/28/2008 1:25:35 PM 	13 ft			0.1 mi	0:01:18	5 mph	134 true
	N25 39.868 W81 19.343	3/28/2008 1:26:53 PM 	15 ft			0.1 mi	0:01:18	5 mph	135 true
	N25 39.797 W81 19.265	3/28/2008 1:28:09 PM 	13 ft			0.1 mi	0:01:16	5 mph	135 true
	N25 39.725 W81 19.186	3/28/2008 1:29:27 PM 	10 ft			0.1 mi	0:01:18	5 mph	135 true
	N25 39.655 W81 19.106	3/28/2008 1:30:46 PM 	16 ft			0.1 mi	0:01:19	5 mph	134 true
	N25 39.584 W81 19.028	3/28/2008 1:32:09 PM 	19 ft			0.1 mi	0:01:23	5 mph	135 true
	N25 39.510 W81 18.952	3/28/2008 1:33:32 PM 	16 ft			0.1 mi	0:01:23	5 mph	137 true
	N25 39.419 W81 18.912	3/28/2008 1:35:36 PM 	10 ft			0.1 mi	0:02:04	3 mph	158 true
	N25 39.353 W81 18.828	3/28/2008 1:37:08 PM 	13 ft			0.1 mi	0:01:32	5 mph	131 true
	N25 39.281 W81 18.751	3/28/2008 1:38:41 PM 	18 ft			0.1 mi	0:01:33	4 mph	136 true
	N25 39.209 W81 18.674	3/28/2008 1:40:17 PM 	18 ft			0.1 mi	0:01:36	4 mph	136 true
	N25 39.138 W81 18.595	3/28/2008 1:41:55 PM 	18 ft			0.1 mi	0:01:38	4 mph	135 true
	N25 39.067 W81 18.517	3/28/2008 1:43:34 PM 	11 ft			0.1 mi	0:01:39	4 mph	135 true
	N25 38.995 W81 18.438	3/28/2008 1:45:10 PM 	13 ft			0.1 mi	0:01:36	4 mph	135 true
	N25 38.922 W81 18.362	3/28/2008 1:46:52 PM 	15 ft			0.1 mi	0:01:42	4 mph	137 true
	N25 38.848 W81 18.286	3/28/2008 1:48:36 PM 	16 ft			0.1 mi	0:01:44	4 mph	137 true
	N25 38.776 W81 18.210	3/28/2008 1:50:33 PM 	16 ft			0.1 mi	0:01:57	4 mph	136 true
	N25 38.705 W81 18.132	3/28/2008 1:52:47 PM 	8 ft			0.1 mi	0:02:14	3 mph	135 true
	N25 38.634 W81 18.052	3/28/2008 1:55:04 PM 	13 ft			0.1 mi	0:02:17	3 mph	134 true
	N25 38.560 W81 17.977	3/28/2008 1:56:58 PM 	16 ft			0.1 mi	0:01:54	4 mph	138 true
	N25 38.485 W81 17.903	3/28/2008 1:58:43 PM 	5 ft			0.1 mi	0:01:45	4 mph	138 true
	N25 38.409 W81 17.830	3/28/2008 2:00:23 PM 	10 ft			0.1 mi	0:01:40	4 mph	139 true
	N25 38.329 W81 17.764	3/28/2008 2:01:57 PM 	13 ft			0.1 mi	0:01:34	4 mph	143 true
	N25 38.251 W81 17.695	3/28/2008 2:03:30 PM 	13 ft			0.1 mi	0:01:33	4 mph	141 true
	N25 38.175 W81 17.620	3/28/2008 2:05:07 PM 	16 ft			0.1 mi	0:01:37	4 mph	138 true
	N25 38.094 W81 17.555	3/28/2008 2:06:34 PM 	19 ft			0.1 mi	0:01:27	5 mph	144 true
	N25 38.014 W81 17.487	3/28/2008 2:08:02 PM 	13 ft			0.1 mi	0:01:28	5 mph	142 true
	N25 37.934 W81 17.421	3/28/2008 2:09:32 PM 	15 ft			0.1 mi	0:01:30	5 mph	144 true
	N25 37.851 W81 17.357	3/28/2008 2:11:00 PM 	19 ft			0.1 mi	0:01:28	5 mph	145 true
	N25 37.770 W81 17.291	3/28/2008 2:12:25 PM 	19 ft			0.1 mi	0:01:25	5 mph	144 true
	N25 37.690 W81 17.223	3/28/2008 2:13:52 PM 	23 ft			0.1 mi	0:01:27	5 mph	143 true
	N25 37.611 W81 17.155	3/28/2008 2:15:19 PM 	19 ft			0.1 mi	0:01:27	5 mph	142 true
	N25 37.538 W81 17.078	3/28/2008 2:16:53 PM 	10 ft			0.1 mi	0:01:34	4 mph	136 true
	N25 37.463 W81 17.004	3/28/2008 2:18:23 PM 	5 ft			0.1 mi	0:01:30	5 mph	139 true
	N25 37.384 W81 16.935	3/28/2008 2:19:44 PM 	0 ft			0.1 mi	0:01:21	5 mph	142 true
	N25 37.302 W81 16.870	3/28/2008 2:21:05 PM 	4 ft			0.1 mi	0:01:21	5 mph	144 true
	N25 37.223 W81 16.801	3/28/2008 2:22:26 PM 	7 ft			0.1 mi	0:01:21	5 mph	142 true
	N25 37.145 W81 16.731	3/28/2008 2:23:47 PM 	13 ft			0.1 mi	0:01:21	5 mph	141 true
	N25 37.064 W81 16.663	3/28/2008 2:25:08 PM 	18 ft			0.1 mi	0:01:21	5 mph	143 true
	N25 36.988 W81 16.590	3/28/2008 2:26:30 PM 	7 ft			0.1 mi	0:01:22	5 mph	139 true
	N25 36.904 W81 16.526	3/28/2008 2:27:47 PM 	15 ft			0.1 mi	0:01:17	5 mph	145 true
	N25 36.823 W81 16.460	3/28/2008 2:29:01 PM 	16 ft			0.1 mi	0:01:14	6 mph	144 true
	N25 36.741 W81 16.395	3/28/2008 2:30:12 PM 	10 ft			0.1 mi	0:01:11	6 mph	144 true
	N25 36.658 W81 16.332	3/28/2008 2:31:23 PM 	8 ft			0.1 mi	0:01:11	6 mph	145 true
	N25 36.572 W81 16.274	3/28/2008 2:32:34 PM 	7 ft			0.1 mi	0:01:11	6 mph	149 true
	N25 36.485 W81 16.216	3/28/2008 2:33:45 PM 	4 ft			0.1 mi	0:01:11	6 mph	149 true
	N25 36.402 W81 16.155	3/28/2008 2:35:00 PM 	-3 ft			0.1 mi	0:01:15	6 mph	146 true
	N25 36.322 W81 16.087	3/28/2008 2:36:11 PM 	-1 ft			0.1 mi	0:01:11	6 mph	142 true
	N25 36.239 W81 16.024	3/28/2008 2:37:20 PM 	2 ft			0.1 mi	0:01:09	6 mph	146 true
	N25 36.156 W81 15.961	3/28/2008 2:38:31 PM 	5 ft			0.1 mi	0:01:11	6 mph	145 true
	N25 36.072 W81 15.901	3/28/2008 2:39:42 PM 	4 ft			0.1 mi	0:01:11	6 mph	147 true
	N25 35.991 W81 15.835	3/28/2008 2:40:57 PM 	16 ft			0.1 mi	0:01:15	6 mph	144 true
	N25 35.906 W81 15.773	3/28/2008 2:42:14 PM 	19 ft			0.1 mi	0:01:17	5 mph	147 true
	N25 35.822 W81 15.712	3/28/2008 2:43:31 PM 	16 ft			0.1 mi	0:01:17	5 mph	147 true
	N25 35.739 W81 15.649	3/28/2008 2:44:51 PM 	16 ft			0.1 mi	0:01:20	5 mph	146 true
	N25 35.662 W81 15.578	3/28/2008 2:46:11 PM 	10 ft			0.1 mi	0:01:20	5 mph	140 true
	N25 35.579 W81 15.517	3/28/2008 2:47:28 PM 	10 ft			0.1 mi	0:01:17	5 mph	146 true
	N25 35.494 W81 15.456	3/28/2008 2:48:44 PM 	10 ft			0.1 mi	0:01:16	5 mph	147 true
	N25 35.408 W81 15.400	3/28/2008 2:50:01 PM 	10 ft			0.1 mi	0:01:17	5 mph	150 true
	N25 35.319 W81 15.346	3/28/2008 2:51:17 PM 	8 ft			0.1 mi	0:01:16	6 mph	151 true
	N25 35.234 W81 15.287	3/28/2008 2:52:33 PM 	10 ft			0.1 mi	0:01:16	5 mph	148 true
	N25 35.149 W81 15.228	3/28/2008 2:53:51 PM 	7 ft			0.1 mi	0:01:18	5 mph	148 true
	N25 35.062 W81 15.173	3/28/2008 2:55:11 PM 	8 ft			0.1 mi	0:01:20	5 mph	150 true
	N25 34.976 W81 15.116	3/28/2008 2:56:29 PM 	8 ft			0.1 mi	0:01:18	5 mph	149 true
	N25 34.889 W81 15.061	3/28/2008 2:57:46 PM 	5 ft			0.1 mi	0:01:17	5 mph	150 true
	N25 34.811 W81 14.999	3/28/2008 2:59:00 PM 	-4 ft			0.1 mi	0:01:14	5 mph	145 true
	N25 34.727 W81 14.936	3/28/2008 3:00:19 PM 	4 ft			0.1 mi	0:01:19	5 mph	146 true
	N25 34.639 W81 14.880	3/28/2008 3:01:35 PM 	5 ft			0.1 mi	0:01:16	6 mph	150 true
	N25 34.551 W81 14.828	3/28/2008 3:02:49 PM 	5 ft			0.1 mi	0:01:14	6 mph	152 true
	N25 34.464 W81 14.772	3/28/2008 3:04:06 PM 	8 ft			0.1 mi	0:01:17	5 mph	150 true
	N25 34.377 W81 14.716	3/28/2008 3:05:23 PM 	8 ft			0.1 mi	0:01:17	5 mph	150 true
	N25 34.288 W81 14.665	3/28/2008 3:06:41 PM 	7 ft			0.1 mi	0:01:18	5 mph	152 true
	N25 34.199 W81 14.612	3/28/2008 3:08:00 PM 	10 ft			0.1 mi	0:01:19	5 mph	152 true
	N25 34.111 W81 14.559	3/28/2008 3:09:23 PM 	7 ft			0.1 mi	0:01:23	5 mph	151 true
	N25 34.024 W81 14.503	3/28/2008 3:10:47 PM 	8 ft			0.1 mi	0:01:24	5 mph	150 true
	N25 33.936 W81 14.450	3/28/2008 3:12:13 PM 	4 ft			0.1 mi	0:01:26	5 mph	152 true
	N25 33.846 W81 14.400	3/28/2008 3:13:46 PM 	0 ft			0.1 mi	0:01:33	4 mph	154 true
	N25 33.760 W81 14.344	3/28/2008 3:15:10 PM 	5 ft			0.1 mi	0:01:24	5 mph	149 true
	N25 33.669 W81 14.297	3/28/2008 3:16:39 PM 	5 ft			0.1 mi	0:01:29	5 mph	155 true
	N25 33.580 W81 14.246	3/28/2008 3:18:05 PM 	-1 ft			0.1 mi	0:01:26	5 mph	153 true
	N25 33.490 W81 14.194	3/28/2008 3:19:26 PM 	-1 ft			0.1 mi	0:01:21	5 mph	152 true
	N25 33.402 W81 14.141	3/28/2008 3:20:50 PM 	0 ft			0.1 mi	0:01:24	5 mph	151 true
	N25 33.313 W81 14.092	3/28/2008 3:22:14 PM 	5 ft			0.1 mi	0:01:24	5 mph	154 true
	N25 33.220 W81 14.051	3/28/2008 3:23:45 PM 	4 ft			0.1 mi	0:01:31	5 mph	158 true
	N25 33.130 W81 14.002	3/28/2008 3:25:11 PM 	5 ft			0.1 mi	0:01:26	5 mph	154 true
	N25 33.039 W81 13.954	3/28/2008 3:26:44 PM 	8 ft			0.1 mi	0:01:33	4 mph	155 true
	N25 32.949 W81 13.903	3/28/2008 3:28:13 PM 	5 ft			0.1 mi	0:01:29	5 mph	153 true
	N25 32.860 W81 13.851	3/28/2008 3:29:45 PM 	8 ft			0.1 mi	0:01:32	5 mph	152 true
	N25 32.773 W81 13.796	3/28/2008 3:31:16 PM 	10 ft			0.1 mi	0:01:31	5 mph	150 true
	N25 32.686 W81 13.740	3/28/2008 3:32:45 PM 	10 ft			0.1 mi	0:01:29	5 mph	150 true
	N25 32.599 W81 13.685	3/28/2008 3:34:08 PM 	13 ft			0.1 mi	0:01:23	5 mph	150 true
	N25 32.508 W81 13.637	3/28/2008 3:35:33 PM 	15 ft			0.1 mi	0:01:25	5 mph	154 true
	N25 32.418 W81 13.588	3/28/2008 3:37:00 PM 	15 ft			0.1 mi	0:01:27	5 mph	154 true
	N25 32.328 W81 13.540	3/28/2008 3:38:25 PM 	15 ft			0.1 mi	0:01:25	5 mph	154 true
	N25 32.237 W81 13.497	3/28/2008 3:39:46 PM 	5 ft			0.1 mi	0:01:21	5 mph	157 true
	N25 32.145 W81 13.452	3/28/2008 3:41:11 PM 	10 ft			0.1 mi	0:01:25	5 mph	156 true
	N25 32.052 W81 13.409	3/28/2008 3:42:27 PM 	11 ft			0.1 mi	0:01:16	6 mph	157 true
	N25 31.961 W81 13.363	3/28/2008 3:43:44 PM 	11 ft			0.1 mi	0:01:17	5 mph	156 true
	N25 31.868 W81 13.318	3/28/2008 3:45:04 PM 	8 ft			0.1 mi	0:01:20	5 mph	156 true
	N25 31.775 W81 13.277	3/28/2008 3:46:34 PM 	8 ft			0.1 mi	0:01:30	5 mph	158 true
	N25 31.687 W81 13.224	3/28/2008 3:47:59 PM 	10 ft			0.1 mi	0:01:25	5 mph	152 true
	N25 31.599 W81 13.171	3/28/2008 3:49:28 PM 	13 ft			0.1 mi	0:01:29	5 mph	151 true
	N25 31.550 W81 13.115	3/28/2008 3:53:18 PM 	13 ft			427 ft	0:03:50	1.3 mph	135 true
	N25 31.475 W81 13.065	3/28/2008 3:56:01 PM 	11 ft			0.1 mi	0:02:43	2 mph	149 true
	N25 31.379 W81 13.027	3/28/2008 3:57:40 PM 	13 ft			0.1 mi	0:01:39	4 mph	160 true
	N25 31.285 W81 12.993	3/28/2008 3:59:31 PM 	13 ft			0.1 mi	0:01:51	4 mph	162 true
	N25 31.189 W81 12.956	3/28/2008 4:01:08 PM 	15 ft			0.1 mi	0:01:37	4 mph	161 true
	N25 31.091 W81 12.930	3/28/2008 4:02:48 PM 	13 ft			0.1 mi	0:01:40	4 mph	166 true
	N25 30.995 W81 12.900	3/28/2008 4:04:29 PM 	16 ft			0.1 mi	0:01:41	4 mph	164 true
	N25 30.898 W81 12.868	3/28/2008 4:06:17 PM 	21 ft			0.1 mi	0:01:48	4 mph	164 true
	N25 30.801 W81 12.838	3/28/2008 4:08:08 PM 	18 ft			0.1 mi	0:01:51	4 mph	164 true
	N25 30.707 W81 12.801	3/28/2008 4:09:47 PM 	23 ft			0.1 mi	0:01:39	4 mph	160 true
	N25 30.612 W81 12.761	3/28/2008 4:11:27 PM 	18 ft			0.1 mi	0:01:40	4 mph	159 true
	N25 30.519 W81 12.721	3/28/2008 4:13:17 PM 	29 ft			0.1 mi	0:01:50	4 mph	159 true
	N25 30.433 W81 12.666	3/28/2008 4:15:01 PM 	29 ft			0.1 mi	0:01:44	4 mph	150 true
	N25 30.347 W81 12.608	3/28/2008 4:16:46 PM 	13 ft			0.1 mi	0:01:45	4 mph	149 true
	N25 30.271 W81 12.536	3/28/2008 4:18:23 PM 	15 ft			0.1 mi	0:01:37	4 mph	139 true
	N25 30.192 W81 12.472	3/28/2008 4:20:12 PM 	13 ft			0.1 mi	0:01:49	4 mph	144 true
	N25 30.118 W81 12.397	3/28/2008 4:21:56 PM 	10 ft			0.1 mi	0:01:44	4 mph	137 true
	N25 30.035 W81 12.337	3/28/2008 4:23:54 PM 	5 ft			0.1 mi	0:01:58	4 mph	147 true
	N25 29.953 W81 12.272	3/28/2008 4:25:43 PM 	13 ft			0.1 mi	0:01:49	4 mph	145 true
	N25 29.874 W81 12.205	3/28/2008 4:27:33 PM 	15 ft			0.1 mi	0:01:50	4 mph	143 true
	N25 29.791 W81 12.141	3/28/2008 4:29:27 PM 	19 ft			0.1 mi	0:01:54	4 mph	145 true
	N25 29.707 W81 12.081	3/28/2008 4:31:24 PM 	16 ft			0.1 mi	0:01:57	4 mph	147 true
	N25 29.627 W81 12.015	3/28/2008 4:33:21 PM 	11 ft			0.1 mi	0:01:57	4 mph	144 true
	N25 29.548 W81 11.948	3/28/2008 4:35:29 PM 	11 ft			0.1 mi	0:02:08	3 mph	143 true
	N25 29.467 W81 11.883	3/28/2008 4:37:39 PM 	11 ft			0.1 mi	0:02:10	3 mph	144 true
	N25 29.386 W81 11.815	3/28/2008 4:39:31 PM 	13 ft			0.1 mi	0:01:52	4 mph	143 true
	N25 29.306 W81 11.749	3/28/2008 4:41:23 PM 	16 ft			0.1 mi	0:01:52	4 mph	143 true
	N25 29.228 W81 11.679	3/28/2008 4:43:07 PM 	16 ft			0.1 mi	0:01:44	4 mph	141 true
	N25 29.149 W81 11.611	3/28/2008 4:44:56 PM 	21 ft			0.1 mi	0:01:49	4 mph	142 true
	N25 29.070 W81 11.544	3/28/2008 4:46:44 PM 	18 ft			0.1 mi	0:01:48	4 mph	143 true
	N25 28.991 W81 11.475	3/28/2008 4:48:34 PM 	21 ft			0.1 mi	0:01:50	4 mph	142 true
	N25 28.912 W81 11.408	3/28/2008 4:50:54 PM 	8 ft			0.1 mi	0:02:20	3 mph	143 true
	N25 28.834 W81 11.337	3/28/2008 4:52:42 PM 	15 ft			0.1 mi	0:01:48	4 mph	140 true
	N25 28.769 W81 11.253	3/28/2008 4:54:18 PM 	10 ft			0.1 mi	0:01:36	4 mph	131 true
	N25 28.706 W81 11.166	3/28/2008 4:55:55 PM 	11 ft			0.1 mi	0:01:37	4 mph	129 true
	N25 28.646 W81 11.077	3/28/2008 4:57:32 PM 	8 ft			0.1 mi	0:01:37	4 mph	126 true
	N25 28.585 W81 10.988	3/28/2008 4:59:05 PM 	7 ft			0.1 mi	0:01:33	5 mph	127 true
	N25 28.532 W81 10.892	3/28/2008 5:00:33 PM 	7 ft			0.1 mi	0:01:28	5 mph	121 true
	N25 28.540 W81 10.676	3/28/2008 5:07:27 PM 	4 ft			0.2 mi	0:06:54	2 mph	88 true
	N25 28.507 W81 10.763	3/28/2008 5:20:35 PM 	-18 ft			521 ft	0:13:08	0.5 mph	247 true
	N25 28.582 W81 10.952	3/28/2008 5:27:40 PM 	-20 ft			0.2 mi	0:07:05	2 mph	294 true
	N25 28.635 W81 11.046	3/28/2008 5:29:37 PM 	-15 ft			0.1 mi	0:01:57	4 mph	302 true
	N25 28.630 W81 11.006	3/28/2008 5:51:41 PM 	15 ft			218 ft	0:22:04	0.1 mph	97 true
	N25 28.553 W81 11.045	3/30/2008 10:38:20 AM 	16 ft			501 ft	0:15:55	0.4 mph	204 true
	N25 28.455 W81 11.029	3/30/2008 10:40:09 AM 	19 ft			0.1 mi	0:01:49	4 mph	172 true
	N25 28.359 W81 11.010	3/30/2008 10:41:54 AM 	11 ft			0.1 mi	0:01:45	4 mph	170 true
	N25 28.260 W81 11.011	3/30/2008 10:44:09 AM 	10 ft			0.1 mi	0:02:15	3 mph	181 true
	N25 28.159 W81 11.001	3/30/2008 10:46:11 AM 	10 ft			0.1 mi	0:02:02	3 mph	175 true
	N25 28.061 W81 10.976	3/30/2008 10:47:36 AM 	10 ft			0.1 mi	0:01:25	5 mph	167 true
	N25 27.963 W81 10.946	3/30/2008 10:49:06 AM 	10 ft			0.1 mi	0:01:30	5 mph	165 true
	N25 27.865 W81 10.921	3/30/2008 10:50:35 AM 	13 ft			0.1 mi	0:01:29	5 mph	167 true
	N25 27.779 W81 10.865	3/30/2008 10:52:01 AM 	16 ft			0.1 mi	0:01:26	5 mph	150 true
	N25 27.682 W81 10.837	3/30/2008 10:53:26 AM 	11 ft			0.1 mi	0:01:25	5 mph	165 true
	N25 27.583 W81 10.813	3/30/2008 10:55:23 AM 	8 ft			0.1 mi	0:01:57	4 mph	168 true
	N25 27.485 W81 10.790	3/30/2008 10:56:57 AM 	13 ft			0.1 mi	0:01:34	4 mph	168 true
	N25 27.387 W81 10.769	3/30/2008 10:58:38 AM 	11 ft			0.1 mi	0:01:41	4 mph	169 true
	N25 27.289 W81 10.744	3/30/2008 11:00:15 AM 	19 ft			0.1 mi	0:01:37	4 mph	167 true
	N25 27.192 W81 10.713	3/30/2008 11:01:53 AM 	19 ft			0.1 mi	0:01:38	4 mph	164 true
	N25 27.093 W81 10.697	3/30/2008 11:03:35 AM 	11 ft			0.1 mi	0:01:42	4 mph	172 true
	N25 26.994 W81 10.678	3/30/2008 11:05:17 AM 	13 ft			0.1 mi	0:01:42	4 mph	170 true
	N25 26.895 W81 10.657	3/30/2008 11:07:04 AM 	8 ft			0.1 mi	0:01:47	4 mph	169 true
	N25 26.798 W81 10.628	3/30/2008 11:08:35 AM 	8 ft			0.1 mi	0:01:31	5 mph	165 true
	N25 26.701 W81 10.599	3/30/2008 11:10:56 AM 	13 ft			0.1 mi	0:02:21	3 mph	165 true
	N25 26.602 W81 10.579	3/30/2008 11:12:51 AM 	13 ft			0.1 mi	0:01:55	4 mph	170 true
	N25 26.504 W81 10.555	3/30/2008 11:14:34 AM 	13 ft			0.1 mi	0:01:43	4 mph	167 true
	N25 26.408 W81 10.524	3/30/2008 11:16:05 AM 	8 ft			0.1 mi	0:01:31	5 mph	164 true
	N25 26.311 W81 10.495	3/30/2008 11:17:46 AM 	7 ft			0.1 mi	0:01:41	4 mph	165 true
	N25 26.216 W81 10.457	3/30/2008 11:19:12 AM 	10 ft			0.1 mi	0:01:26	5 mph	160 true
	N25 26.120 W81 10.426	3/30/2008 11:20:40 AM 	11 ft			0.1 mi	0:01:28	5 mph	164 true
	N25 26.021 W81 10.404	3/30/2008 11:23:15 AM 	7 ft			0.1 mi	0:02:35	3 mph	169 true
	N25 25.925 W81 10.375	3/30/2008 11:24:57 AM 	16 ft			0.1 mi	0:01:42	4 mph	165 true
	N25 25.828 W81 10.342	3/30/2008 11:26:19 AM 	8 ft			0.1 mi	0:01:22	5 mph	163 true
	N25 25.730 W81 10.321	3/30/2008 11:28:18 AM 	10 ft			0.1 mi	0:01:59	4 mph	169 true
	N25 25.633 W81 10.297	3/30/2008 11:31:36 AM 	19 ft			0.1 mi	0:03:18	2 mph	168 true
	N25 25.535 W81 10.274	3/30/2008 11:34:27 AM 	2 ft			0.1 mi	0:02:51	2 mph	168 true
	N25 25.437 W81 10.247	3/30/2008 11:36:52 AM 	8 ft			0.1 mi	0:02:25	3 mph	166 true
	N25 25.342 W81 10.214	3/30/2008 11:38:32 AM 	10 ft			0.1 mi	0:01:40	4 mph	162 true
	N25 25.244 W81 10.186	3/30/2008 11:40:38 AM 	13 ft			0.1 mi	0:02:06	3 mph	165 true
	N25 25.147 W81 10.159	3/30/2008 11:43:01 AM 	10 ft			0.1 mi	0:02:23	3 mph	166 true
	N25 25.046 W81 10.162	3/30/2008 11:46:50 AM 	11 ft			0.1 mi	0:03:49	2 mph	181 true
	N25 24.946 W81 10.166	3/30/2008 11:50:23 AM 	4 ft			0.1 mi	0:03:33	2 mph	182 true
	N25 24.846 W81 10.176	3/30/2008 11:52:37 AM 	-4 ft			0.1 mi	0:02:14	3 mph	185 true
	N25 24.747 W81 10.191	3/30/2008 11:55:31 AM 	-4 ft			0.1 mi	0:02:54	2 mph	188 true
	N25 24.647 W81 10.200	3/30/2008 11:58:44 AM 	4 ft			0.1 mi	0:03:13	2 mph	185 true
	N25 24.548 W81 10.217	3/30/2008 12:01:28 PM 	4 ft			0.1 mi	0:02:44	3 mph	188 true
	N25 24.449 W81 10.233	3/30/2008 12:05:30 PM 	4 ft			0.1 mi	0:04:02	2 mph	189 true
	N25 24.348 W81 10.235	3/30/2008 12:08:43 PM 	5 ft			0.1 mi	0:03:13	2 mph	181 true
	N25 24.249 W81 10.246	3/30/2008 12:11:33 PM 	4 ft			0.1 mi	0:02:50	2 mph	186 true
	N25 24.149 W81 10.251	3/30/2008 12:14:18 PM 	8 ft			0.1 mi	0:02:45	3 mph	183 true
	N25 24.048 W81 10.251	3/30/2008 12:17:09 PM 	-7 ft			0.1 mi	0:02:51	2 mph	180 true
	N25 23.948 W81 10.257	3/30/2008 12:20:02 PM 	2 ft			0.1 mi	0:02:53	2 mph	184 true
	N25 23.848 W81 10.257	3/30/2008 12:22:48 PM 	0 ft			0.1 mi	0:02:46	3 mph	180 true
	N25 23.747 W81 10.257	3/30/2008 12:25:34 PM 	5 ft			0.1 mi	0:02:46	3 mph	180 true
	N25 23.647 W81 10.255	3/30/2008 12:28:16 PM 	4 ft			0.1 mi	0:02:42	3 mph	179 true
	N25 23.547 W81 10.252	3/30/2008 12:31:02 PM 	5 ft			0.1 mi	0:02:46	3 mph	178 true
	N25 23.446 W81 10.246	3/30/2008 12:33:35 PM 	4 ft			0.1 mi	0:02:33	3 mph	177 true
	N25 23.345 W81 10.248	3/30/2008 12:36:03 PM 	4 ft			0.1 mi	0:02:28	3 mph	181 true
	N25 23.245 W81 10.251	3/30/2008 12:38:32 PM 	-3 ft			0.1 mi	0:02:29	3 mph	181 true
	N25 23.145 W81 10.250	3/30/2008 12:41:53 PM 	-4 ft			0.1 mi	0:03:21	2 mph	180 true
	N25 23.044 W81 10.254	3/30/2008 12:44:43 PM 	0 ft			0.1 mi	0:02:50	2 mph	182 true
	N25 22.944 W81 10.251	3/30/2008 12:47:32 PM 	2 ft			0.1 mi	0:02:49	2 mph	179 true
	N25 22.844 W81 10.256	3/30/2008 12:49:49 PM 	2 ft			0.1 mi	0:02:17	3 mph	183 true
	N25 22.743 W81 10.259	3/30/2008 12:51:42 PM 	4 ft			0.1 mi	0:01:53	4 mph	182 true
	N25 22.642 W81 10.261	3/30/2008 12:53:38 PM 	0 ft			0.1 mi	0:01:56	4 mph	181 true
	N25 22.541 W81 10.268	3/30/2008 12:55:33 PM 	4 ft			0.1 mi	0:01:55	4 mph	184 true
	N25 22.441 W81 10.277	3/30/2008 12:57:51 PM 	2 ft			0.1 mi	0:02:18	3 mph	185 true
	N25 22.341 W81 10.284	3/30/2008 12:59:57 PM 	2 ft			0.1 mi	0:02:06	3 mph	183 true
	N25 22.240 W81 10.290	3/30/2008 1:02:01 PM 	0 ft			0.1 mi	0:02:04	3 mph	183 true
	N25 22.140 W81 10.297	3/30/2008 1:04:17 PM 	0 ft			0.1 mi	0:02:16	3 mph	184 true
	N25 22.039 W81 10.303	3/30/2008 1:06:05 PM 	4 ft			0.1 mi	0:01:48	4 mph	183 true
	N25 21.939 W81 10.309	3/30/2008 1:07:48 PM 	5 ft			0.1 mi	0:01:43	4 mph	183 true
	N25 21.837 W81 10.309	3/30/2008 1:09:24 PM 	8 ft			0.1 mi	0:01:36	4 mph	180 true
	N25 21.736 W81 10.312	3/30/2008 1:10:58 PM 	10 ft			0.1 mi	0:01:34	4 mph	181 true
	N25 21.636 W81 10.323	3/30/2008 1:12:39 PM 	4 ft			0.1 mi	0:01:41	4 mph	186 true
	N25 21.535 W81 10.331	3/30/2008 1:14:24 PM 	7 ft			0.1 mi	0:01:45	4 mph	184 true
	N25 21.435 W81 10.332	3/30/2008 1:16:07 PM 	5 ft			0.1 mi	0:01:43	4 mph	181 true
	N25 21.334 W81 10.340	3/30/2008 1:18:12 PM 	2 ft			0.1 mi	0:02:05	3 mph	184 true
	N25 21.237 W81 10.348	3/30/2008 1:20:16 PM 	2 ft			0.1 mi	0:02:04	3 mph	184 true
	N25 21.136 W81 10.356	3/30/2008 1:21:54 PM 	8 ft			0.1 mi	0:01:38	4 mph	184 true
	N25 21.035 W81 10.364	3/30/2008 1:23:20 PM 	7 ft			0.1 mi	0:01:26	5 mph	184 true
	N25 20.933 W81 10.370	3/30/2008 1:24:43 PM 	5 ft			0.1 mi	0:01:23	5 mph	183 true
	N25 20.832 W81 10.374	3/30/2008 1:26:08 PM 	5 ft			0.1 mi	0:01:25	5 mph	182 true
	N25 20.731 W81 10.377	3/30/2008 1:27:33 PM 	8 ft			0.1 mi	0:01:25	5 mph	182 true
	N25 20.630 W81 10.377	3/30/2008 1:28:57 PM 	10 ft			0.1 mi	0:01:24	5 mph	180 true
	N25 20.531 W81 10.368	3/30/2008 1:30:27 PM 	7 ft			0.1 mi	0:01:30	5 mph	175 true
	N25 20.430 W81 10.364	3/30/2008 1:31:58 PM 	7 ft			0.1 mi	0:01:31	5 mph	178 true
	N25 20.329 W81 10.365	3/30/2008 1:33:38 PM 	7 ft			0.1 mi	0:01:40	4 mph	180 true
	N25 20.228 W81 10.365	3/30/2008 1:35:10 PM 	5 ft			0.1 mi	0:01:32	5 mph	180 true
	N25 20.128 W81 10.361	3/30/2008 1:36:46 PM 	4 ft			0.1 mi	0:01:36	4 mph	178 true
	N25 20.027 W81 10.366	3/30/2008 1:38:16 PM 	4 ft			0.1 mi	0:01:30	5 mph	182 true
	N25 19.928 W81 10.383	3/30/2008 1:39:38 PM 	7 ft			0.1 mi	0:01:22	5 mph	189 true
	N25 19.831 W81 10.413	3/30/2008 1:41:01 PM 	-1 ft			0.1 mi	0:01:23	5 mph	196 true
	N25 19.732 W81 10.434	3/30/2008 1:42:35 PM 	2 ft			0.1 mi	0:01:34	4 mph	191 true
	N25 19.633 W81 10.456	3/30/2008 1:44:12 PM 	5 ft			0.1 mi	0:01:37	4 mph	191 true
	N25 19.536 W81 10.486	3/30/2008 1:45:52 PM 	8 ft			0.1 mi	0:01:40	4 mph	196 true
	N25 19.437 W81 10.498	3/30/2008 1:47:23 PM 	4 ft			0.1 mi	0:01:31	5 mph	187 true
	N25 19.339 W81 10.524	3/30/2008 1:49:05 PM 	5 ft			0.1 mi	0:01:42	4 mph	193 true
	N25 19.251 W81 10.528	3/30/2008 1:52:05 PM 	2 ft			0.1 mi	0:03:00	2 mph	182 true
	N25 19.194 W81 10.436	3/30/2008 1:57:13 PM 	21 ft			0.1 mi	0:05:08	1.4 mph	124 true
	N25 19.095 W81 10.449	3/30/2008 1:59:04 PM 	-3 ft			0.1 mi	0:01:51	4 mph	186 true
	N25 18.996 W81 10.469	3/30/2008 2:00:38 PM 	5 ft			0.1 mi	0:01:34	4 mph	190 true
	N25 18.897 W81 10.490	3/30/2008 2:02:26 PM 	8 ft			0.1 mi	0:01:48	4 mph	191 true
	N25 18.798 W81 10.511	3/30/2008 2:04:10 PM 	8 ft			0.1 mi	0:01:44	4 mph	191 true
	N25 18.700 W81 10.536	3/30/2008 2:05:46 PM 	-3 ft			0.1 mi	0:01:36	4 mph	193 true
	N25 18.602 W81 10.561	3/30/2008 2:07:22 PM 	-4 ft			0.1 mi	0:01:36	4 mph	193 true
	N25 18.502 W81 10.571	3/30/2008 2:09:09 PM 	5 ft			0.1 mi	0:01:47	4 mph	185 true
	N25 18.404 W81 10.558	3/30/2008 2:11:15 PM 	5 ft			0.1 mi	0:02:06	3 mph	174 true
	N25 18.311 W81 10.517	3/30/2008 2:13:40 PM 	4 ft			0.1 mi	0:02:25	3 mph	158 true
	N25 18.223 W81 10.466	3/30/2008 2:15:56 PM 	4 ft			0.1 mi	0:02:16	3 mph	152 true
	N25 18.231 W81 10.526	3/30/2008 2:18:59 PM 	-1 ft			331 ft	0:03:03	1.2 mph	279 true
	N25 18.285 W81 10.615	3/30/2008 2:22:14 PM 	2 ft			0.1 mi	0:03:15	2 mph	304 true
	N25 18.238 W81 10.645	3/30/2008 2:24:55 PM 	-3 ft			330 ft	0:02:41	1.4 mph	210 true
	N25 18.138 W81 10.653	3/30/2008 2:26:56 PM 	-1 ft			0.1 mi	0:02:01	3 mph	185 true
	N25 18.044 W81 10.655	3/30/2008 2:31:18 PM 	-6 ft			0.1 mi	0:04:22	1.5 mph	181 true
	N25 17.982 W81 10.737	3/30/2008 2:33:48 PM 	7 ft			0.1 mi	0:02:30	3 mph	230 true
	N25 17.912 W81 10.813	3/30/2008 2:36:15 PM 	8 ft			0.1 mi	0:02:27	3 mph	225 true
	N25 17.836 W81 10.886	3/30/2008 2:38:24 PM 	16 ft			0.1 mi	0:02:09	3 mph	221 true
	N25 17.765 W81 10.959	3/30/2008 2:40:58 PM 	10 ft			0.1 mi	0:02:34	3 mph	223 true
	N25 17.737 W81 11.043	3/30/2008 2:45:33 PM 	15 ft			493 ft	0:04:35	1.2 mph	250 true
	N25 17.696 W81 11.141	3/30/2008 2:48:13 PM 	4 ft			0.1 mi	0:02:40	3 mph	245 true
	N25 17.649 W81 11.239	3/30/2008 2:50:45 PM 	16 ft			0.1 mi	0:02:32	3 mph	242 true
	N25 17.597 W81 11.301	3/30/2008 2:54:14 PM 	-6 ft			466 ft	0:03:29	2 mph	227 true
	N25 17.509 W81 11.279	3/30/2008 2:57:44 PM 	4 ft			0.1 mi	0:03:30	2 mph	167 true
	N25 17.473 W81 11.382	3/30/2008 3:00:12 PM 	8 ft			0.1 mi	0:02:28	3 mph	249 true
	N25 17.483 W81 11.491	3/30/2008 3:03:13 PM 	10 ft			0.1 mi	0:03:01	2 mph	276 true
	N25 17.425 W81 11.511	3/30/2008 3:06:46 PM 	10 ft			372 ft	0:03:33	1.2 mph	197 true
	N25 17.348 W81 11.501	3/30/2008 3:09:27 PM 	10 ft			469 ft	0:02:41	2 mph	174 true
	N25 17.261 W81 11.551	3/30/2008 3:11:33 PM 	7 ft			0.1 mi	0:02:06	3 mph	207 true
	N25 17.166 W81 11.584	3/30/2008 3:13:17 PM 	10 ft			0.1 mi	0:01:44	4 mph	197 true
	N25 17.066 W81 11.589	3/30/2008 3:14:53 PM 	10 ft			0.1 mi	0:01:36	4 mph	183 true
	N25 16.968 W81 11.609	3/30/2008 3:16:23 PM 	8 ft			0.1 mi	0:01:30	5 mph	190 true
	N25 16.871 W81 11.640	3/30/2008 3:17:51 PM 	8 ft			0.1 mi	0:01:28	5 mph	196 true
	N25 16.775 W81 11.663	3/30/2008 3:19:20 PM 	11 ft			0.1 mi	0:01:29	5 mph	192 true
	N25 16.681 W81 11.705	3/30/2008 3:20:47 PM 	8 ft			0.1 mi	0:01:27	5 mph	202 true
	N25 16.581 W81 11.706	3/30/2008 3:22:20 PM 	11 ft			0.1 mi	0:01:33	4 mph	181 true
	N25 16.482 W81 11.704	3/30/2008 3:23:47 PM 	10 ft			0.1 mi	0:01:27	5 mph	179 true
	N25 16.383 W81 11.722	3/30/2008 3:25:06 PM 	8 ft			0.1 mi	0:01:19	5 mph	189 true
	N25 16.286 W81 11.749	3/30/2008 3:26:52 PM 	10 ft			0.1 mi	0:01:46	4 mph	194 true
	N25 16.188 W81 11.747	3/30/2008 3:29:02 PM 	15 ft			0.1 mi	0:02:10	3 mph	179 true
	N25 16.087 W81 11.750	3/30/2008 3:31:29 PM 	15 ft			0.1 mi	0:02:27	3 mph	181 true
	N25 15.987 W81 11.748	3/30/2008 3:33:49 PM 	16 ft			0.1 mi	0:02:20	3 mph	179 true
	N25 15.887 W81 11.744	3/30/2008 3:36:42 PM 	13 ft			0.1 mi	0:02:53	2 mph	178 true
	N25 15.797 W81 11.698	3/30/2008 3:38:38 PM 	10 ft			0.1 mi	0:01:56	4 mph	155 true
	N25 15.710 W81 11.645	3/30/2008 3:40:32 PM 	10 ft			0.1 mi	0:01:54	4 mph	151 true
	N25 15.617 W81 11.606	3/30/2008 3:43:36 PM 	5 ft			0.1 mi	0:03:04	2 mph	159 true
	N25 15.525 W81 11.563	3/30/2008 3:46:10 PM 	4 ft			0.1 mi	0:02:34	3 mph	157 true
	N25 15.433 W81 11.515	3/30/2008 3:48:49 PM 	-1 ft			0.1 mi	0:02:39	3 mph	155 true
	N25 15.345 W81 11.465	3/30/2008 3:51:11 PM 	-1 ft			0.1 mi	0:02:22	3 mph	153 true
	N25 15.253 W81 11.420	3/30/2008 3:54:17 PM 	4 ft			0.1 mi	0:03:06	2 mph	156 true
	N25 15.163 W81 11.370	3/30/2008 3:56:31 PM 	-4 ft			0.1 mi	0:02:14	3 mph	153 true
	N25 15.070 W81 11.325	3/30/2008 3:58:28 PM 	-7 ft			0.1 mi	0:01:57	4 mph	156 true
	N25 14.979 W81 11.278	3/30/2008 4:00:43 PM 	-1 ft			0.1 mi	0:02:15	3 mph	155 true
	N25 14.891 W81 11.226	3/30/2008 4:02:40 PM 	0 ft			0.1 mi	0:01:57	4 mph	152 true
	N25 14.800 W81 11.176	3/30/2008 4:04:27 PM 	2 ft			0.1 mi	0:01:47	4 mph	153 true
	N25 14.709 W81 11.129	3/30/2008 4:06:09 PM 	0 ft			0.1 mi	0:01:42	4 mph	155 true
	N25 14.619 W81 11.080	3/30/2008 4:07:54 PM 	-1 ft			0.1 mi	0:01:45	4 mph	154 true
	N25 14.527 W81 11.034	3/30/2008 4:09:44 PM 	2 ft			0.1 mi	0:01:50	4 mph	155 true
	N25 14.434 W81 10.995	3/30/2008 4:12:58 PM 	8 ft			0.1 mi	0:03:14	2 mph	160 true
	N25 14.336 W81 10.969	3/30/2008 4:16:43 PM 	7 ft			0.1 mi	0:03:45	2 mph	166 true
	N25 14.244 W81 10.927	3/30/2008 4:19:10 PM 	11 ft			0.1 mi	0:02:27	3 mph	158 true
	N25 14.158 W81 10.876	3/30/2008 4:22:05 PM 	8 ft			0.1 mi	0:02:55	2 mph	152 true
	N25 14.086 W81 10.802	3/30/2008 4:25:15 PM 	10 ft			0.1 mi	0:03:10	2 mph	137 true
	N25 14.032 W81 10.710	3/30/2008 4:27:50 PM 	15 ft			0.1 mi	0:02:35	3 mph	123 true
	N25 13.974 W81 10.622	3/30/2008 4:30:30 PM 	16 ft			0.1 mi	0:02:40	3 mph	126 true
	N25 13.889 W81 10.563	3/30/2008 4:32:46 PM 	13 ft			0.1 mi	0:02:16	3 mph	148 true
	N25 13.798 W81 10.518	3/30/2008 4:35:01 PM 	10 ft			0.1 mi	0:02:15	3 mph	156 true
	N25 13.705 W81 10.475	3/30/2008 4:37:11 PM 	2 ft			0.1 mi	0:02:10	3 mph	157 true
	N25 13.612 W81 10.433	3/30/2008 4:39:23 PM 	7 ft			0.1 mi	0:02:12	3 mph	158 true
	N25 13.517 W81 10.403	3/30/2008 4:41:27 PM 	0 ft			0.1 mi	0:02:04	3 mph	164 true
	N25 13.424 W81 10.362	3/30/2008 4:44:02 PM 	-3 ft			0.1 mi	0:02:35	3 mph	158 true
	N25 13.332 W81 10.319	3/30/2008 4:46:33 PM 	5 ft			0.1 mi	0:02:31	3 mph	157 true
	N25 13.249 W81 10.260	3/30/2008 4:49:43 PM 	7 ft			0.1 mi	0:03:10	2 mph	147 true
	N25 13.245 W81 10.223	3/31/2008 3:44:00 PM 	5 ft			85 ft	0:07:32	0.1 mph	153 true
	N25 13.232 W81 10.237	4/1/2008 8:53:07 AM 	7 ft			97 ft	0:53:30	0.0 mph	235 true
	N25 13.154 W81 10.302	4/1/2008 8:57:27 AM 	5 ft			0.1 mi	0:04:20	2 mph	217 true
	N25 13.059 W81 10.269	4/1/2008 8:58:52 AM 	16 ft			0.1 mi	0:01:25	5 mph	162 true
	N25 12.967 W81 10.223	4/1/2008 9:00:20 AM 	8 ft			0.1 mi	0:01:28	5 mph	156 true
	N25 12.870 W81 10.189	4/1/2008 9:01:58 AM 	16 ft			0.1 mi	0:01:38	4 mph	162 true
	N25 12.776 W81 10.147	4/1/2008 9:03:29 AM 	26 ft			0.1 mi	0:01:31	5 mph	158 true
	N25 12.685 W81 10.101	4/1/2008 9:05:06 AM 	11 ft			0.1 mi	0:01:37	4 mph	156 true
	N25 12.591 W81 10.061	4/1/2008 9:06:34 AM 	10 ft			0.1 mi	0:01:28	5 mph	159 true
	N25 12.495 W81 10.029	4/1/2008 9:08:22 AM 	8 ft			0.1 mi	0:01:48	4 mph	163 true
	N25 12.401 W81 09.991	4/1/2008 9:09:57 AM 	-3 ft			0.1 mi	0:01:35	4 mph	160 true
	N25 12.306 W81 09.956	4/1/2008 9:11:45 AM 	8 ft			0.1 mi	0:01:48	4 mph	161 true
	N25 12.209 W81 09.930	4/1/2008 9:13:43 AM 	10 ft			0.1 mi	0:01:58	4 mph	166 true
	N25 12.112 W81 09.908	4/1/2008 9:15:32 AM 	11 ft			0.1 mi	0:01:49	4 mph	168 true
	N25 12.014 W81 09.884	4/1/2008 9:17:17 AM 	7 ft			0.1 mi	0:01:45	4 mph	167 true
	N25 11.914 W81 09.864	4/1/2008 9:19:01 AM 	8 ft			0.1 mi	0:01:44	4 mph	170 true
	N25 11.817 W81 09.839	4/1/2008 9:20:41 AM 	7 ft			0.1 mi	0:01:40	4 mph	167 true
	N25 11.720 W81 09.814	4/1/2008 9:22:21 AM 	13 ft			0.1 mi	0:01:40	4 mph	167 true
	N25 11.621 W81 09.788	4/1/2008 9:24:02 AM 	13 ft			0.1 mi	0:01:41	4 mph	167 true
	N25 11.525 W81 09.763	4/1/2008 9:25:51 AM 	11 ft			0.1 mi	0:01:49	4 mph	167 true
	N25 11.428 W81 09.733	4/1/2008 9:27:35 AM 	11 ft			0.1 mi	0:01:44	4 mph	164 true
	N25 11.332 W81 09.703	4/1/2008 9:29:12 AM 	15 ft			0.1 mi	0:01:37	4 mph	164 true
	N25 11.234 W81 09.678	4/1/2008 9:31:06 AM 	11 ft			0.1 mi	0:01:54	4 mph	167 true
	N25 11.136 W81 09.650	4/1/2008 9:32:58 AM 	10 ft			0.1 mi	0:01:52	4 mph	165 true
	N25 11.038 W81 09.624	4/1/2008 9:34:42 AM 	8 ft			0.1 mi	0:01:44	4 mph	167 true
	N25 10.940 W81 09.598	4/1/2008 9:36:24 AM 	5 ft			0.1 mi	0:01:42	4 mph	166 true
	N25 10.841 W81 09.577	4/1/2008 9:38:05 AM 	10 ft			0.1 mi	0:01:41	4 mph	169 true
	N25 10.744 W81 09.549	4/1/2008 9:39:51 AM 	8 ft			0.1 mi	0:01:46	4 mph	165 true
	N25 10.645 W81 09.526	4/1/2008 9:41:28 AM 	7 ft			0.1 mi	0:01:37	4 mph	168 true
	N25 10.549 W81 09.493	4/1/2008 9:43:06 AM 	5 ft			0.1 mi	0:01:38	4 mph	163 true
	N25 10.453 W81 09.457	4/1/2008 9:45:08 AM 	-1 ft			0.1 mi	0:02:02	3 mph	161 true
	N25 10.362 W81 09.413	4/1/2008 9:47:08 AM 	5 ft			0.1 mi	0:02:00	3 mph	157 true
	N25 10.267 W81 09.373	4/1/2008 9:49:23 AM 	0 ft			0.1 mi	0:02:15	3 mph	159 true
	N25 10.178 W81 09.323	4/1/2008 9:51:19 AM 	7 ft			0.1 mi	0:01:56	4 mph	153 true
	N25 10.095 W81 09.262	4/1/2008 9:52:56 AM 	-7 ft			0.1 mi	0:01:37	4 mph	146 true
	N25 10.014 W81 09.199	4/1/2008 9:54:30 AM 	-1 ft			0.1 mi	0:01:34	4 mph	145 true
	N25 09.928 W81 09.144	4/1/2008 9:56:34 AM 	0 ft			0.1 mi	0:02:04	3 mph	150 true
	N25 09.852 W81 09.073	4/1/2008 9:58:11 AM 	8 ft			0.1 mi	0:01:37	4 mph	140 true
	N25 09.772 W81 09.005	4/1/2008 9:59:45 AM 	7 ft			0.1 mi	0:01:34	4 mph	142 true
	N25 09.696 W81 08.935	4/1/2008 10:01:17 AM 	13 ft			0.1 mi	0:01:32	4 mph	140 true
	N25 09.617 W81 08.866	4/1/2008 10:02:54 AM 	15 ft			0.1 mi	0:01:37	4 mph	142 true
	N25 09.539 W81 08.799	4/1/2008 10:04:34 AM 	18 ft			0.1 mi	0:01:40	4 mph	142 true
	N25 09.457 W81 08.735	4/1/2008 10:06:22 AM 	13 ft			0.1 mi	0:01:48	4 mph	145 true
	N25 09.367 W81 08.683	4/1/2008 10:08:16 AM 	4 ft			0.1 mi	0:01:54	4 mph	153 true
	N25 09.280 W81 08.629	4/1/2008 10:10:10 AM 	8 ft			0.1 mi	0:01:54	4 mph	150 true
	N25 09.195 W81 08.569	4/1/2008 10:11:52 AM 	4 ft			0.1 mi	0:01:42	4 mph	147 true
	N25 09.116 W81 08.502	4/1/2008 10:13:48 AM 	0 ft			0.1 mi	0:01:56	4 mph	143 true
	N25 09.035 W81 08.435	4/1/2008 10:15:30 AM 	-1 ft			0.1 mi	0:01:42	4 mph	143 true
	N25 08.951 W81 08.375	4/1/2008 10:17:32 AM 	-3 ft			0.1 mi	0:02:02	3 mph	147 true
	N25 08.871 W81 08.311	4/1/2008 10:19:39 AM 	-1 ft			0.1 mi	0:02:07	3 mph	144 true
	N25 08.785 W81 08.255	4/1/2008 10:21:44 AM 	-3 ft			0.1 mi	0:02:05	3 mph	150 true
	N25 08.693 W81 08.212	4/1/2008 10:24:08 AM 	0 ft			0.1 mi	0:02:24	3 mph	157 true
	N25 08.603 W81 08.165	4/1/2008 10:26:19 AM 	4 ft			0.1 mi	0:02:11	3 mph	155 true
	N25 08.576 W81 08.097	4/1/2008 10:28:34 AM 	-9 ft			408 ft	0:02:15	2 mph	113 true
	N25 08.629 W81 08.004	4/1/2008 10:30:35 AM 	-11 ft			0.1 mi	0:02:01	3 mph	58 true
	N25 08.677 W81 07.907	4/1/2008 10:32:30 AM 	-11 ft			0.1 mi	0:01:55	4 mph	61 true
	N25 08.733 W81 07.817	4/1/2008 10:34:51 AM 	-17 ft			0.1 mi	0:02:21	3 mph	55 true
	N25 08.791 W81 07.727	4/1/2008 10:37:04 AM 	-3 ft			0.1 mi	0:02:13	3 mph	55 true
	N25 08.849 W81 07.638	4/1/2008 10:38:55 AM 	-3 ft			0.1 mi	0:01:51	4 mph	54 true
	N25 08.908 W81 07.549	4/1/2008 10:40:38 AM 	0 ft			0.1 mi	0:01:43	4 mph	54 true
	N25 08.970 W81 07.466	4/1/2008 10:42:42 AM 	0 ft			0.1 mi	0:02:04	3 mph	51 true
	N25 09.029 W81 07.377	4/1/2008 10:44:30 AM 	4 ft			0.1 mi	0:01:48	4 mph	54 true
	N25 09.063 W81 07.321	4/1/2008 10:46:47 AM 	0 ft			370 ft	0:02:17	2 mph	56 true
	N25 08.967 W81 07.287	4/1/2008 10:48:27 AM 	-4 ft			0.1 mi	0:01:40	4 mph	162 true
	N25 08.869 W81 07.265	4/1/2008 10:50:11 AM 	-4 ft			0.1 mi	0:01:44	4 mph	169 true
	N25 08.772 W81 07.236	4/1/2008 10:51:39 AM 	-3 ft			0.1 mi	0:01:28	5 mph	165 true
	N25 08.675 W81 07.207	4/1/2008 10:53:13 AM 	-7 ft			0.1 mi	0:01:34	4 mph	165 true
	N25 08.584 W81 07.163	4/1/2008 10:54:47 AM 	-12 ft			0.1 mi	0:01:34	4 mph	156 true
	N25 08.486 W81 07.136	4/1/2008 10:56:36 AM 	-6 ft			0.1 mi	0:01:49	4 mph	166 true
	N25 08.388 W81 07.109	4/1/2008 10:58:28 AM 	-9 ft			0.1 mi	0:01:52	4 mph	166 true
	N25 08.289 W81 07.091	4/1/2008 11:00:22 AM 	-7 ft			0.1 mi	0:01:54	4 mph	171 true
	N25 08.195 W81 07.051	4/1/2008 11:02:06 AM 	-3 ft			0.1 mi	0:01:44	4 mph	159 true
	N25 08.102 W81 07.003	4/1/2008 11:04:00 AM 	15 ft			0.1 mi	0:01:54	4 mph	155 true
	N25 08.008 W81 06.962	4/1/2008 11:05:49 AM 	27 ft			0.1 mi	0:01:49	4 mph	158 true
	N25 07.911 W81 06.931	4/1/2008 11:07:25 AM 	26 ft			0.1 mi	0:01:36	4 mph	164 true
	N25 07.815 W81 06.898	4/1/2008 11:09:04 AM 	26 ft			0.1 mi	0:01:39	4 mph	163 true
	N25 07.719 W81 06.867	4/1/2008 11:10:53 AM 	27 ft			0.1 mi	0:01:49	4 mph	164 true
	N25 07.624 W81 06.832	4/1/2008 11:12:36 AM 	26 ft			0.1 mi	0:01:43	4 mph	162 true
	N25 07.531 W81 06.790	4/1/2008 11:14:14 AM 	23 ft			0.1 mi	0:01:38	4 mph	158 true
	N25 07.436 W81 06.753	4/1/2008 11:15:57 AM 	29 ft			0.1 mi	0:01:43	4 mph	160 true
	N25 07.345 W81 06.708	4/1/2008 11:17:46 AM 	10 ft			0.1 mi	0:01:49	4 mph	156 true
	N25 07.253 W81 06.666	4/1/2008 11:19:39 AM 	18 ft			0.1 mi	0:01:53	4 mph	157 true
	N25 07.158 W81 06.640	4/1/2008 11:22:05 AM 	0 ft			0.1 mi	0:02:26	3 mph	166 true
	N25 07.110 W81 06.589	4/1/2008 11:24:39 AM 	-7 ft			404 ft	0:02:34	2 mph	136 true
	N25 07.160 W81 06.494	4/1/2008 11:26:31 AM 	-6 ft			0.1 mi	0:01:52	4 mph	60 true
	N25 07.212 W81 06.400	4/1/2008 11:28:26 AM 	-3 ft			0.1 mi	0:01:55	4 mph	59 true
	N25 07.259 W81 06.304	4/1/2008 11:30:18 AM 	4 ft			0.1 mi	0:01:52	4 mph	62 true
	N25 07.302 W81 06.205	4/1/2008 11:32:27 AM 	-3 ft			0.1 mi	0:02:09	3 mph	64 true
	N25 07.342 W81 06.103	4/1/2008 11:34:35 AM 	-3 ft			0.1 mi	0:02:08	3 mph	67 true
	N25 07.381 W81 06.002	4/1/2008 11:36:39 AM 	15 ft			0.1 mi	0:02:04	3 mph	67 true
	N25 07.427 W81 05.905	4/1/2008 11:38:57 AM 	10 ft			0.1 mi	0:02:18	3 mph	62 true
	N25 07.476 W81 05.810	4/1/2008 11:41:28 AM 	18 ft			0.1 mi	0:02:31	3 mph	61 true
	N25 07.513 W81 05.709	4/1/2008 11:43:56 AM 	10 ft			0.1 mi	0:02:28	3 mph	68 true
	N25 07.498 W81 05.639	4/1/2008 11:46:07 AM 	15 ft			393 ft	0:02:11	2 mph	104 true
	N25 07.398 W81 05.631	4/1/2008 11:47:39 AM 	2 ft			0.1 mi	0:01:32	5 mph	176 true
	N25 07.298 W81 05.620	4/1/2008 11:49:01 AM 	7 ft			0.1 mi	0:01:22	5 mph	174 true
	N25 07.198 W81 05.600	4/1/2008 11:50:20 AM 	2 ft			0.1 mi	0:01:19	5 mph	170 true
	N25 07.101 W81 05.570	4/1/2008 11:51:45 AM 	26 ft			0.1 mi	0:01:25	5 mph	164 true
	N25 07.005 W81 05.535	4/1/2008 11:53:05 AM 	26 ft			0.1 mi	0:01:20	5 mph	162 true
	N25 06.910 W81 05.499	4/1/2008 11:54:24 AM 	24 ft			0.1 mi	0:01:19	5 mph	161 true
	N25 06.819 W81 05.454	4/1/2008 11:55:51 AM 	18 ft			0.1 mi	0:01:27	5 mph	156 true
	N25 06.728 W81 05.407	4/1/2008 11:57:38 AM 	24 ft			0.1 mi	0:01:47	4 mph	155 true
	N25 06.637 W81 05.359	4/1/2008 11:59:30 AM 	26 ft			0.1 mi	0:01:52	4 mph	155 true
	N25 06.545 W81 05.315	4/1/2008 12:01:15 PM 	26 ft			0.1 mi	0:01:45	4 mph	157 true
	N25 06.452 W81 05.272	4/1/2008 12:03:18 PM 	24 ft			0.1 mi	0:02:03	3 mph	157 true
	N25 06.361 W81 05.227	4/1/2008 12:05:27 PM 	26 ft			0.1 mi	0:02:09	3 mph	156 true
	N25 06.268 W81 05.184	4/1/2008 12:07:28 PM 	18 ft			0.1 mi	0:02:01	3 mph	157 true
	N25 06.173 W81 05.148	4/1/2008 12:09:22 PM 	13 ft			0.1 mi	0:01:54	4 mph	161 true
	N25 06.079 W81 05.111	4/1/2008 12:11:45 PM 	16 ft			0.1 mi	0:02:23	3 mph	161 true
	N25 05.986 W81 05.073	4/1/2008 12:14:04 PM 	11 ft			0.1 mi	0:02:19	3 mph	159 true
	N25 06.042 W81 04.995	4/1/2008 12:16:27 PM 	13 ft			0.1 mi	0:02:23	3 mph	51 true
	N25 06.103 W81 04.906	4/1/2008 12:18:07 PM 	10 ft			0.1 mi	0:01:40	4 mph	53 true
	N25 06.164 W81 04.819	4/1/2008 12:19:44 PM 	5 ft			0.1 mi	0:01:37	4 mph	52 true
	N25 06.225 W81 04.733	4/1/2008 12:21:33 PM 	24 ft			0.1 mi	0:01:49	4 mph	52 true
	N25 06.288 W81 04.646	4/1/2008 12:23:12 PM 	7 ft			0.1 mi	0:01:39	4 mph	51 true
	N25 06.356 W81 04.565	4/1/2008 12:24:59 PM 	7 ft			0.1 mi	0:01:47	4 mph	47 true
	N25 06.425 W81 04.486	4/1/2008 12:26:49 PM 	8 ft			0.1 mi	0:01:50	4 mph	46 true
	N25 06.486 W81 04.398	4/1/2008 12:28:33 PM 	16 ft			0.1 mi	0:01:44	4 mph	53 true
	N25 06.548 W81 04.311	4/1/2008 12:30:26 PM 	16 ft			0.1 mi	0:01:53	4 mph	52 true
	N25 06.612 W81 04.225	4/1/2008 12:32:16 PM 	19 ft			0.1 mi	0:01:50	4 mph	51 true
	N25 06.680 W81 04.143	4/1/2008 12:34:26 PM 	8 ft			0.1 mi	0:02:10	3 mph	47 true
	N25 06.751 W81 04.065	4/1/2008 12:36:45 PM 	4 ft			0.1 mi	0:02:19	3 mph	45 true
	N25 06.820 W81 03.988	4/1/2008 12:38:57 PM 	15 ft			0.1 mi	0:02:12	3 mph	46 true
	N25 06.890 W81 03.908	4/1/2008 12:40:54 PM 	4 ft			0.1 mi	0:01:57	4 mph	46 true
	N25 06.958 W81 03.827	4/1/2008 12:43:02 PM 	13 ft			0.1 mi	0:02:08	3 mph	47 true
	N25 07.024 W81 03.744	4/1/2008 12:45:03 PM 	15 ft			0.1 mi	0:02:01	3 mph	49 true
	N25 07.091 W81 03.663	4/1/2008 12:47:14 PM 	15 ft			0.1 mi	0:02:11	3 mph	48 true
	N25 07.156 W81 03.580	4/1/2008 12:49:24 PM 	15 ft			0.1 mi	0:02:10	3 mph	49 true
	N25 07.216 W81 03.503	4/1/2008 12:51:25 PM 	7 ft			0.1 mi	0:02:01	3 mph	49 true
	N25 07.291 W81 03.430	4/1/2008 12:54:02 PM 	18 ft			0.1 mi	0:02:37	3 mph	41 true
	N25 07.364 W81 03.356	4/1/2008 12:56:35 PM 	16 ft			0.1 mi	0:02:33	3 mph	42 true
	N25 07.451 W81 03.304	4/1/2008 12:59:48 PM 	4 ft			0.1 mi	0:03:13	2 mph	29 true
	N25 07.529 W81 03.235	4/1/2008 1:02:17 PM 	16 ft			0.1 mi	0:02:29	3 mph	39 true
	N25 07.548 W81 03.207	4/1/2008 1:05:32 PM 	0 ft			192 ft	0:03:15	0.7 mph	54 true
	N25 07.451 W81 03.177	4/1/2008 1:07:34 PM 	-4 ft			0.1 mi	0:02:02	3 mph	164 true
	N25 07.354 W81 03.150	4/1/2008 1:09:37 PM 	7 ft			0.1 mi	0:02:03	3 mph	166 true
	N25 07.257 W81 03.120	4/1/2008 1:11:13 PM 	10 ft			0.1 mi	0:01:36	4 mph	164 true
	N25 07.162 W81 03.087	4/1/2008 1:12:58 PM 	13 ft			0.1 mi	0:01:45	4 mph	162 true
	N25 07.067 W81 03.062	4/1/2008 1:15:19 PM 	4 ft			0.1 mi	0:02:21	3 mph	167 true
	N25 06.970 W81 03.027	4/1/2008 1:17:27 PM 	11 ft			0.1 mi	0:02:08	3 mph	161 true
	N25 06.877 W81 02.985	4/1/2008 1:19:31 PM 	13 ft			0.1 mi	0:02:04	3 mph	158 true
	N25 06.785 W81 02.939	4/1/2008 1:21:27 PM 	13 ft			0.1 mi	0:01:56	4 mph	156 true
	N25 06.691 W81 02.900	4/1/2008 1:23:42 PM 	13 ft			0.1 mi	0:02:15	3 mph	159 true
	N25 06.598 W81 02.862	4/1/2008 1:25:55 PM 	11 ft			0.1 mi	0:02:13	3 mph	160 true
	N25 06.505 W81 02.821	4/1/2008 1:27:59 PM 	11 ft			0.1 mi	0:02:04	3 mph	158 true
	N25 06.412 W81 02.780	4/1/2008 1:29:55 PM 	5 ft			0.1 mi	0:01:56	4 mph	158 true
	N25 06.315 W81 02.759	4/1/2008 1:32:14 PM 	4 ft			0.1 mi	0:02:19	3 mph	169 true
	N25 06.214 W81 02.746	4/1/2008 1:34:27 PM 	-1 ft			0.1 mi	0:02:13	3 mph	173 true
	N25 06.117 W81 02.719	4/1/2008 1:36:09 PM 	-7 ft			0.1 mi	0:01:42	4 mph	166 true
	N25 06.067 W81 02.688	4/1/2008 1:38:21 PM 	8 ft			350 ft	0:02:12	2 mph	151 true
	N25 06.146 W81 02.620	4/1/2008 1:40:34 PM 	13 ft			0.1 mi	0:02:13	3 mph	38 true
	N25 06.219 W81 02.545	4/1/2008 1:42:47 PM 	8 ft			0.1 mi	0:02:13	3 mph	43 true
	N25 06.296 W81 02.475	4/1/2008 1:45:29 PM 	15 ft			0.1 mi	0:02:42	3 mph	40 true
	N25 06.369 W81 02.400	4/1/2008 1:47:47 PM 	16 ft			0.1 mi	0:02:18	3 mph	43 true
	N25 06.438 W81 02.318	4/1/2008 1:50:02 PM 	23 ft			0.1 mi	0:02:15	3 mph	47 true
	N25 06.506 W81 02.237	4/1/2008 1:52:09 PM 	24 ft			0.1 mi	0:02:07	3 mph	47 true
	N25 06.578 W81 02.160	4/1/2008 1:54:08 PM 	29 ft			0.1 mi	0:01:59	3 mph	45 true
	N25 06.657 W81 02.114	4/1/2008 1:57:10 PM 	7 ft			0.1 mi	0:03:02	2 mph	28 true
	N25 06.745 W81 02.065	4/1/2008 1:59:46 PM 	4 ft			0.1 mi	0:02:36	3 mph	26 true
	N25 06.828 W81 02.003	4/1/2008 2:01:52 PM 	8 ft			0.1 mi	0:02:06	3 mph	34 true
	N25 06.906 W81 01.936	4/1/2008 2:04:03 PM 	15 ft			0.1 mi	0:02:11	3 mph	38 true
	N25 06.988 W81 01.872	4/1/2008 2:06:40 PM 	10 ft			0.1 mi	0:02:37	3 mph	35 true
	N25 07.073 W81 01.812	4/1/2008 2:08:59 PM 	2 ft			0.1 mi	0:02:19	3 mph	33 true
	N25 07.154 W81 01.748	4/1/2008 2:11:20 PM 	-3 ft			0.1 mi	0:02:21	3 mph	35 true
	N25 07.234 W81 01.686	4/1/2008 2:14:03 PM 	0 ft			0.1 mi	0:02:43	2 mph	35 true
	N25 07.310 W81 01.615	4/1/2008 2:16:16 PM 	2 ft			0.1 mi	0:02:13	3 mph	40 true
	N25 07.387 W81 01.545	4/1/2008 2:18:23 PM 	7 ft			0.1 mi	0:02:07	3 mph	40 true
	N25 07.464 W81 01.476	4/1/2008 2:20:55 PM 	7 ft			0.1 mi	0:02:32	3 mph	39 true
	N25 07.532 W81 01.394	4/1/2008 2:22:58 PM 	18 ft			0.1 mi	0:02:03	3 mph	48 true
	N25 07.604 W81 01.317	4/1/2008 2:25:10 PM 	16 ft			0.1 mi	0:02:12	3 mph	44 true
	N25 07.668 W81 01.244	4/1/2008 2:27:26 PM 	13 ft			0.1 mi	0:02:16	3 mph	46 true
	N25 07.569 W81 01.254	4/1/2008 2:29:35 PM 	-4 ft			0.1 mi	0:02:09	3 mph	185 true
	N25 07.469 W81 01.261	4/1/2008 2:31:19 PM 	-6 ft			0.1 mi	0:01:44	4 mph	184 true
	N25 07.369 W81 01.273	4/1/2008 2:33:04 PM 	-4 ft			0.1 mi	0:01:45	4 mph	186 true
	N25 07.270 W81 01.287	4/1/2008 2:35:01 PM 	-11 ft			0.1 mi	0:01:57	4 mph	187 true
	N25 07.170 W81 01.297	4/1/2008 2:37:10 PM 	-6 ft			0.1 mi	0:02:09	3 mph	185 true
	N25 07.069 W81 01.305	4/1/2008 2:39:21 PM 	11 ft			0.1 mi	0:02:11	3 mph	184 true
	N25 06.968 W81 01.306	4/1/2008 2:41:27 PM 	13 ft			0.1 mi	0:02:06	3 mph	181 true
	N25 06.868 W81 01.303	4/1/2008 2:43:36 PM 	16 ft			0.1 mi	0:02:09	3 mph	179 true
	N25 06.769 W81 01.295	4/1/2008 2:46:07 PM 	21 ft			0.1 mi	0:02:31	3 mph	176 true
	N25 06.670 W81 01.274	4/1/2008 2:48:14 PM 	19 ft			0.1 mi	0:02:07	3 mph	169 true
	N25 06.679 W81 01.241	4/1/2008 2:51:08 PM 	-3 ft			191 ft	0:02:54	0.7 mph	73 true
	N25 06.748 W81 01.161	4/1/2008 2:53:24 PM 	0 ft			0.1 mi	0:02:16	3 mph	46 true
	N25 06.788 W81 01.142	4/1/2008 2:56:35 PM 	0 ft			266 ft	0:03:11	1.0 mph	23 true
	N25 06.877 W81 01.098	4/1/2008 2:59:00 PM 	-3 ft			0.1 mi	0:02:25	3 mph	24 true
	N25 06.959 W81 01.037	4/1/2008 3:01:04 PM 	-9 ft			0.1 mi	0:02:04	3 mph	34 true
	N25 07.041 W81 00.975	4/1/2008 3:03:04 PM 	-4 ft			0.1 mi	0:02:00	3 mph	35 true
	N25 07.120 W81 00.911	4/1/2008 3:05:21 PM 	-12 ft			0.1 mi	0:02:17	3 mph	36 true
	N25 07.183 W81 00.945	4/1/2008 3:09:12 PM 	-11 ft			426 ft	0:03:51	1.3 mph	334 true
	N25 07.251 W81 01.003	4/1/2008 3:13:24 PM 	-12 ft			524 ft	0:04:12	1.4 mph	322 true
	N25 07.340 W81 00.961	4/1/2008 3:16:01 PM 	15 ft			0.1 mi	0:02:37	3 mph	23 true
	N25 07.413 W81 00.884	4/1/2008 3:18:07 PM 	16 ft			0.1 mi	0:02:06	3 mph	44 true
	N25 07.482 W81 00.805	4/1/2008 3:20:00 PM 	19 ft			0.1 mi	0:01:53	4 mph	46 true
	N25 07.500 W81 00.750	4/1/2008 3:22:09 PM 	10 ft			322 ft	0:02:09	2 mph	69 true
	N25 07.400 W81 00.753	4/1/2008 3:23:50 PM 	7 ft			0.1 mi	0:01:41	4 mph	182 true
	N25 07.301 W81 00.768	4/1/2008 3:26:01 PM 	11 ft			0.1 mi	0:02:11	3 mph	188 true
	N25 07.202 W81 00.780	4/1/2008 3:28:06 PM 	15 ft			0.1 mi	0:02:05	3 mph	187 true
	N25 07.103 W81 00.796	4/1/2008 3:30:01 PM 	13 ft			0.1 mi	0:01:55	4 mph	188 true
	N25 07.164 W81 00.769	4/1/2008 3:32:56 PM 	11 ft			404 ft	0:02:55	2 mph	22 true
	N25 07.221 W81 00.677	4/1/2008 3:34:57 PM 	11 ft			0.1 mi	0:02:01	3 mph	56 true
	N25 07.276 W81 00.586	4/1/2008 3:36:52 PM 	19 ft			0.1 mi	0:01:55	4 mph	56 true
	N25 07.327 W81 00.491	4/1/2008 3:38:38 PM 	24 ft			0.1 mi	0:01:46	4 mph	59 true
	N25 07.382 W81 00.398	4/1/2008 3:40:29 PM 	19 ft			0.1 mi	0:01:51	4 mph	57 true
	N25 07.443 W81 00.310	4/1/2008 3:42:19 PM 	16 ft			0.1 mi	0:01:50	4 mph	53 true
	N25 07.393 W81 00.297	4/1/2008 3:44:08 PM 	4 ft			311 ft	0:01:49	2 mph	166 true
	N25 07.294 W81 00.303	4/1/2008 3:45:49 PM 	8 ft			0.1 mi	0:01:41	4 mph	183 true
	N25 07.194 W81 00.301	4/1/2008 3:47:38 PM 	8 ft			0.1 mi	0:01:49	4 mph	179 true
	N25 07.184 W81 00.264	4/1/2008 3:49:46 PM 	8 ft			209 ft	0:02:08	1.1 mph	107 true
	N25 07.244 W81 00.177	4/1/2008 3:51:53 PM 	4 ft			0.1 mi	0:02:07	3 mph	53 true
	N25 07.294 W81 00.080	4/1/2008 3:53:52 PM 	-1 ft			0.1 mi	0:01:59	4 mph	60 true
	N25 07.349 W80 59.988	4/1/2008 3:55:53 PM 	4 ft			0.1 mi	0:02:01	3 mph	56 true
	N25 07.409 W80 59.896	4/1/2008 3:57:58 PM 	-4 ft			0.1 mi	0:02:05	3 mph	54 true
	N25 07.468 W80 59.806	4/1/2008 3:59:59 PM 	-3 ft			0.1 mi	0:02:01	3 mph	54 true
	N25 07.518 W80 59.711	4/1/2008 4:01:54 PM 	-3 ft			0.1 mi	0:01:55	4 mph	60 true
	N25 07.514 W80 59.664	4/1/2008 4:04:13 PM 	-4 ft			257 ft	0:02:19	1.3 mph	96 true
	N25 07.414 W80 59.663	4/1/2008 4:05:51 PM 	8 ft			0.1 mi	0:01:38	4 mph	179 true
	N25 07.315 W80 59.685	4/1/2008 4:07:39 PM 	10 ft			0.1 mi	0:01:48	4 mph	192 true
	N25 07.217 W80 59.706	4/1/2008 4:09:27 PM 	2 ft			0.1 mi	0:01:48	4 mph	191 true
	N25 07.225 W80 59.650	4/1/2008 4:11:39 PM 	4 ft			308 ft	0:02:12	2 mph	81 true
	N25 07.271 W80 59.553	4/1/2008 4:13:43 PM 	4 ft			0.1 mi	0:02:04	3 mph	62 true
	N25 07.317 W80 59.455	4/1/2008 4:15:46 PM 	-7 ft			0.1 mi	0:02:03	3 mph	63 true
	N25 07.353 W80 59.352	4/1/2008 4:17:47 PM 	-14 ft			0.1 mi	0:02:01	3 mph	69 true
	N25 07.398 W80 59.253	4/1/2008 4:20:04 PM 	-12 ft			0.1 mi	0:02:17	3 mph	64 true
	N25 07.436 W80 59.153	4/1/2008 4:22:20 PM 	-9 ft			0.1 mi	0:02:16	3 mph	67 true
	N25 07.483 W80 59.056	4/1/2008 4:24:53 PM 	-4 ft			0.1 mi	0:02:33	3 mph	62 true
	N25 07.535 W80 58.962	4/1/2008 4:27:17 PM 	-30 ft			0.1 mi	0:02:24	3 mph	59 true
	N25 07.572 W80 58.860	4/1/2008 4:29:44 PM 	-1 ft			0.1 mi	0:02:27	3 mph	68 true
	N25 07.616 W80 58.762	4/1/2008 4:32:02 PM 	-3 ft			0.1 mi	0:02:18	3 mph	64 true
	N25 07.670 W80 58.667	4/1/2008 4:34:16 PM 	-58 ft			0.1 mi	0:02:14	3 mph	58 true
	N25 07.716 W80 58.568	4/1/2008 4:36:44 PM 	-26 ft			0.1 mi	0:02:28	3 mph	63 true
	N25 07.735 W80 58.510	4/1/2008 4:39:34 PM 	-17 ft			341 ft	0:02:50	1.4 mph	70 true
	N25 07.636 W80 58.498	4/1/2008 4:41:32 PM 	-9 ft			0.1 mi	0:01:58	4 mph	174 true
	N25 07.536 W80 58.515	4/1/2008 4:43:38 PM 	-4 ft			0.1 mi	0:02:06	3 mph	189 true
	N25 07.436 W80 58.532	4/1/2008 4:45:26 PM 	-3 ft			0.1 mi	0:01:48	4 mph	189 true
	N25 07.392 W80 58.515	4/1/2008 4:47:55 PM 	-30 ft			283 ft	0:02:29	1.3 mph	161 true
	N25 07.442 W80 58.420	4/1/2008 4:50:13 PM 	-34 ft			0.1 mi	0:02:18	3 mph	60 true
	N25 07.499 W80 58.330	4/1/2008 4:52:44 PM 	11 ft			0.1 mi	0:02:31	3 mph	55 true
	N25 07.546 W80 58.233	4/1/2008 4:54:55 PM 	19 ft			0.1 mi	0:02:11	3 mph	62 true
	N25 07.595 W80 58.136	4/1/2008 4:57:12 PM 	-14 ft			0.1 mi	0:02:17	3 mph	61 true
	N25 07.639 W80 58.044	4/1/2008 4:59:28 PM 	-11 ft			0.1 mi	0:02:16	3 mph	62 true
	N25 07.539 W80 58.051	4/1/2008 5:01:05 PM 	-3 ft			0.1 mi	0:01:37	4 mph	184 true
	N25 07.439 W80 58.064	4/1/2008 5:02:32 PM 	-6 ft			0.1 mi	0:01:27	5 mph	187 true
	N25 07.338 W80 58.069	4/1/2008 5:04:07 PM 	8 ft			0.1 mi	0:01:35	4 mph	183 true
	N25 07.238 W80 58.069	4/1/2008 5:05:45 PM 	7 ft			0.1 mi	0:01:38	4 mph	180 true
	N25 07.137 W80 58.071	4/1/2008 5:07:43 PM 	11 ft			0.1 mi	0:01:58	4 mph	181 true
	N25 07.037 W80 58.088	4/1/2008 5:09:29 PM 	10 ft			0.1 mi	0:01:46	4 mph	189 true
	N25 07.000 W80 58.102	4/1/2008 5:12:16 PM 	0 ft			237 ft	0:02:47	1.0 mph	200 true
	N25 07.058 W80 58.022	4/1/2008 5:14:40 PM 	10 ft			0.1 mi	0:02:24	3 mph	52 true
	N25 07.121 W80 57.935	4/1/2008 5:16:50 PM 	5 ft			0.1 mi	0:02:10	3 mph	51 true
	N25 07.178 W80 57.845	4/1/2008 5:18:59 PM 	4 ft			0.1 mi	0:02:09	3 mph	55 true
	N25 07.236 W80 57.755	4/1/2008 5:21:04 PM 	4 ft			0.1 mi	0:02:05	3 mph	55 true
	N25 07.288 W80 57.661	4/1/2008 5:23:08 PM 	7 ft			0.1 mi	0:02:04	3 mph	59 true
	N25 07.345 W80 57.571	4/1/2008 5:25:18 PM 	5 ft			0.1 mi	0:02:10	3 mph	55 true
	N25 07.411 W80 57.488	4/1/2008 5:27:34 PM 	7 ft			0.1 mi	0:02:16	3 mph	49 true
	N25 07.485 W80 57.414	4/1/2008 5:29:36 PM 	15 ft			0.1 mi	0:02:02	3 mph	42 true
	N25 07.549 W80 57.328	4/1/2008 5:31:36 PM 	10 ft			0.1 mi	0:02:00	3 mph	51 true
	N25 07.617 W80 57.247	4/1/2008 5:33:40 PM 	19 ft			0.1 mi	0:02:04	3 mph	47 true
	N25 07.636 W80 57.185	4/1/2008 5:35:53 PM 	19 ft			359 ft	0:02:13	2 mph	71 true
	N25 07.537 W80 57.171	4/1/2008 5:37:42 PM 	19 ft			0.1 mi	0:01:49	4 mph	173 true
	N25 07.436 W80 57.160	4/1/2008 5:39:30 PM 	8 ft			0.1 mi	0:01:48	4 mph	174 true
	N25 07.346 W80 57.170	4/1/2008 5:41:00 PM 	5 ft			0.1 mi	0:01:30	4 mph	186 true
	N25 07.246 W80 57.172	4/1/2008 5:42:39 PM 	8 ft			0.1 mi	0:01:39	4 mph	181 true
	N25 07.146 W80 57.168	4/1/2008 5:44:13 PM 	8 ft			0.1 mi	0:01:34	4 mph	178 true
	N25 07.046 W80 57.153	4/1/2008 5:45:35 PM 	13 ft			0.1 mi	0:01:22	5 mph	172 true
	N25 06.946 W80 57.156	4/1/2008 5:47:08 PM 	10 ft			0.1 mi	0:01:33	4 mph	182 true
	N25 06.856 W80 57.162	4/1/2008 5:48:58 PM 	8 ft			0.1 mi	0:01:50	3 mph	183 true
	N25 06.928 W80 57.086	4/1/2008 5:51:18 PM 	11 ft			0.1 mi	0:02:20	3 mph	44 true
	N25 07.000 W80 57.009	4/1/2008 5:53:05 PM 	5 ft			0.1 mi	0:01:47	4 mph	44 true
	N25 07.063 W80 56.923	4/1/2008 5:54:51 PM 	4 ft			0.1 mi	0:01:46	4 mph	51 true
	N25 07.124 W80 56.837	4/1/2008 5:56:43 PM 	7 ft			0.1 mi	0:01:52	4 mph	52 true
	N25 07.205 W80 56.773	4/1/2008 5:59:12 PM 	15 ft			0.1 mi	0:02:29	3 mph	35 true
	N25 07.288 W80 56.711	4/1/2008 6:01:34 PM 	10 ft			0.1 mi	0:02:22	3 mph	34 true
	N25 07.357 W80 56.632	4/1/2008 6:03:20 PM 	7 ft			0.1 mi	0:01:46	4 mph	46 true
	N25 07.425 W80 56.550	4/1/2008 6:05:24 PM 	5 ft			0.1 mi	0:02:04	3 mph	48 true
	N25 07.491 W80 56.467	4/1/2008 6:07:28 PM 	4 ft			0.1 mi	0:02:04	3 mph	49 true
	N25 07.566 W80 56.411	4/1/2008 6:10:36 PM 	4 ft			0.1 mi	0:03:08	2 mph	34 true
	N25 07.647 W80 56.346	4/1/2008 6:12:57 PM 	2 ft			0.1 mi	0:02:21	3 mph	36 true
	N25 07.716 W80 56.266	4/1/2008 6:14:54 PM 	11 ft			0.1 mi	0:01:57	4 mph	46 true
	N25 07.780 W80 56.181	4/1/2008 6:16:56 PM 	7 ft			0.1 mi	0:02:02	3 mph	50 true
	N25 07.733 W80 56.142	4/1/2008 6:19:26 PM 	8 ft			362 ft	0:02:30	2 mph	143 true
	N25 07.641 W80 56.098	4/1/2008 6:21:23 PM 	16 ft			0.1 mi	0:01:57	4 mph	157 true
	N25 07.586 W80 56.056	4/1/2008 6:23:35 PM 	5 ft			409 ft	0:02:12	2 mph	145 true
	N25 07.658 W80 55.979	4/1/2008 6:25:25 PM 	-7 ft			0.1 mi	0:01:50	4 mph	44 true
	N25 07.727 W80 55.899	4/1/2008 6:28:04 PM 	-15 ft			0.1 mi	0:02:39	3 mph	46 true
	N25 07.786 W80 55.811	4/1/2008 6:30:24 PM 	4 ft			0.1 mi	0:02:20	3 mph	53 true
	N25 07.851 W80 55.727	4/1/2008 6:32:45 PM 	10 ft			0.1 mi	0:02:21	3 mph	49 true
	N25 07.917 W80 55.645	4/1/2008 6:35:08 PM 	0 ft			0.1 mi	0:02:23	3 mph	48 true
	N25 08.012 W80 55.614	4/1/2008 6:36:56 PM 	-3 ft			0.1 mi	0:01:48	4 mph	17 true
	N25 08.109 W80 55.584	4/1/2008 6:38:02 PM 	-4 ft			0.1 mi	0:01:06	6 mph	16 true
	N25 08.205 W80 55.551	4/1/2008 6:39:11 PM 	-4 ft			0.1 mi	0:01:09	6 mph	17 true
	N25 08.293 W80 55.499	4/1/2008 6:40:25 PM 	-3 ft			0.1 mi	0:01:14	6 mph	28 true
	N25 08.364 W80 55.422	4/1/2008 6:41:50 PM 	2 ft			0.1 mi	0:01:25	5 mph	45 true
	N25 08.432 W80 55.340	4/1/2008 6:43:43 PM 	2 ft			0.1 mi	0:01:53	4 mph	47 true
	N25 08.509 W80 55.365	4/1/2008 6:47:34 PM 	2 ft			488 ft	0:03:51	1.4 mph	344 true
	N25 08.535 W80 55.395	4/1/2008 6:51:33 PM 	7 ft			224 ft	0:03:59	0.6 mph	314 true

email paul@paulsedwick.com - copyright 2008 Paul Sedwick...paulsedwick.com home page